Provisional Data: Trout Brook near McGraw, NY


Please select a monitoring station.
Please select start date.
Please select start date.

Toggle Unit: C/F Toggle Unit: C/F
Sample Time Temperature (C) Temperature (F) Specific Conductivity (mS/cm) pH   Turbidity (NTU+) DO (mg/L)
10/20/2020 12:00:00 AM 11.25 52.25 0.301 7.67 2.46 9.61
10/20/2020 12:15:00 AM 11.28 52.304 0.299 7.68 2.25 9.61
10/20/2020 12:30:00 AM 11.3 52.34 0.298 7.68 2.32 9.61
10/20/2020 12:45:00 AM 11.3 52.34 0.296 7.68 2.38 9.64
10/20/2020 1:00:00 AM 11.32 52.376 0.296 7.7 2.33 9.64
10/20/2020 1:15:00 AM 11.36 52.448 0.296 7.67 2.46 9.6
10/20/2020 1:30:00 AM 11.34 52.412 0.295 7.7 2.68 9.66
10/20/2020 1:45:00 AM 11.38 52.484 0.296 7.67 2.72 9.6
10/20/2020 2:00:00 AM 11.38 52.484 0.297 7.67 2.64 9.6
10/20/2020 2:15:00 AM 11.39 52.502 0.297 7.67 2.58 9.6
10/20/2020 2:30:00 AM 11.4 52.52 0.297 7.67 2.69 9.62
10/20/2020 2:45:00 AM 11.41 52.538 0.297 7.68 3.2 9.59
10/20/2020 3:00:00 AM 11.42 52.556 0.297 7.69 2.55 9.61
10/20/2020 3:15:00 AM 11.42 52.556 0.296 7.67 2.67 9.61
10/20/2020 3:30:00 AM 11.43 52.574 0.295 7.69 2.69 9.61
10/20/2020 3:45:00 AM 11.43 52.574 0.294 7.69 2.67 9.63
10/20/2020 4:00:00 AM 11.46 52.628 0.293 7.69 2.89 9.6
10/20/2020 4:15:00 AM 11.46 52.628 0.292 7.69 2.44 9.62
10/20/2020 4:30:00 AM 11.48 52.664 0.291 7.69 2.92 9.6
10/20/2020 4:45:00 AM 11.48 52.664 0.291 7.68 2.63 9.6
10/20/2020 5:00:00 AM 11.51 52.718 0.291 7.68 2.82 9.57
10/20/2020 5:15:00 AM 11.51 52.718 0.29 7.69 2.66 9.58
10/20/2020 5:30:00 AM 11.51 52.718 0.29 7.68 2.72 9.58
10/20/2020 5:45:00 AM 11.52 52.736 0.29 7.69 2.51 9.59
10/20/2020 6:00:00 AM 11.54 52.772 0.291 7.69 2.15 9.58
10/20/2020 6:15:00 AM 11.53 52.754 0.29 7.68 2.32 9.59
10/20/2020 6:30:00 AM 11.53 52.754 0.289 7.68 2.12 9.6
10/20/2020 6:45:00 AM 11.57 52.826 0.285 7.71 2.53 9.6
10/20/2020 7:00:00 AM 11.63 52.934 0.282 7.7 2.45 9.63
10/20/2020 7:15:00 AM 11.62 52.916 0.284 7.67 2.49 9.58
10/20/2020 7:30:00 AM 11.62 52.916 0.284 7.67 3.64 9.59
10/20/2020 7:45:00 AM 11.59 52.862 0.283 7.67 5.05 9.63
10/20/2020 8:00:00 AM 11.61 52.898 0.281 7.66 4.65 9.6
10/20/2020 8:15:00 AM 11.62 52.916 0.276 7.64 5.22 9.53
10/20/2020 8:30:00 AM 11.62 52.916 0.272 7.66 5.3 9.6
10/20/2020 8:45:00 AM 11.63 52.934 0.272 7.65 4.76 9.63
10/20/2020 9:00:00 AM 11.65 52.97 0.273 7.67 4.2 9.71
10/20/2020 9:15:00 AM 11.64 52.952 0.276 7.67 3.77 9.77
10/20/2020 9:30:00 AM 11.67 53.006 0.278 7.71 3.61 9.94
10/20/2020 9:45:00 AM 11.66 52.988 0.28 7.73 3.3 10
10/20/2020 10:00:00 AM 11.69 53.042 0.282 7.76 3.1 10.1
10/20/2020 10:15:00 AM 11.7 53.06 0.282 7.78 3.27 10.22
10/20/2020 10:30:00 AM 11.72 53.096 0.283 7.79 3.2 10.23
10/20/2020 10:45:00 AM 11.72 53.096 0.283 7.77 3.01 10.23
10/20/2020 11:00:00 AM 11.74 53.132 0.283 7.79 2.92 10.22
10/20/2020 11:15:00 AM 11.77 53.186 0.283 7.79 3.03 10.22
10/20/2020 11:30:00 AM 11.78 53.204 0.283 7.81 3.12 10.3
10/20/2020 11:45:00 AM 11.8 53.24 0.283 7.84 2.88 10.41
10/20/2020 12:00:00 PM 11.82 53.276 0.283 7.86 3.35 10.45
10/20/2020 12:15:00 PM 11.82 53.276 0.282 7.84 5.22 10.41
10/20/2020 12:30:00 PM 11.81 53.258 0.282 7.84 6.29 10.39
10/20/2020 12:45:00 PM 11.81 53.258 0.281 7.84 4.76 10.38
10/20/2020 1:00:00 PM 11.86 53.348 0.28 7.88 4.64 10.53
10/20/2020 1:15:00 PM 11.86 53.348 0.279 7.86 4.62 10.45
10/20/2020 1:30:00 PM 11.86 53.348 0.279 7.87 5.66 10.48
10/20/2020 1:45:00 PM 11.87 53.366 0.278 7.88 4.31 10.5
10/20/2020 2:00:00 PM 11.91 53.438 0.277 7.87 4.07 10.65
10/20/2020 2:15:00 PM 11.88 53.384 0.277 7.86 3.33 10.49
10/20/2020 2:30:00 PM 11.83 53.294 0.277 7.78 5.78 10.43
10/20/2020 2:45:00 PM 11.83 53.294 0.275 7.8 5.57 10.49
10/20/2020 3:00:00 PM 11.83 53.294 0.275 7.81 7.88 10.45
10/20/2020 3:15:00 PM 11.82 53.276 0.274 7.85 3.67 10.52
10/20/2020 3:30:00 PM 11.79 53.222 0.273 7.8 4.12 10.39
10/20/2020 3:45:00 PM 11.77 53.186 0.273 7.82 4.34 10.4
10/20/2020 4:00:00 PM 11.74 53.132 0.239 7.76 4.74 10.31
10/20/2020 4:15:00 PM 11.71 53.078 0.273 7.81 11.48 10.3
10/20/2020 4:30:00 PM 11.67 53.006 0.272 7.76 4.69 10.24
10/20/2020 4:45:00 PM 11.62 52.916 0.272 7.71 4.58 10.15
10/20/2020 5:00:00 PM 11.6 52.88 0.272 7.69 4.92 10.12
10/20/2020 5:15:00 PM 11.56 52.808 0.272 7.7 4.51 10.06
10/20/2020 5:30:00 PM 11.51 52.718 0.272 7.71 4.02 10.04
10/20/2020 5:45:00 PM 11.5 52.7 0.272 7.68 3.93 9.98
10/20/2020 6:00:00 PM 11.48 52.664 0.273 7.64 3.66 9.91
10/20/2020 6:15:00 PM 11.42 52.556 0.273 7.6 3.62 9.9
10/20/2020 6:30:00 PM 11.38 52.484 0.273 7.61 3.74 9.9
10/20/2020 6:45:00 PM 11.35 52.43 0.274 7.61 4.16 9.87
10/20/2020 7:00:00 PM 11.34 52.412 0.274 7.59 4.29 9.84
10/20/2020 7:15:00 PM 11.32 52.376 0.275 7.57 4.18 9.81
10/20/2020 7:30:00 PM 11.28 52.304 0.274 7.67 4.02 9.84
10/20/2020 7:45:00 PM 11.26 52.268 0.275 7.6 3.92 9.83
10/20/2020 8:00:00 PM 11.25 52.25 0.276 7.64 5.76 9.84
10/20/2020 8:15:00 PM 11.22 52.196 0.275 7.65 18.81 9.84
10/20/2020 8:30:00 PM 11.21 52.178 0.276 7.64 3171.5 9.84
10/20/2020 8:45:00 PM 11.19 52.142 0.275 7.59 1688.36 9.83
10/20/2020 9:00:00 PM 11.17 52.106 0.275 7.62 3.52 9.84
10/20/2020 9:15:00 PM 11.16 52.088 0.276 7.57 514.96 9.85
10/20/2020 9:30:00 PM 11.15 52.07 0.275 7.59 3.42 9.85
10/20/2020 9:45:00 PM 11.15 52.07 0.276 7.57 3.39 9.85
10/20/2020 10:00:00 PM 11.11 51.998 0.275 7.58 3.29 9.89
10/20/2020 10:15:00 PM 11.1 51.98 0.275 7.58 3.14 9.88
10/20/2020 10:30:00 PM 11.11 51.998 0.275 7.64 2.9 9.84
10/20/2020 10:45:00 PM 11.09 51.962 0.275 7.65 3.26 9.87
10/20/2020 11:00:00 PM 11.09 51.962 0.275 7.65 3.05 9.86
10/20/2020 11:15:00 PM 11.09 51.962 0.275 7.65 3 9.87
10/20/2020 11:30:00 PM 11.08 51.944 0.275 7.64 3.06 9.86
10/20/2020 11:45:00 PM 11.08 51.944 0.275 7.64 2.82 9.85
10/21/2020 12:00:00 AM 11.07 51.926 0.275 7.65 2.63 9.87
10/21/2020 12:15:00 AM 11.06 51.908 0.275 7.65 3.05 9.86
10/21/2020 12:30:00 AM 11.07 51.926 0.275 7.64 2.69 9.84
10/21/2020 12:45:00 AM 11.06 51.908 0.275 7.64 2.54 9.84
10/21/2020 1:00:00 AM 11.05 51.89 0.276 7.64 3.64 9.84
10/21/2020 1:15:00 AM 11.04 51.872 0.276 7.64 3.22 9.85
10/21/2020 1:30:00 AM 11.04 51.872 0.276 7.64 3.05 9.85
10/21/2020 1:45:00 AM 11.04 51.872 0.276 7.65 3.24 9.83
10/21/2020 2:00:00 AM 11.03 51.854 0.276 7.67 2.87 9.85
10/21/2020 2:15:00 AM 11.02 51.836 0.276 7.66 2.98 9.84
10/21/2020 2:30:00 AM 11.03 51.854 0.277 7.65 2.81 9.83
10/21/2020 2:45:00 AM 11.03 51.854 0.277 7.66 2.45 9.83
10/21/2020 3:00:00 AM 11.02 51.836 0.277 7.64 2.4 9.81
10/21/2020 3:15:00 AM 11.03 51.854 0.277 7.65 2.89 9.82
10/21/2020 3:30:00 AM 11.04 51.872 0.278 7.67 2.74 9.8
10/21/2020 3:45:00 AM 11.05 51.89 0.278 7.65 2.91 9.8
10/21/2020 4:00:00 AM 11.06 51.908 0.278 7.66 3.03 9.8
10/21/2020 4:15:00 AM 11.07 51.926 0.279 7.66 3.11 9.79
10/21/2020 4:30:00 AM 11.09 51.962 0.279 7.65 2.64 9.74
10/21/2020 4:45:00 AM 11.1 51.98 0.279 7.64 2.63 9.75
10/21/2020 5:00:00 AM 11.09 51.962 0.279 7.66 2.62 9.77
10/21/2020 5:15:00 AM 11.12 52.016 0.28 7.65 2.22 9.75
10/21/2020 5:30:00 AM 11.12 52.016 0.279 7.65 2.19 9.76
10/21/2020 5:45:00 AM 11.14 52.052 0.28 7.65 2.35 9.75
10/21/2020 6:00:00 AM 11.17 52.106 0.281 7.66 2.23 9.73
10/21/2020 6:15:00 AM 11.17 52.106 0.281 7.64 2.11 9.72
10/21/2020 6:30:00 AM 11.19 52.142 0.281 7.65 2.11 9.71
10/21/2020 6:45:00 AM 11.21 52.178 0.281 7.65 2.13 9.7
10/21/2020 7:00:00 AM 11.24 52.232 0.281 7.66 2.21 9.69
10/21/2020 7:15:00 AM 11.26 52.268 0.281 7.66 2.12 9.7
10/21/2020 7:30:00 AM 11.29 52.322 0.282 7.66 2.13 9.72
10/21/2020 7:45:00 AM 11.34 52.412 0.282 7.66 2.25 9.73
10/21/2020 8:00:00 AM 11.37 52.466 0.282 7.69 2.15 9.84
10/21/2020 8:15:00 AM 11.43 52.574 0.282 7.71 1.95 9.96
10/21/2020 8:30:00 AM 11.48 52.664 0.282 7.75 2.19 10.08
10/21/2020 8:45:00 AM 11.59 52.862 0.282 7.79 1.89 10.31
10/21/2020 9:00:00 AM 11.67 53.006 0.281 7.83 2.04 10.39
10/21/2020 9:15:00 AM 11.74 53.132 0.281 7.86 1.91 10.49
10/21/2020 9:30:00 AM 11.83 53.294 0.281 7.9 1.97 10.58
10/21/2020 9:45:00 AM 12.08 53.744 0.281 8 1.91 10.83
10/21/2020 10:00:00 AM 12.11 53.798 0.281 7.94 1.9 10.68
10/21/2020 10:15:00 AM 12.24 54.032 0.281 8.02 2 10.84
10/21/2020 10:30:00 AM 12.43 54.374 0.281 8.08 1.89 10.92
10/21/2020 10:45:00 AM 12.63 54.734 0.281 8.12 1.83 11
10/21/2020 11:00:00 AM 12.85 55.13 0.281 8.14 1.87 11.06
10/21/2020 11:15:00 AM 13.25 55.85 0.28 8.22 1.88 11.16
10/21/2020 11:30:00 AM 13.39 56.102 0.279 8.23 1.89 11.08
10/21/2020 11:45:00 AM 13.76 56.768 0.28 8.26 1.87 11.08
10/21/2020 12:00:00 PM 14.02 57.236 0.278 8.29 1.92 11.11
10/21/2020 12:15:00 PM 14.07 57.326 0.279 8.26 1.9 11.01
10/21/2020 12:30:00 PM 14.36 57.848 0.279 8.34 2.09 11.09
10/21/2020 12:45:00 PM 14.62 58.316 0.278 8.33 1.9 11
10/21/2020 1:00:00 PM 14.84 58.712 0.279 8.35 1.88 10.98
10/21/2020 1:15:00 PM 15.04 59.072 0.278 8.36 1.81 11.01
10/21/2020 1:30:00 PM 15.03 59.054 0.278 8.3 1.98 10.86
10/21/2020 1:45:00 PM 15.18 59.324 0.278 8.37 1.86 10.89
10/21/2020 2:00:00 PM 15.2 59.36 0.278 8.3 1.87 10.8
10/21/2020 2:15:00 PM 15.62 60.116 0.278 8.42 2.15 10.98
10/21/2020 2:30:00 PM 15.57 60.026 0.279 8.31 1.99 10.74
10/21/2020 2:45:00 PM 15.69 60.242 0.278 8.38 1.8 10.77
10/21/2020 3:00:00 PM 15.64 60.152 0.279 8.29 2.11 10.6
10/21/2020 3:15:00 PM 15.63 60.134 0.279 8.28 1.86 10.57
10/21/2020 3:30:00 PM 15.6 60.08 0.279 8.25 1.93 10.48
10/21/2020 3:45:00 PM 15.53 59.954 0.279 8.2 1.8 10.31
10/21/2020 4:00:00 PM 15.4 59.72 0.281 8.07 2.54 9.91
10/21/2020 4:15:00 PM 15.34 59.612 0.28 7.98 1.76 9.66
10/21/2020 4:30:00 PM 15.23 59.414 0.281 7.87 1.92 9.51
10/21/2020 4:45:00 PM 15.17 59.306 0.282 7.87 1.82 9.57
10/21/2020 5:00:00 PM 15.06 59.108 0.282 7.74 1.75 9.14
10/21/2020 5:15:00 PM 15.08 59.144 0.276 7.73 1.95 9.1
10/21/2020 5:30:00 PM 15 59 0.277 7.67 3.87 8.98
10/21/2020 5:45:00 PM 14.91 58.838 0.279 7.64 1.83 8.97
10/21/2020 6:00:00 PM 14.84 58.712 0.277 7.62 2.06 8.87
10/21/2020 6:15:00 PM 14.74 58.532 0.278 7.59 2.55 8.81
10/21/2020 6:30:00 PM 14.67 58.406 0.274 7.56 4.49 8.71
10/21/2020 6:45:00 PM 14.64 58.352 0.272 7.58 5.95 8.63
10/21/2020 7:00:00 PM 14.59 58.262 0.274 7.56 4.58 8.62
10/21/2020 7:15:00 PM 14.53 58.154 0.273 7.57 3.74 8.64
10/21/2020 7:30:00 PM 14.45 58.01 0.275 7.54 3.84 8.63
10/21/2020 7:45:00 PM 14.38 57.884 0.277 7.53 3.32 8.64
10/21/2020 8:00:00 PM 14.3 57.74 0.278 7.54 3.08 8.68
10/21/2020 8:15:00 PM 14.24 57.632 0.28 7.54 2.75 8.68
10/21/2020 8:30:00 PM 14.17 57.506 0.281 7.55 2.46 8.71
10/21/2020 8:45:00 PM 14.12 57.416 0.281 7.57 2.47 8.78
10/21/2020 9:00:00 PM 14.06 57.308 0.282 7.56 2.7 8.77
10/21/2020 9:15:00 PM 14.01 57.218 0.283 7.56 2.14 8.79
10/21/2020 9:30:00 PM 13.96 57.128 0.283 7.56 2.13 8.79
10/21/2020 9:45:00 PM 13.9 57.02 0.284 7.55 2.14 8.8
10/21/2020 10:00:00 PM 13.86 56.948 0.285 7.56 2.19 8.81
10/21/2020 10:15:00 PM 13.82 56.876 0.286 7.55 1.99 8.83
10/21/2020 10:30:00 PM 13.78 56.804 0.286 7.55 2.1 8.81
10/21/2020 10:45:00 PM 13.74 56.732 0.286 7.57 2.47 8.81
10/21/2020 11:00:00 PM 13.71 56.678 0.286 7.56 2.44 8.85
10/21/2020 11:15:00 PM 13.67 56.606 0.287 7.56 2.59 8.88
10/21/2020 11:30:00 PM 13.63 56.534 0.286 7.57 2.46 8.91
10/21/2020 11:45:00 PM 13.59 56.462 0.285 7.57 2.3 8.92
10/22/2020 12:00:00 AM 13.55 56.39 0.284 7.55 2.31 8.92
10/22/2020 12:15:00 AM 13.52 56.336 0.284 7.56 2.21 8.92
10/22/2020 12:30:00 AM 13.48 56.264 0.283 7.55 2.2 8.93
10/22/2020 12:45:00 AM 13.45 56.21 0.282 7.57 2 8.97
10/22/2020 1:00:00 AM 13.39 56.102 0.283 7.55 3.19 8.96
10/22/2020 1:15:00 AM 13.38 56.084 0.283 7.57 2.15 8.97
10/22/2020 1:30:00 AM 13.35 56.03 0.282 7.57 2.14 8.99
10/22/2020 1:45:00 AM 13.33 55.994 0.283 7.57 2.24 9
10/22/2020 2:00:00 AM 13.29 55.922 0.284 7.55 2.22 8.97
10/22/2020 2:15:00 AM 13.27 55.886 0.285 7.56 2.18 8.99
10/22/2020 2:30:00 AM 13.23 55.814 0.285 7.57 2.11 9.01
10/22/2020 2:45:00 AM 13.21 55.778 0.284 7.58 2.27 9.03
10/22/2020 3:00:00 AM 13.15 55.67 0.284 7.59 2.14 9.02
10/22/2020 3:15:00 AM 13.13 55.634 0.284 7.57 2.2 9.05
10/22/2020 3:30:00 AM 13.1 55.58 0.285 7.56 2.12 9.03
10/22/2020 3:45:00 AM 13.08 55.544 0.284 7.58 2.08 9.06
10/22/2020 4:00:00 AM 13.05 55.49 0.284 7.58 2.09 9.09
10/22/2020 4:15:00 AM 13.03 55.454 0.284 7.58 2.13 9.08
10/22/2020 4:30:00 AM 13 55.4 0.284 7.6 2.26 9.12
10/22/2020 4:45:00 AM 12.96 55.328 0.284 7.58 2.35 9.12
10/22/2020 5:00:00 AM 12.95 55.31 0.284 7.59 2.21 9.13
10/22/2020 5:15:00 AM 12.93 55.274 0.284 7.6 2.13 9.15
10/22/2020 5:30:00 AM 12.91 55.238 0.285 7.6 2.17 9.15
10/22/2020 5:45:00 AM 12.9 55.22 0.286 7.59 2.09 9.12
10/22/2020 6:00:00 AM 12.88 55.184 0.286 7.59 2.03 9.14
10/22/2020 6:15:00 AM 12.86 55.148 0.287 7.6 2.12 9.16
10/22/2020 6:30:00 AM 12.85 55.13 0.288 7.59 2.22 9.13
10/22/2020 6:45:00 AM 12.81 55.058 0.287 7.61 2.11 9.2
10/22/2020 7:00:00 AM 12.75 54.95 0.288 7.59 2.12 9.18
10/22/2020 7:15:00 AM 12.75 54.95 0.288 7.58 2.06 9.15
10/22/2020 7:30:00 AM 12.75 54.95 0.288 7.6 2.13 9.21
10/22/2020 7:45:00 AM 12.75 54.95 0.288 7.62 1.94 9.26
10/22/2020 8:00:00 AM 12.74 54.932 0.288 7.62 2.09 9.32
10/22/2020 8:15:00 AM 12.76 54.968 0.288 7.63 1.97 9.43
10/22/2020 8:30:00 AM 12.76 54.968 0.288 7.64 1.93 9.45
10/22/2020 8:45:00 AM 12.76 54.968 0.288 7.65 1.95 9.46
10/22/2020 9:00:00 AM 12.79 55.022 0.288 7.7 1.92 9.67
10/22/2020 9:15:00 AM 12.8 55.04 0.288 7.7 1.85 9.71
10/22/2020 9:30:00 AM 12.84 55.112 0.288 7.73 1.93 9.85
10/22/2020 9:45:00 AM 12.89 55.202 0.288 7.77 1.85 10.01
10/22/2020 10:00:00 AM 12.9 55.22 0.287 7.78 1.88 9.99
10/22/2020 10:15:00 AM 12.94 55.292 0.287 7.79 1.95 10.06
10/22/2020 10:30:00 AM 13.01 55.418 0.287 7.86 1.86 10.29
10/22/2020 10:45:00 AM 13.12 55.616 0.286 7.97 1.91 10.59
10/22/2020 11:00:00 AM 13.12 55.616 0.287 7.91 1.84 10.37
10/22/2020 11:15:00 AM 13.12 55.616 0.287 7.86 1.98 10.23
10/22/2020 11:30:00 AM 13.13 55.634 0.287 7.89 1.87 10.27
10/22/2020 11:45:00 AM 13.16 55.688 0.287 7.87 1.99 10.22
10/22/2020 12:00:00 PM 13.29 55.922 0.286 8.02 1.85 10.65
10/22/2020 12:15:00 PM 13.43 56.174 0.286 8.04 1.83 10.66
10/22/2020 12:30:00 PM 13.44 56.192 0.286 8.06 1.83 10.72
10/22/2020 12:45:00 PM 13.54 56.372 0.286 8.12 1.88 10.82
10/22/2020 1:00:00 PM 13.61 56.498 0.286 8.14 1.8 10.86
10/22/2020 1:15:00 PM 13.69 56.642 0.284 8.19 1.81 10.97
10/22/2020 1:30:00 PM 13.82 56.876 0.285 8.24 1.87 11.04
10/22/2020 1:45:00 PM 13.91 57.038 0.285 8.23 1.84 10.99
10/22/2020 2:00:00 PM 13.95 57.11 0.284 8.25 1.81 10.98
10/22/2020 2:15:00 PM 14.01 57.218 0.285 8.26 1.82 10.98
10/22/2020 2:30:00 PM 14.17 57.506 0.284 8.33 1.87 11.11
10/22/2020 2:45:00 PM 14.24 57.632 0.284 8.3 1.91 11
10/22/2020 3:00:00 PM 14.32 57.776 0.283 8.32 1.91 11.06
10/22/2020 3:15:00 PM 14.46 58.028 0.283 8.34 1.81 11.05
10/22/2020 3:30:00 PM 14.48 58.064 0.283 8.32 1.86 10.97
10/22/2020 3:45:00 PM 14.55 58.19 0.283 8.35 1.85 11
10/22/2020 4:00:00 PM 14.72 58.496 0.283 8.37 1.96 10.97
10/22/2020 4:15:00 PM 14.71 58.478 0.283 8.28 1.84 10.81
10/22/2020 4:30:00 PM 14.7 58.46 0.284 8.25 1.87 10.68
10/22/2020 4:45:00 PM 14.64 58.352 0.283 8.21 1.84 10.58
10/22/2020 5:00:00 PM 14.55 58.19 0.284 8.12 1.83 10.35
10/22/2020 5:15:00 PM 14.47 58.046 0.284 8.05 1.8 10.19
10/22/2020 5:30:00 PM 14.35 57.83 0.285 7.94 1.81 9.92
10/22/2020 5:45:00 PM 14.25 57.65 0.285 7.85 1.85 9.72
10/22/2020 6:00:00 PM 14.15 57.47 0.286 7.73 1.94 9.47
10/22/2020 6:15:00 PM 14.06 57.308 0.286 7.65 1.81 9.27
10/22/2020 6:30:00 PM 13.98 57.164 0.286 7.63 1.91 9.15
10/22/2020 6:45:00 PM 13.9 57.02 0.287 7.58 1.91 9.04
10/22/2020 7:00:00 PM 13.84 56.912 0.287 7.57 2.01 9.03
10/22/2020 7:15:00 PM 13.77 56.786 0.287 7.56 1.95 8.98
10/22/2020 7:30:00 PM 13.71 56.678 0.287 7.54 1.96 8.96
10/22/2020 7:45:00 PM 13.66 56.588 0.287 7.54 2.01 8.94
10/22/2020 8:00:00 PM 13.59 56.462 0.288 7.52 1.95 8.92
10/22/2020 8:15:00 PM 13.52 56.336 0.288 7.53 1.95 8.96
10/22/2020 8:30:00 PM 13.47 56.246 0.288 7.52 1.93 8.93
10/22/2020 8:45:00 PM 13.43 56.174 0.288 7.53 1.94 8.97
10/22/2020 9:00:00 PM 13.38 56.084 0.288 7.52 1.93 8.97
10/22/2020 9:15:00 PM 13.34 56.012 0.289 7.53 1.93 8.96
10/22/2020 9:30:00 PM 13.28 55.904 0.289 7.52 1.93 8.97
10/22/2020 9:45:00 PM 13.21 55.778 0.289 7.52 1.91 9.01
10/22/2020 10:00:00 PM 13.15 55.67 0.289 7.52 1.95 9
10/22/2020 10:15:00 PM 13.09 55.562 0.289 7.51 1.98 9
10/22/2020 10:30:00 PM 13.02 55.436 0.289 7.52 1.95 9.03
10/22/2020 10:45:00 PM 12.96 55.328 0.29 7.51 1.94 9.03
10/22/2020 11:00:00 PM 12.9 55.22 0.289 7.53 1.97 9.08
10/22/2020 11:15:00 PM 12.85 55.13 0.29 7.52 2.01 9.06
10/22/2020 11:30:00 PM 12.79 55.022 0.29 7.53 1.96 9.08
10/22/2020 11:45:00 PM 12.75 54.95 0.29 7.51 1.96 9.07
10/23/2020 12:00:00 AM 12.7 54.86 0.29 7.52 1.96 9.09
10/23/2020 12:15:00 AM 12.66 54.788 0.29 7.53 1.91 9.1
10/23/2020 12:30:00 AM 12.62 54.716 0.29 7.54 1.96 9.13
10/23/2020 12:45:00 AM 12.58 54.644 0.29 7.52 1.91 9.13
10/23/2020 1:00:00 AM 12.56 54.608 0.291 7.53 1.9 9.11
10/23/2020 1:15:00 AM 12.55 54.59 0.29 7.55 1.87 9.11
10/23/2020 1:30:00 AM 12.57 54.626 0.291 7.55 1.91 9.09
10/23/2020 1:45:00 AM 12.56 54.608 0.291 7.56 1.86 9.13
10/23/2020 2:00:00 AM 12.55 54.59 0.291 7.56 1.93 9.1
10/23/2020 2:15:00 AM 12.53 54.554 0.291 7.56 1.87 9.13
10/23/2020 2:30:00 AM 12.49 54.482 0.291 7.58 1.97 9.15
10/23/2020 2:45:00 AM 12.45 54.41 0.291 7.54 1.91 9.13
10/23/2020 3:00:00 AM 12.39 54.302 0.291 7.56 1.93 9.16
10/23/2020 3:15:00 AM 12.34 54.212 0.291 7.54 1.92 9.17
10/23/2020 3:30:00 AM 12.3 54.14 0.292 7.53 1.91 9.15
10/23/2020 3:45:00 AM 12.25 54.05 0.292 7.55 1.89 9.19
10/23/2020 4:00:00 AM 12.21 53.978 0.292 7.55 1.92 9.19
10/23/2020 4:15:00 AM 12.17 53.906 0.292 7.54 1.93 9.21
10/23/2020 4:30:00 AM 12.13 53.834 0.292 7.53 1.93 9.21
10/23/2020 4:45:00 AM 12.11 53.798 0.293 7.52 1.92 9.17
10/23/2020 5:00:00 AM 12.08 53.744 0.293 7.54 1.93 9.22
10/23/2020 5:15:00 AM 12.08 53.744 0.292 7.54 1.96 9.22
10/23/2020 5:30:00 AM 12.12 53.816 0.292 7.55 1.86 9.23
10/23/2020 5:45:00 AM 12.16 53.888 0.293 7.55 1.88 9.19
10/23/2020 6:00:00 AM 12.17 53.906 0.293 7.55 1.86 9.21
10/23/2020 6:15:00 AM 12.19 53.942 0.293 7.56 1.85 9.23
10/23/2020 6:30:00 AM 12.2 53.96 0.293 7.56 1.94 9.24
10/23/2020 6:45:00 AM 12.2 53.96 0.293 7.57 1.85 9.21
10/23/2020 7:00:00 AM 12.21 53.978 0.294 7.57 1.8 9.23
10/23/2020 7:15:00 AM 12.22 53.996 0.294 7.56 1.9 9.18
10/23/2020 7:30:00 AM 12.24 54.032 0.294 7.58 1.86 9.26
10/23/2020 7:45:00 AM 12.31 54.158 0.294 7.61 1.79 9.35
10/23/2020 8:00:00 AM 12.35 54.23 0.293 7.64 1.8 9.57
10/23/2020 8:15:00 AM 12.41 54.338 0.293 7.71 1.81 9.88
10/23/2020 8:30:00 AM 12.51 54.518 0.293 7.77 1.77 10.1
10/23/2020 8:45:00 AM 12.61 54.698 0.293 7.84 1.81 10.36
10/23/2020 9:00:00 AM 12.72 54.896 0.293 7.86 1.78 10.37
10/23/2020 9:15:00 AM 12.76 54.968 0.292 7.9 1.8 10.46
10/23/2020 9:30:00 AM 12.83 55.094 0.292 7.97 1.79 10.66
10/23/2020 9:45:00 AM 12.88 55.184 0.292 8.02 11.84 10.73
10/23/2020 10:00:00 AM 13 55.4 0.291 8.08 1.8 10.86
10/23/2020 10:15:00 AM 13.24 55.832 0.291 8.15 1.8 11.04
10/23/2020 10:30:00 AM 13.45 56.21 0.291 8.2 1.8 11.07
10/23/2020 10:45:00 AM 13.69 56.642 0.29 8.25 1.74 11.2
10/23/2020 11:00:00 AM 13.95 57.11 0.29 8.31 1.81 11.26
10/23/2020 11:15:00 AM 14.16 57.488 0.29 8.32 1.78 11.28
10/23/2020 11:30:00 AM 14.38 57.884 0.289 8.29 1.79 11.25
10/23/2020 11:45:00 AM 14.6 58.28 0.289 8.4 1.79 11.28
10/23/2020 12:00:00 PM 14.85 58.73 0.288 8.42 1.88 11.28
10/23/2020 12:15:00 PM 15.07 59.126 0.288 8.43 1.77 11.23
10/23/2020 12:30:00 PM 15.3 59.54 0.288 8.43 1.86 11.19
10/23/2020 12:45:00 PM 15.52 59.936 0.288 8.45 1.75 11.15
10/23/2020 1:00:00 PM 15.72 60.296 0.288 8.46 1.79 11.14
10/23/2020 1:15:00 PM 15.94 60.692 0.288 8.48 1.76 11.14
10/23/2020 1:30:00 PM 16.02 60.836 0.287 8.47 1.79 11.05
10/23/2020 1:45:00 PM 16.2 61.16 0.288 8.49 1.82 11.1
10/23/2020 2:00:00 PM 16.3 61.34 0.288 8.42 1.8 10.9
10/23/2020 2:15:00 PM 16.45 61.61 0.287 8.48 1.82 11.04
10/23/2020 2:30:00 PM 16.62 61.916 0.287 8.5 1.81 11.05
10/23/2020 2:45:00 PM 16.69 62.042 0.288 8.47 1.8 11.01
10/23/2020 3:00:00 PM 16.75 62.15 0.288 8.47 1.78 10.94
10/23/2020 3:15:00 PM 16.67 62.006 0.288 8.41 1.8 10.75
10/23/2020 3:30:00 PM 16.64 61.952 0.288 8.39 1.81 10.76
10/23/2020 3:45:00 PM 16.67 62.006 0.288 8.41 1.82 10.68
10/23/2020 4:00:00 PM 16.61 61.898 0.288 8.36 1.83 10.61
10/23/2020 4:15:00 PM 16.51 61.718 0.289 8.31 1.81 10.39
10/23/2020 4:30:00 PM 16.44 61.592 0.289 8.27 1.82 10.28
10/23/2020 4:45:00 PM 16.34 61.412 0.29 8.23 1.8 10.11
10/23/2020 5:00:00 PM 16.22 61.196 0.291 8.14 1.8 9.89
10/23/2020 5:15:00 PM 16.11 60.998 0.291 8.08 1.82 9.73
10/23/2020 5:30:00 PM 15.96 60.728 0.292 7.97 1.82 9.5
10/23/2020 5:45:00 PM 15.82 60.476 0.293 7.87 1.77 9.25
10/23/2020 6:00:00 PM 15.65 60.17 0.294 7.74 1.78 8.94
10/23/2020 6:15:00 PM 15.53 59.954 0.295 7.68 1.83 8.72
10/23/2020 6:30:00 PM 15.41 59.738 0.295 7.64 1.8 8.61
10/23/2020 6:45:00 PM 15.31 59.558 0.296 7.61 1.89 8.52
10/23/2020 7:00:00 PM 15.2 59.36 0.296 7.62 1.86 8.48
10/23/2020 7:15:00 PM 15.11 59.198 0.297 7.6 1.97 8.45
10/23/2020 7:30:00 PM 15.01 59.018 0.297 7.61 1.91 8.42
10/23/2020 7:45:00 PM 14.9 58.82 0.298 7.54 1.91 8.38
10/23/2020 8:00:00 PM 14.81 58.658 0.298 7.5 1.9 8.36
10/23/2020 8:15:00 PM 14.73 58.514 0.298 7.53 1.94 8.38
10/23/2020 8:30:00 PM 14.66 58.388 0.298 7.53 1.95 8.41
10/23/2020 8:45:00 PM 14.58 58.244 0.298 7.53 1.9 8.41
10/23/2020 9:00:00 PM 14.51 58.118 0.299 7.52 1.89 8.39
10/23/2020 9:15:00 PM 14.44 57.992 0.298 7.52 1.87 8.43
10/23/2020 9:30:00 PM 14.38 57.884 0.299 7.54 1.9 8.45
10/23/2020 9:45:00 PM 14.32 57.776 0.298 7.53 2.09 8.48
10/23/2020 10:00:00 PM 14.26 57.668 0.298 7.54 2.05 8.52
10/23/2020 10:15:00 PM 14.2 57.56 0.298 7.56 2.22 8.54
10/23/2020 10:30:00 PM 14.14 57.452 0.298 7.56 1.94 8.59
10/23/2020 10:45:00 PM 14.08 57.344 0.3 7.57 1.94 8.56
10/23/2020 11:00:00 PM 14.01 57.218 0.301 7.58 1.99 8.62
10/23/2020 11:15:00 PM 13.96 57.128 0.301 7.58 1.97 8.63
10/23/2020 11:30:00 PM 13.91 57.038 0.3 7.58 2.01 8.64
10/23/2020 11:45:00 PM 13.87 56.966 0.3 7.57 1.94 8.63
10/24/2020 12:00:00 AM 13.83 56.894 0.299 7.57 3.45 8.65
10/24/2020 12:15:00 AM 13.81 56.858 0.298 7.58 1.88 8.66
10/24/2020 12:30:00 AM 13.79 56.822 0.298 7.58 1.87 8.65
10/24/2020 12:45:00 AM 13.78 56.804 0.298 7.56 1.84 8.63
10/24/2020 1:00:00 AM 13.77 56.786 0.297 7.58 1.93 8.67
10/24/2020 1:15:00 AM 13.8 56.84 0.297 7.6 1.9 8.68
10/24/2020 1:30:00 AM 13.83 56.894 0.297 7.59 1.9 8.68
10/24/2020 1:45:00 AM 13.78 56.804 0.297 7.58 1.87 8.66
10/24/2020 2:00:00 AM 13.78 56.804 0.297 7.58 1.92 8.64
10/24/2020 2:15:00 AM 13.8 56.84 0.297 7.59 1.84 8.65
10/24/2020 2:30:00 AM 13.81 56.858 0.297 7.59 1.86 8.65
10/24/2020 2:45:00 AM 13.81 56.858 0.297 7.59 1.82 8.63
10/24/2020 3:00:00 AM 13.83 56.894 0.298 7.6 1.89 8.63
10/24/2020 3:15:00 AM 13.84 56.912 0.298 7.59 1.87 8.61
10/24/2020 3:30:00 AM 13.85 56.93 0.298 7.59 1.72 8.61
10/24/2020 3:45:00 AM 13.87 56.966 0.298 7.59 1.78 8.61
10/24/2020 4:00:00 AM 13.88 56.984 0.299 7.58 1.82 8.57
10/24/2020 4:15:00 AM 13.87 56.966 0.299 7.58 1.79 8.56
10/24/2020 4:30:00 AM 13.87 56.966 0.299 7.58 1.76 8.57
10/24/2020 4:45:00 AM 13.89 57.002 0.299 7.6 1.92 8.61
10/24/2020 5:00:00 AM 13.89 57.002 0.299 7.57 1.83 8.55
10/24/2020 5:15:00 AM 13.89 57.002 0.3 7.58 1.81 8.55
10/24/2020 5:30:00 AM 13.89 57.002 0.3 7.57 1.8 8.52
10/24/2020 5:45:00 AM 13.9 57.02 0.3 7.58 1.86 8.56
10/24/2020 6:00:00 AM 13.86 56.948 0.301 7.58 1.78 8.55
10/24/2020 6:15:00 AM 13.76 56.768 0.301 7.57 1.84 8.57
10/24/2020 6:30:00 AM 13.67 56.606 0.301 7.57 1.76 8.6
10/24/2020 6:45:00 AM 13.59 56.462 0.301 7.56 1.82 8.61
10/24/2020 7:00:00 AM 13.55 56.39 0.3 7.58 1.83 8.63
10/24/2020 7:15:00 AM 13.49 56.282 0.3 7.57 1.81 8.65
10/24/2020 7:30:00 AM 13.4 56.12 0.3 7.57 1.82 8.68
10/24/2020 7:45:00 AM 13.31 55.958 0.3 7.58 1.81 8.73
10/24/2020 8:00:00 AM 13.2 55.76 0.3 7.59 1.77 8.84
10/24/2020 8:15:00 AM 13.08 55.544 0.3 7.59 1.74 8.88
10/24/2020 8:30:00 AM 12.99 55.382 0.299 7.59 1.73 8.93
10/24/2020 8:45:00 AM 12.93 55.274 0.299 7.63 1.78 9.15
10/24/2020 9:00:00 AM 12.9 55.22 0.299 7.68 1.71 9.43
10/24/2020 9:15:00 AM 12.84 55.112 0.299 7.73 1.76 9.7
10/24/2020 9:30:00 AM 12.76 54.968 0.298 7.77 1.77 9.91
10/24/2020 9:45:00 AM 12.79 55.022 0.298 7.88 1.78 10.31
10/24/2020 10:00:00 AM 12.81 55.058 0.297 7.99 1.74 10.7
10/24/2020 10:15:00 AM 12.76 54.968 0.297 7.99 1.77 10.66
10/24/2020 10:30:00 AM 12.85 55.13 0.296 8.13 1.74 11.09
10/24/2020 10:45:00 AM 12.76 54.968 0.296 8.1 1.76 10.9
10/24/2020 11:00:00 AM 12.79 55.022 0.295 8.2 1.81 11.26
10/24/2020 11:15:00 AM 12.81 55.058 0.295 8.26 1.78 11.32
10/24/2020 11:30:00 AM 12.94 55.292 0.293 8.4 1.77 11.74
10/24/2020 11:45:00 AM 13.11 55.598 0.293 8.46 1.74 11.78
10/24/2020 12:00:00 PM 12.97 55.346 0.293 8.39 1.81 11.55
10/24/2020 12:15:00 PM 13.04 55.472 0.293 8.49 1.76 11.86
10/24/2020 12:30:00 PM 13.05 55.49 0.292 8.51 1.84 11.87
10/24/2020 12:45:00 PM 13.15 55.67 0.292 8.59 1.74 12.06
10/24/2020 1:00:00 PM 13.14 55.652 0.292 8.54 1.7 11.81
10/24/2020 1:15:00 PM 13.07 55.526 0.292 8.55 1.75 11.8
10/24/2020 1:30:00 PM 13.06 55.508 0.292 8.57 1.75 11.8
10/24/2020 1:45:00 PM 12.99 55.382 0.292 8.56 1.75 11.7
10/24/2020 2:00:00 PM 12.96 55.328 0.292 8.52 1.73 11.58
10/24/2020 2:15:00 PM 12.88 55.184 0.292 8.52 1.74 11.48
10/24/2020 2:30:00 PM 12.81 55.058 0.293 8.5 1.78 11.38
10/24/2020 2:45:00 PM 12.73 54.914 0.293 8.46 1.76 11.23
10/24/2020 3:00:00 PM 12.64 54.752 0.293 8.41 10.31 11.12
10/24/2020 3:15:00 PM 12.56 54.608 0.293 8.39 1.77 11.07
10/24/2020 3:30:00 PM 12.46 54.428 0.295 8.29 1.72 10.8
10/24/2020 3:45:00 PM 12.36 54.248 0.295 8.27 1.73 10.81
10/24/2020 4:00:00 PM 12.31 54.158 0.295 8.2 1.77 10.62
10/24/2020 4:15:00 PM 12.24 54.032 0.295 8.21 1.72 10.75
10/24/2020 4:30:00 PM 12.17 53.906 0.296 8.16 1.76 10.67
10/24/2020 4:45:00 PM 12.07 53.726 0.296 8.08 1.77 10.44
10/24/2020 5:00:00 PM 12 53.6 0.296 7.99 1.73 10.24
10/24/2020 5:15:00 PM 11.92 53.456 0.297 7.89 1.73 10.02
10/24/2020 5:30:00 PM 11.81 53.258 0.297 7.85 1.77 9.95
10/24/2020 5:45:00 PM 11.72 53.096 0.298 7.81 1.75 9.89
10/24/2020 6:00:00 PM 11.66 52.988 0.298 7.78 1.72 9.73
10/24/2020 6:15:00 PM 11.59 52.862 0.299 7.72 1.79 9.63
10/24/2020 6:30:00 PM 11.54 52.772 0.299 7.67 1.76 9.52
10/24/2020 6:45:00 PM 11.49 52.682 0.3 7.66 1.73 9.48
10/24/2020 7:00:00 PM 11.4 52.52 0.301 7.64 1.8 9.46
10/24/2020 7:15:00 PM 11.33 52.394 0.301 7.63 1.77 9.44
10/24/2020 7:30:00 PM 11.3 52.34 0.3 7.63 1.81 9.43
10/24/2020 7:45:00 PM 11.27 52.286 0.301 7.62 1.79 9.44
10/24/2020 8:00:00 PM 11.24 52.232 0.301 7.61 1.77 9.39
10/24/2020 8:15:00 PM 11.14 52.052 0.301 7.61 1.77 9.43
10/24/2020 8:30:00 PM 11.14 52.052 0.302 7.6 1.78 9.37
10/24/2020 8:45:00 PM 11.09 51.962 0.302 7.6 1.78 9.44
10/24/2020 9:00:00 PM 11.06 51.908 0.302 7.6 1.76 9.43
10/24/2020 9:15:00 PM 11.05 51.89 0.302 7.59 1.75 9.42
10/24/2020 9:30:00 PM 10.97 51.746 0.302 7.59 1.76 9.49
10/24/2020 9:45:00 PM 10.9 51.62 0.302 7.61 1.76 9.48
10/24/2020 10:00:00 PM 10.86 51.548 0.303 7.59 1.76 9.45
10/24/2020 10:15:00 PM 10.76 51.368 0.302 7.61 1.76 9.52
10/24/2020 10:30:00 PM 10.74 51.332 0.303 7.6 1.76 9.52
10/24/2020 10:45:00 PM 10.69 51.242 0.303 7.58 1.73 9.5
10/24/2020 11:00:00 PM 10.6 51.08 0.303 7.61 1.77 9.54
10/24/2020 11:15:00 PM 10.47 50.846 0.303 7.64 1.77 9.6
10/24/2020 11:30:00 PM 10.39 50.702 0.303 7.64 1.74 9.61
10/24/2020 11:45:00 PM 10.32 50.576 0.303 7.63 1.75 9.63
10/25/2020 12:00:00 AM 10.23 50.414 0.303 7.64 1.73 9.67
10/25/2020 12:15:00 AM 10.18 50.324 0.303 7.63 1.74 9.68
10/25/2020 12:30:00 AM 10.13 50.234 0.303 7.62 1.74 9.67
10/25/2020 12:45:00 AM 10.04 50.072 0.303 7.64 1.77 9.72
10/25/2020 1:00:00 AM 9.96 49.928 0.304 7.64 1.72 9.76
10/25/2020 1:15:00 AM 9.9 49.82 0.304 7.62 1.78 9.73
10/25/2020 1:30:00 AM 9.81 49.658 0.304 7.63 1.8 9.79
10/25/2020 1:45:00 AM 9.76 49.568 0.304 7.63 1.77 9.79
10/25/2020 2:00:00 AM 9.7 49.46 0.304 7.63 1.77 9.82
10/25/2020 2:15:00 AM 9.62 49.316 0.304 7.63 1.75 9.84
10/25/2020 2:30:00 AM 9.58 49.244 0.304 7.64 1.8 9.86
10/25/2020 2:45:00 AM 9.5 49.1 0.304 7.65 1.78 9.9
10/25/2020 3:00:00 AM 9.49 49.082 0.304 7.64 1.76 9.88
10/25/2020 3:15:00 AM 9.47 49.046 0.304 7.64 1.76 9.88
10/25/2020 3:30:00 AM 9.39 48.902 0.305 7.63 1.78 9.91
10/25/2020 3:45:00 AM 9.32 48.776 0.305 7.64 1.75 9.93
10/25/2020 4:00:00 AM 9.32 48.776 0.305 7.64 1.76 9.93
10/25/2020 4:15:00 AM 9.2 48.56 0.305 7.64 1.76 10.01
10/25/2020 4:30:00 AM 9.13 48.434 0.306 7.64 1.76 10
10/25/2020 4:45:00 AM 9.05 48.29 0.305 7.64 1.77 10.02
10/25/2020 5:00:00 AM 9.04 48.272 0.306 7.64 1.77 10.03
10/25/2020 5:15:00 AM 9.02 48.236 0.305 7.65 1.79 10.05
10/25/2020 5:30:00 AM 8.96 48.128 0.305 7.64 1.78 10.03
10/25/2020 5:45:00 AM 8.91 48.038 0.305 7.65 1.77 10.07
10/25/2020 6:00:00 AM 8.84 47.912 0.306 7.64 1.77 10.09
10/25/2020 6:15:00 AM 8.78 47.804 0.305 7.64 1.78 10.11
10/25/2020 6:30:00 AM 8.71 47.678 0.305 7.65 1.72 10.15
10/25/2020 6:45:00 AM 8.66 47.588 0.306 7.64 1.81 10.17
10/25/2020 7:00:00 AM 8.64 47.552 0.306 7.64 1.8 10.15
10/25/2020 7:15:00 AM 8.57 47.426 0.306 7.64 1.82 10.2
10/25/2020 7:30:00 AM 8.51 47.318 0.305 7.65 1.76 10.24
10/25/2020 7:45:00 AM 8.47 47.246 0.305 7.67 1.78 10.41
10/25/2020 8:00:00 AM 8.48 47.264 0.305 7.72 1.71 10.67
10/25/2020 8:15:00 AM 8.46 47.228 0.304 7.78 1.83 10.97
10/25/2020 8:30:00 AM 8.46 47.228 0.304 7.83 1.77 11.2
10/25/2020 8:45:00 AM 8.48 47.264 0.303 7.88 1.75 11.35
10/25/2020 9:00:00 AM 8.51 47.318 0.304 7.94 1.76 11.56
10/25/2020 9:15:00 AM 8.54 47.372 0.303 8.03 1.78 11.8
10/25/2020 9:30:00 AM 8.6 47.48 0.302 8.08 1.75 11.93
10/25/2020 9:45:00 AM 8.69 47.642 0.302 8.16 1.76 12.12
10/25/2020 10:00:00 AM 8.87 47.966 0.301 8.21 1.74 12.21
10/25/2020 10:15:00 AM 9.02 48.236 0.3 8.3 1.77 12.35
10/25/2020 10:30:00 AM 9.18 48.524 0.3 8.36 1.74 12.45
10/25/2020 10:45:00 AM 9.36 48.848 0.299 8.42 1.74 12.56
10/25/2020 11:00:00 AM 9.61 49.298 0.299 8.43 1.77 12.52
10/25/2020 11:15:00 AM 9.75 49.55 0.298 8.48 1.75 12.58
10/25/2020 11:30:00 AM 9.93 49.874 0.298 8.52 1.71 12.62
10/25/2020 11:45:00 AM 10.12 50.216 0.298 8.55 1.76 12.63
10/25/2020 12:00:00 PM 10.19 50.342 0.297 8.57 1.78 12.63
10/25/2020 12:15:00 PM 10.39 50.702 0.297 8.6 1.76 12.66
10/25/2020 12:30:00 PM 10.73 51.314 0.296 8.66 1.75 12.7
10/25/2020 12:45:00 PM 10.92 51.656 0.296 8.65 1.76 12.61
10/25/2020 1:00:00 PM 10.96 51.728 0.296 8.62 1.73 12.58
10/25/2020 1:15:00 PM 11.11 51.998 0.294 8.71 1.77 12.74
10/25/2020 1:30:00 PM 11.36 52.448 0.294 8.73 1.76 12.74
10/25/2020 1:45:00 PM 11.54 52.772 0.294 8.74 1.76 12.68
10/25/2020 2:00:00 PM 11.62 52.916 0.293 8.75 1.76 12.7
10/25/2020 2:15:00 PM 11.62 52.916 0.293 8.75 1.78 12.65
10/25/2020 2:30:00 PM 11.63 52.934 0.293 8.74 1.74 12.62
10/25/2020 2:45:00 PM 11.67 53.006 0.293 8.75 1.75 12.56
10/25/2020 3:00:00 PM 11.65 52.97 0.292 8.72 1.76 12.39
10/25/2020 3:15:00 PM 11.57 52.826 0.293 8.71 1.74 12.33
10/25/2020 3:30:00 PM 11.52 52.736 0.293 8.71 1.77 12.26
10/25/2020 3:45:00 PM 11.5 52.7 0.293 8.69 1.78 12.17
10/25/2020 4:00:00 PM 11.47 52.646 0.293 8.66 1.75 11.99
10/25/2020 4:15:00 PM 11.39 52.502 0.294 8.59 1.78 11.68
10/25/2020 4:30:00 PM 11.32 52.376 0.295 8.52 1.73 11.39
10/25/2020 4:45:00 PM 11.22 52.196 0.295 8.44 1.78 11.15
10/25/2020 5:00:00 PM 11.18 52.124 0.297 8.33 1.77 10.87
10/25/2020 5:15:00 PM 11.09 51.962 0.297 8.26 1.75 10.75
10/25/2020 5:30:00 PM 11 51.8 0.298 8.16 1.73 10.53
10/25/2020 5:45:00 PM 10.93 51.674 0.3 8.01 1.77 10.28
10/25/2020 6:00:00 PM 10.86 51.548 0.3 7.91 1.77 10.09
10/25/2020 6:15:00 PM 10.78 51.404 0.301 7.84 1.79 9.99
10/25/2020 6:30:00 PM 10.7 51.26 0.302 7.79 1.77 9.9
10/25/2020 6:45:00 PM 10.66 51.188 0.302 7.75 1.81 9.82
10/25/2020 7:00:00 PM 10.61 51.098 0.303 7.72 1.78 9.78
10/25/2020 7:15:00 PM 10.57 51.026 0.303 7.7 1.77 9.71
10/25/2020 7:30:00 PM 10.53 50.954 0.303 7.68 1.74 9.71
10/25/2020 7:45:00 PM 10.48 50.864 0.304 7.68 1.8 9.69
10/25/2020 8:00:00 PM 10.4 50.72 0.304 7.67 1.78 9.73
10/25/2020 8:15:00 PM 10.38 50.684 0.305 7.65 1.79 9.68
10/25/2020 8:30:00 PM 10.34 50.612 0.304 7.65 1.78 9.7
10/25/2020 8:45:00 PM 10.29 50.522 0.305 7.66 1.81 9.71
10/25/2020 9:00:00 PM 10.28 50.504 0.305 7.65 1.75 9.68
10/25/2020 9:15:00 PM 10.22 50.396 0.305 7.65 1.82 9.7
10/25/2020 9:30:00 PM 10.17 50.306 0.305 7.64 1.77 9.71
10/25/2020 9:45:00 PM 10.1 50.18 0.306 7.65 1.79 9.74
10/25/2020 10:00:00 PM 10.1 50.18 0.306 7.64 1.76 9.7
10/25/2020 10:15:00 PM 10.05 50.09 0.306 7.65 1.83 9.72
10/25/2020 10:30:00 PM 9.99 49.982 0.306 7.64 1.77 9.73
10/25/2020 10:45:00 PM 9.96 49.928 0.306 7.63 1.79 9.73
10/25/2020 11:00:00 PM 9.92 49.856 0.306 7.64 1.79 9.75
10/25/2020 11:15:00 PM 9.91 49.838 0.306 7.66 1.76 9.76
10/25/2020 11:30:00 PM 9.88 49.784 0.306 7.65 1.81 9.77
10/25/2020 11:45:00 PM 9.83 49.694 0.307 7.66 1.79 9.8
10/26/2020 12:00:00 AM 9.88 49.784 0.307 7.65 1.81 9.74
10/26/2020 12:15:00 AM 9.84 49.712 0.307 7.65 1.77 9.8
10/26/2020 12:30:00 AM 9.86 49.748 0.307 7.64 1.81 9.76
10/26/2020 12:45:00 AM 9.81 49.658 0.307 7.65 1.78 9.8
10/26/2020 1:00:00 AM 9.74 49.532 0.305 7.64 1.83 9.81
10/26/2020 1:15:00 AM 9.7 49.46 0.302 7.64 1.82 9.86
10/26/2020 1:30:00 AM 9.65 49.37 0.301 7.63 1.83 9.87
10/26/2020 1:45:00 AM 9.6 49.28 0.3 7.65 1.85 9.88
10/26/2020 2:00:00 AM 9.61 49.298 0.301 7.64 1.83 9.87
10/26/2020 2:15:00 AM 9.57 49.226 0.301 7.64 1.85 9.91
10/26/2020 2:30:00 AM 9.55 49.19 0.3 7.65 1.84 9.93
10/26/2020 2:45:00 AM 9.54 49.172 0.3 7.64 1.96 9.91
10/26/2020 3:00:00 AM 9.52 49.136 0.3 7.65 2.05 9.9
10/26/2020 3:15:00 AM 9.52 49.136 0.298 7.63 2.23 9.82
10/26/2020 3:30:00 AM 9.51 49.118 0.297 7.63 2.49 9.8
10/26/2020 3:45:00 AM 9.51 49.118 0.296 7.62 2.48 9.78
10/26/2020 4:00:00 AM 9.51 49.118 0.296 7.62 2.36 9.79
10/26/2020 4:15:00 AM 9.49 49.082 0.296 7.62 2.27 9.8
10/26/2020 4:30:00 AM 9.52 49.136 0.296 7.62 2.21 9.78
10/26/2020 4:45:00 AM 9.49 49.082 0.297 7.63 2.06 9.84
10/26/2020 5:00:00 AM 9.52 49.136 0.298 7.63 2.01 9.81
10/26/2020 5:15:00 AM 9.5 49.1 0.298 7.65 2.03 9.84
10/26/2020 5:30:00 AM 9.52 49.136 0.3 7.63 1.95 9.82
10/26/2020 5:45:00 AM 9.52 49.136 0.3 7.64 1.94 9.85
10/26/2020 6:00:00 AM 9.52 49.136 0.3 7.64 1.93 9.87
10/26/2020 6:15:00 AM 9.49 49.082 0.301 7.67 1.92 9.9
10/26/2020 6:30:00 AM 9.51 49.118 0.301 7.66 1.89 9.89
10/26/2020 6:45:00 AM 9.54 49.172 0.302 7.65 1.89 9.88
10/26/2020 7:00:00 AM 9.58 49.244 0.303 7.65 1.93 9.87
10/26/2020 7:15:00 AM 9.58 49.244 0.302 7.67 1.88 9.88
10/26/2020 7:30:00 AM 9.58 49.244 0.3 7.66 1.92 9.91
10/26/2020 7:45:00 AM 9.57 49.226 0.3 7.67 1.88 9.93
10/26/2020 8:00:00 AM 9.6 49.28 0.301 7.67 1.81 9.95
10/26/2020 8:15:00 AM 9.62 49.316 0.301 7.68 1.79 10
10/26/2020 8:30:00 AM 9.62 49.316 0.3 7.71 1.79 10.15
10/26/2020 8:45:00 AM 9.66 49.388 0.299 7.72 1.8 10.21
10/26/2020 9:00:00 AM 9.69 49.442 0.3 7.76 1.79 10.39
10/26/2020 9:15:00 AM 9.76 49.568 0.3 7.76 1.82 10.41
10/26/2020 9:30:00 AM 9.77 49.586 0.299 7.78 1.79 10.5
10/26/2020 9:45:00 AM 9.83 49.694 0.299 7.8 1.89 10.52
10/26/2020 10:00:00 AM 9.85 49.73 0.298 7.82 1.89 10.62
10/26/2020 10:15:00 AM 9.9 49.82 0.298 7.85 1.97 10.76
10/26/2020 10:30:00 AM 9.97 49.946 0.297 7.94 1.92 11.07
10/26/2020 10:45:00 AM 10.04 50.072 0.296 7.97 2.03 11.16
10/26/2020 11:00:00 AM 10.1 50.18 0.295 8.06 1.97 11.39
10/26/2020 11:15:00 AM 10.22 50.396 0.295 8.15 1.96 11.66
10/26/2020 11:30:00 AM 10.38 50.684 0.294 8.3 1.92 12.07
10/26/2020 11:45:00 AM 10.93 51.674 0.293 8.47 1.89 12.51
10/26/2020 12:00:00 PM 10.85 51.53 0.293 8.37 1.91 12.1
10/26/2020 12:15:00 PM 10.76 51.368 0.293 8.37 1.82 12.05
10/26/2020 12:30:00 PM 10.83 51.494 0.293 8.47 1.83 12.24
10/26/2020 12:45:00 PM 10.86 51.548 0.293 8.48 1.89 12.15
10/26/2020 1:00:00 PM 10.9 51.62 0.293 8.47 1.94 12
10/26/2020 1:15:00 PM 10.92 51.656 0.294 8.42 1.94 11.72
10/26/2020 1:30:00 PM 10.91 51.638 0.293 8.38 1.96 11.58
10/26/2020 1:45:00 PM 10.94 51.692 0.294 8.39 1.9 11.63
10/26/2020 2:00:00 PM 10.97 51.746 0.294 8.37 1.91 11.47
10/26/2020 2:15:00 PM 10.98 51.764 0.294 8.34 1.89 11.46
10/26/2020 2:30:00 PM 11.05 51.89 0.294 8.38 1.81 11.61
10/26/2020 2:45:00 PM 11.03 51.854 0.295 8.25 1.87 11.09
10/26/2020 3:00:00 PM 11.01 51.818 0.295 8.13 1.87 10.75
10/26/2020 3:15:00 PM 11.02 51.836 0.294 8.09 1.84 10.74
10/26/2020 3:30:00 PM 11.03 51.854 0.293 8.09 1.85 10.76
10/26/2020 3:45:00 PM 11.07 51.926 0.292 8.13 1.84 10.95
10/26/2020 4:00:00 PM 11.08 51.944 0.291 8.09 1.81 10.86
10/26/2020 4:15:00 PM 11.08 51.944 0.291 8.02 1.91 10.61
10/26/2020 4:30:00 PM 11.09 51.962 0.291 7.97 1.9 10.56
10/26/2020 4:45:00 PM 11.09 51.962 0.292 7.89 1.9 10.32
10/26/2020 5:00:00 PM 11.09 51.962 0.291 7.82 1.99 10.14
10/26/2020 5:15:00 PM 11.1 51.98 0.289 7.79 2.39 10.06
10/26/2020 5:30:00 PM 11.1 51.98 0.288 7.75 2.88 9.98
10/26/2020 5:45:00 PM 11.11 51.998 0.287 7.73 3.08 9.87
10/26/2020 6:00:00 PM 11.11 51.998 0.287 7.69 2.99 9.76
10/26/2020 6:15:00 PM 11.1 51.98 0.286 7.68 2.92 9.71
10/26/2020 6:30:00 PM 11.09 51.962 0.286 7.67 2.69 9.67
10/26/2020 6:45:00 PM 11.02 51.836 0.286 7.64 2.58 9.66
10/26/2020 7:00:00 PM 10.98 51.764 0.286 7.63 2.73 9.64
10/26/2020 7:15:00 PM 10.95 51.71 0.286 7.64 2.42 9.64
10/26/2020 7:30:00 PM 10.92 51.656 0.285 7.64 2.37 9.63
10/26/2020 7:45:00 PM 10.89 51.602 0.286 7.64 2.3 9.64
10/26/2020 8:00:00 PM 10.84 51.512 0.287 7.63 2.26 9.63
10/26/2020 8:15:00 PM 10.79 51.422 0.287 7.64 2.19 9.68
10/26/2020 8:30:00 PM 10.74 51.332 0.287 7.65 2.12 9.73
10/26/2020 8:45:00 PM 10.7 51.26 0.288 7.65 2.14 9.74
10/26/2020 9:00:00 PM 10.66 51.188 0.288 7.64 2.12 9.75
10/26/2020 9:15:00 PM 10.62 51.116 0.288 7.65 2.06 9.78
10/26/2020 9:30:00 PM 10.6 51.08 0.288 7.64 2.12 9.76
10/26/2020 9:45:00 PM 10.57 51.026 0.288 7.64 2.25 9.78
10/26/2020 10:00:00 PM 10.53 50.954 0.287 7.64 2.24 9.8
10/26/2020 10:15:00 PM 10.47 50.846 0.286 7.64 2.23 9.84
10/26/2020 10:30:00 PM 10.45 50.81 0.284 7.65 2.35 9.85
10/26/2020 10:45:00 PM 10.42 50.756 0.282 7.64 2.38 9.85
10/26/2020 11:00:00 PM 10.38 50.684 0.28 7.64 2.41 9.89
10/26/2020 11:15:00 PM 10.36 50.648 0.28 7.64 2.27 9.91
10/26/2020 11:30:00 PM 10.33 50.594 0.278 7.64 2.36 9.91
10/26/2020 11:45:00 PM 10.31 50.558 0.278 7.64 2.43 9.92
10/27/2020 12:00:00 AM 10.25 50.45 0.277 7.65 2.34 9.99
10/27/2020 12:15:00 AM 10.23 50.414 0.277 7.64 2.39 9.99
10/27/2020 12:30:00 AM 10.19 50.342 0.277 7.64 3.77 10.02
10/27/2020 12:45:00 AM 10.16 50.288 0.275 7.65 3.04 10.04
10/27/2020 1:00:00 AM 10.13 50.234 0.276 7.64 3.08 10.04
10/27/2020 1:15:00 AM 10.08 50.144 0.277 7.64 3.3 10.08
10/27/2020 1:30:00 AM 10.03 50.054 0.277 7.66 3.23 10.1
10/27/2020 1:45:00 AM 10 50 0.277 7.65 2.93 10.11
10/27/2020 2:00:00 AM 9.97 49.946 0.277 7.66 3.73 10.13
10/27/2020 2:15:00 AM 9.93 49.874 0.276 7.66 3.06 10.15
10/27/2020 2:30:00 AM 9.9 49.82 0.275 7.67 4.06 10.16
10/27/2020 2:45:00 AM 9.9 49.82 0.275 7.65 3.57 10.15
10/27/2020 3:00:00 AM 9.87 49.766 0.275 7.66 4.17 10.17
10/27/2020 3:15:00 AM 9.85 49.73 0.275 7.65 4.08 10.17
10/27/2020 3:30:00 AM 9.8 49.64 0.274 7.66 4.34 10.2
10/27/2020 3:45:00 AM 9.77 49.586 0.274 7.67 4.53 10.23
10/27/2020 4:00:00 AM 9.75 49.55 0.274 7.65 6.97 10.23
10/27/2020 4:15:00 AM 9.73 49.514 0.275 7.66 4.13 10.23
10/27/2020 4:30:00 AM 9.7 49.46 0.275 7.66 3.17 10.25
10/27/2020 4:45:00 AM 9.67 49.406 0.275 7.67 16.44 10.28
10/27/2020 5:00:00 AM 9.67 49.406 0.275 7.66 10.8 10.27
10/27/2020 5:15:00 AM 9.64 49.352 0.275 7.58 3.46 10.3
10/27/2020 5:30:00 AM 9.63 49.334 0.275 7.59 3.17 10.3
10/27/2020 5:45:00 AM 9.59 49.262 0.268 7.6 3.85 10.3
10/27/2020 6:00:00 AM 9.57 49.226 0.274 7.6 16073.9 10.32
10/27/2020 6:15:00 AM 9.54 49.172 0.274 7.62 3.39 10.35
10/27/2020 6:30:00 AM 9.51 49.118 0.273 7.59 3.03 10.35
10/27/2020 6:45:00 AM 9.5 49.1 0.27 7.61 3.56 10.35
10/27/2020 7:00:00 AM 9.47 49.046 0.272 7.59 3.06 10.38
10/27/2020 7:15:00 AM 9.46 49.028 0.272 7.6 3.54 10.38
10/27/2020 7:30:00 AM 9.44 48.992 0.272 7.59 3.87 10.39
10/27/2020 7:45:00 AM 9.43 48.974 0.271 7.61 3.26 10.43
10/27/2020 8:00:00 AM 9.41 48.938 0.271 7.6 7.29 10.48
10/27/2020 8:15:00 AM 9.4 48.92 0.27 7.64 11.24 10.59
10/27/2020 8:30:00 AM 9.4 48.92 0.27 7.66 2.93 10.71
10/27/2020 8:45:00 AM 9.44 48.992 0.27 7.7 2.78 10.88
10/27/2020 9:00:00 AM 9.45 49.01 0.269 7.74 2.72 11.05
10/27/2020 9:15:00 AM 9.49 49.082 0.269 7.79 3.03 11.2
10/27/2020 9:30:00 AM 9.54 49.172 0.268 7.86 2.51 11.39
10/27/2020 9:45:00 AM 9.59 49.262 0.268 7.87 2.54 11.36
10/27/2020 10:00:00 AM 9.59 49.262 0.267 7.94 3.13 11.52
10/27/2020 10:15:00 AM 9.62 49.316 0.267 7.96 2.55 11.59
10/27/2020 10:30:00 AM 9.71 49.478 0.267 8.02 2.65 11.68
10/27/2020 10:45:00 AM 9.74 49.532 0.266 8.09 310.78 11.71
10/27/2020 11:00:00 AM 9.74 49.532 0.266 8.03 496.2 11.63
10/27/2020 11:15:00 AM 9.75 49.55 0.265 8.04 2.35 11.65
10/27/2020 11:30:00 AM 9.77 49.586 0.265 8.07 2.48 11.67
10/27/2020 11:45:00 AM 9.81 49.658 0.265 8.08 2.35 11.71
10/27/2020 12:00:00 PM 9.9 49.82 0.265 8.16 2.81 11.84
10/27/2020 12:15:00 PM 9.97 49.946 0.265 8.18 2.36 11.86
10/27/2020 12:30:00 PM 10.03 50.054 0.265 8.15 2.28 11.76
10/27/2020 12:45:00 PM 10.03 50.054 0.264 8.21 4.05 11.86
10/27/2020 1:00:00 PM 10.13 50.234 0.264 8.27 2.31 11.94
10/27/2020 1:15:00 PM 10.18 50.324 0.264 8.25 2.39 11.92
10/27/2020 1:30:00 PM 10.22 50.396 0.264 8.24 2.28 11.85
10/27/2020 1:45:00 PM 10.36 50.648 0.263 8.32 3.85 12.06
10/27/2020 2:00:00 PM 10.4 50.72 0.263 8.31 2.28 11.93
10/27/2020 2:15:00 PM 10.33 50.594 0.263 8.23 2.27 11.75
10/27/2020 2:30:00 PM 10.34 50.612 0.263 8.25 2.19 11.78
10/27/2020 2:45:00 PM 10.33 50.594 0.263 8.24 2.56 11.62
10/27/2020 3:00:00 PM 10.29 50.522 0.264 8.15 149.73 11.46
10/27/2020 3:15:00 PM 10.26 50.468 0.263 8.07 2.26 11.27
10/27/2020 3:30:00 PM 10.26 50.468 0.265 7.96 2.16 11.11
10/27/2020 3:45:00 PM 10.27 50.486 0.265 7.98 2.1 11.1
10/27/2020 4:00:00 PM 10.23 50.414 0.265 7.9 2.2 10.98
10/27/2020 4:15:00 PM 10.21 50.378 0.265 7.86 2.15 10.89
10/27/2020 4:30:00 PM 10.2 50.36 0.265 7.84 2.08 10.85
10/27/2020 4:45:00 PM 10.16 50.288 0.237 7.78 2.15 10.75
10/27/2020 5:00:00 PM 10.13 50.234 0.265 7.76 2.15 10.65
10/27/2020 5:15:00 PM 10.13 50.234 0.265 7.72 2.08 10.54
10/27/2020 5:30:00 PM 10.1 50.18 0.265 7.68 2.18 10.47
10/27/2020 5:45:00 PM 10.07 50.126 0.266 7.67 1.99 10.41
10/27/2020 6:00:00 PM 10.05 50.09 0.266 7.64 2.02 10.33
10/27/2020 6:15:00 PM 10.03 50.054 0.266 7.62 2.03 10.29
10/27/2020 6:30:00 PM 10.01 50.018 0.266 7.61 2.05 10.25
10/27/2020 6:45:00 PM 9.98 49.964 0.266 7.6 2.1 10.25
10/27/2020 7:00:00 PM 9.94 49.892 0.266 7.6 2.08 10.24
10/27/2020 7:15:00 PM 9.89 49.802 0.266 7.59 2.33 10.25
10/27/2020 7:30:00 PM 9.86 49.748 0.266 7.6 3.56 10.25
10/27/2020 7:45:00 PM 9.84 49.712 0.266 7.6 3.76 10.25
10/27/2020 8:00:00 PM 9.81 49.658 0.266 7.6 3.64 10.24
10/27/2020 8:15:00 PM 9.75 49.55 0.264 7.6 4.02 10.3
10/27/2020 8:30:00 PM 9.76 49.568 0.265 7.66 30.75 10.29
10/27/2020 8:45:00 PM 9.75 49.55 0.266 7.64 4.01 10.27
10/27/2020 9:00:00 PM 9.68 49.424 0.266 7.67 4.17 10.32
10/27/2020 9:15:00 PM 9.67 49.406 0.266 7.64 4.15 10.31
10/27/2020 9:30:00 PM 9.63 49.334 0.266 7.65 17653.61 10.32
10/27/2020 9:45:00 PM 9.6 49.28 0.264 7.66 271.67 10.32
10/27/2020 10:00:00 PM 9.61 49.298 0.262 7.6 4.58 10.28
10/27/2020 10:15:00 PM 9.55 49.19 0.104 7.6 3.01 10.34
10/27/2020 10:30:00 PM 9.55 49.19 0.263 7.59 2.32 10.32
10/27/2020 10:45:00 PM 9.54 49.172 0.263 7.6 10078.18 10.31
10/27/2020 11:00:00 PM 9.55 49.19 0.264 7.58 2.05 10.29
10/27/2020 11:15:00 PM 9.5 49.1 0.244 7.61 2.1 10.32
10/27/2020 11:30:00 PM 9.49 49.082 0.254 7.6 5.51 10.31
10/27/2020 11:45:00 PM 9.47 49.046 0.263 7.59 2.06 10.3
10/28/2020 12:00:00 AM 9.45 49.01 0.263 7.59 3.7 10.32
10/28/2020 12:15:00 AM 9.47 49.046 0.26 7.58 2.09 10.28
10/28/2020 12:30:00 AM 9.45 49.01 0.264 7.59 175.46 10.31
10/28/2020 12:45:00 AM 9.44 48.992 0.265 7.59 10.86 10.28
10/28/2020 1:00:00 AM 9.41 48.938 0.265 7.59 61.08 10.32
10/28/2020 1:15:00 AM 9.4 48.92 0.264 7.59 285.7 10.31
10/28/2020 1:30:00 AM 9.39 48.902 0.264 7.59 2.08 10.33
10/28/2020 1:45:00 AM 9.37 48.866 0.265 7.6 2.15 10.32
10/28/2020 2:00:00 AM 9.34 48.812 0.264 7.58 2.16 10.33
10/28/2020 2:15:00 AM 9.36 48.848 0.265 7.55 2.41 10.3
10/28/2020 2:30:00 AM 9.33 48.794 0.264 7.56 2.19 10.32
10/28/2020 2:45:00 AM 9.3 48.74 0.264 7.58 2.09 10.31
10/28/2020 3:00:00 AM 9.3 48.74 0.264 7.55 2.19 10.32
10/28/2020 3:15:00 AM 9.3 48.74 0.265 7.57 2.23 10.34
10/28/2020 3:30:00 AM 9.26 48.668 0.264 7.58 2.24 10.33
10/28/2020 3:45:00 AM 9.26 48.668 0.264 7.57 2.21 10.33
10/28/2020 4:00:00 AM 9.27 48.686 0.265 7.59 2.14 10.33
10/28/2020 4:15:00 AM 9.25 48.65 0.264 7.59 2.54 10.32
10/28/2020 4:30:00 AM 9.28 48.704 0.265 7.54 3.91 10.28
10/28/2020 4:45:00 AM 9.25 48.65 0.264 7.55 330.24 10.31
10/28/2020 5:00:00 AM 9.25 48.65 0.264 7.56 4.71 10.31
10/28/2020 5:15:00 AM 9.25 48.65 0.265 7.55 5.27 10.32
10/28/2020 5:30:00 AM 9.24 48.632 0.264 7.61 63.16 10.31
10/28/2020 5:45:00 AM 9.26 48.668 0.26 7.57 36.83 10.27
10/28/2020 6:00:00 AM 9.23 48.614 0.264 7.55 31.22 10.32
10/28/2020 6:15:00 AM 9.22 48.596 0.24 7.53 8.15 10.32
10/28/2020 6:30:00 AM 9.21 48.578 0.245 7.54 2.95 10.34
10/28/2020 6:45:00 AM 9.22 48.596 0.236 7.55 36.45 10.31
10/28/2020 7:00:00 AM 9.23 48.614 0.265 7.56 5.25 10.32
10/28/2020 7:15:00 AM 9.21 48.578 0.265 7.56 5.63 10.32
10/28/2020 7:30:00 AM 9.21 48.578 0.264 7.64 144.37 10.32
10/28/2020 7:45:00 AM 9.21 48.578 0.233 7.6 118.31 10.35
10/28/2020 8:00:00 AM 9.21 48.578 0.207 7.63 290 10.37
10/28/2020 8:15:00 AM 9.23 48.614 0.193 7.64 622.13 10.41
10/28/2020 8:30:00 AM 9.2 48.56 0.186 7.68 577.45 10.51
10/28/2020 8:45:00 AM 9.24 48.632 0.176 7.65 658.46 10.6
10/28/2020 9:00:00 AM 9.25 48.65 0.169 7.68 829.21 10.76
10/28/2020 9:15:00 AM 9.3 48.74 0.167 7.72 669.54 10.93
10/28/2020 9:30:00 AM 9.33 48.794 0.159 7.76 900.42 11.07
10/28/2020 9:45:00 AM 9.35 48.83 0.161 7.8 844.2 11.17
10/28/2020 10:00:00 AM 9.39 48.902 0.157 7.86 565.39 11.31
10/28/2020 10:15:00 AM 9.42 48.956 0.151 7.88 534.68 11.3
10/28/2020 10:30:00 AM 9.47 49.046 0.154 7.94 910.2 11.5
10/28/2020 10:45:00 AM 9.53 49.154 0.155 7.97 440.53 11.54
10/28/2020 11:00:00 AM 9.59 49.262 0.148 7.99 921.29 11.55
10/28/2020 11:15:00 AM 9.63 49.334 0.154 8.02 1605.46 11.6
10/28/2020 11:30:00 AM 9.73 49.514 0.146 8.12 525.83 11.8
10/28/2020 11:45:00 AM 9.94 49.892 0.133 8.14 106.82 11.89
10/28/2020 12:00:00 PM 9.93 49.874 0.139 8.19 371.18 11.93
10/28/2020 12:15:00 PM 10.01 50.018 0.132 8.21 232.75 11.91
10/28/2020 12:30:00 PM 9.96 49.928 0.138 8.18 329.76 11.81
10/28/2020 12:45:00 PM 10.01 50.018 0.14 8.25 635.35 11.91
10/28/2020 1:00:00 PM 10.23 50.414 0.135 8.31 655.75 11.97
10/28/2020 1:15:00 PM 10.27 50.486 0.141 8.33 1204.39 11.98
10/28/2020 1:30:00 PM 10.23 50.414 0.137 8.26 880.05 11.77
10/28/2020 1:45:00 PM 10.31 50.558 0.129 8.34 757.01 12
10/28/2020 2:00:00 PM 10.39 50.702 0.135 8.33 371.78 11.98
10/28/2020 2:15:00 PM 10.38 50.684 0.132 8.28 489.06 11.87
10/28/2020 2:30:00 PM 10.42 50.756 0.129 8.29 688.91 11.84
10/28/2020 2:45:00 PM 10.55 50.99 0.131 8.35 471.58 11.96
10/28/2020 3:00:00 PM 10.65 51.17 0.132 8.38 511.4 12.02
10/28/2020 3:15:00 PM 10.62 51.116 0.123 8.31 695.58 11.85
10/28/2020 3:30:00 PM 10.65 51.17 0.13 8.34 411.31 11.83
10/28/2020 3:45:00 PM 10.72 51.296 0.13 8.38 375.81 11.92
10/28/2020 4:00:00 PM 10.73 51.314 0.127 8.28 473.05 11.69
10/28/2020 4:15:00 PM 10.74 51.332 0.128 8.32 440.33 11.73
10/28/2020 4:30:00 PM 10.81 51.458 0.126 8.33 957.13 11.76
10/28/2020 4:45:00 PM 10.78 51.404 0.12 8.29 548.4 11.7
10/28/2020 5:00:00 PM 10.72 51.296 0.123 8.23 467.65 11.54
10/28/2020 5:15:00 PM 10.57 51.026 0.124 8.1 430.65 11.25
10/28/2020 5:30:00 PM 10.46 50.828 0.123 8 330.9 11.06
10/28/2020 5:45:00 PM 10.4 50.72 0.112 7.91 365.99 10.81
10/28/2020 6:00:00 PM 10.35 50.63 0.115 7.8 339.63 10.6
10/28/2020 6:15:00 PM 10.25 50.45 0.117 7.74 420.91 10.43
10/28/2020 6:30:00 PM 10.16 50.288 0.12 7.68 451.26 10.37
10/28/2020 6:45:00 PM 10.08 50.144 0.119 7.65 441.46 10.28
10/28/2020 7:00:00 PM 10 50 0.113 7.59 290.26 10.24
10/28/2020 7:15:00 PM 9.91 49.838 0.119 7.59 427.6 10.26
10/28/2020 7:30:00 PM 9.82 49.676 0.116 7.57 226.4 10.23
10/28/2020 7:45:00 PM 9.75 49.55 0.115 7.57 103.92 10.26
10/28/2020 8:00:00 PM 9.65 49.37 0.116 7.6 103.58 10.25
10/28/2020 8:15:00 PM 9.56 49.208 0.109 7.58 100.34 10.3
10/28/2020 8:30:00 PM 9.49 49.082 0.115 7.6 105.89 10.28
10/28/2020 8:45:00 PM 9.39 48.902 0.116 7.59 268.27 10.3
10/28/2020 9:00:00 PM 9.3 48.74 0.116 7.57 938.8 10.33
10/28/2020 9:15:00 PM 9.22 48.596 0.116 7.54 276.65 10.36
10/28/2020 9:30:00 PM 9.13 48.434 0.115 7.54 236.27 10.37
10/28/2020 9:45:00 PM 9.05 48.29 0.108 7.55 149.12 10.41
10/28/2020 10:00:00 PM 8.96 48.128 0.106 7.54 97.74 10.43
10/28/2020 10:15:00 PM 8.89 48.002 0.11 7.58 221 10.44
10/28/2020 10:30:00 PM 8.82 47.876 0.109 7.58 134.37 10.47
10/28/2020 10:45:00 PM 8.76 47.768 0.11 7.57 125.8 10.5
10/28/2020 11:00:00 PM 8.69 47.642 0.108 7.57 167.02 10.51
10/28/2020 11:15:00 PM 8.65 47.57 0.108 7.58 156.39 10.51
10/28/2020 11:30:00 PM 8.6 47.48 0.1 7.58 98.58 10.52
10/28/2020 11:45:00 PM 8.53 47.354 0.1 7.59 101.1 10.56
10/29/2020 12:00:00 AM 8.47 47.246 0.099 7.6 101.04 10.58
10/29/2020 12:15:00 AM 8.42 47.156 0.101 7.58 105.59 10.56
10/29/2020 12:30:00 AM 8.4 47.12 0.103 7.59 135.44 10.58
10/29/2020 12:45:00 AM 8.35 47.03 0.098 7.59 94.48 10.6
10/29/2020 1:00:00 AM 8.31 46.958 0.098 7.59 153.15 10.62
10/29/2020 1:15:00 AM 8.29 46.922 0.093 7.57 95.42 10.6
10/29/2020 1:30:00 AM 8.27 46.886 0.09 7.55 173.52 10.6
10/29/2020 1:45:00 AM 8.22 46.796 0.084 7.57 194.59 10.62
10/29/2020 2:00:00 AM 8.22 46.796 0.083 7.57 114.49 10.62
10/29/2020 2:15:00 AM 8.18 46.724 0.075 7.59 201.01 10.65
10/29/2020 2:30:00 AM 8.18 46.724 0.086 7.56 174.23 10.62
10/29/2020 2:45:00 AM 8.13 46.634 0.092 7.59 336.72 10.67
10/29/2020 3:00:00 AM 8.16 46.688 0.134 7.55 5729.79 10.64
10/29/2020 3:15:00 AM 8.17 46.706 0.093 7.58 2.07 10.55
10/29/2020 3:30:00 AM 8.15 46.67 0.054 7.56 2.02 10.56
10/29/2020 3:45:00 AM 8.2 46.76 0.055 7.58 2 10.56
10/29/2020 4:00:00 AM 8.16 46.688 0.059 7.59 2.06 10.6
10/29/2020 4:15:00 AM 8.18 46.724 0.12 7.58 2.53 10.58
10/29/2020 4:30:00 AM 8.2 46.76 0.161 7.56 2.23 10.61
10/29/2020 4:45:00 AM 8.21 46.778 0.175 7.56 2.05 10.62
10/29/2020 5:00:00 AM 8.23 46.814 0.197 7.57 2.04 10.62
10/29/2020 5:15:00 AM 8.24 46.832 0.204 7.54 2.01 10.62
10/29/2020 5:30:00 AM 8.22 46.796 0.209 7.58 2.76 10.63
10/29/2020 5:45:00 AM 8.23 46.814 0.209 7.55 3.11 10.6
10/29/2020 6:00:00 AM 8.27 46.886 0.214 7.56 12.72 10.57
10/29/2020 6:15:00 AM 8.24 46.832 0.217 7.58 3.23 10.58
10/29/2020 6:30:00 AM 8.26 46.868 0.231 7.57 2.96 10.61
10/29/2020 6:45:00 AM 8.28 46.904 0.231 7.57 3.26 10.59
10/29/2020 7:00:00 AM 8.28 46.904 0.207 7.6 176.18 10.58
10/29/2020 7:15:00 AM 8.3 46.94 0.232 7.6 3.47 10.55
10/29/2020 7:30:00 AM 8.29 46.922 0.232 7.59 3.37 10.58
10/29/2020 7:45:00 AM 8.32 46.976 0.232 7.58 4.2 10.59
10/29/2020 8:00:00 AM 8.35 47.03 0.226 7.62 2.45 10.6
10/29/2020 8:15:00 AM 8.34 47.012 0.221 7.63 2.41 10.68
10/29/2020 8:30:00 AM 8.38 47.084 0.214 7.65 2.46 10.72
10/29/2020 8:45:00 AM 8.41 47.138 0.203 7.67 2.51 10.82
10/29/2020 9:00:00 AM 8.41 47.138 0.192 7.64 2.58 10.93
10/29/2020 9:15:00 AM 8.45 47.21 0.182 7.65 2.58 10.98
10/29/2020 9:30:00 AM 8.48 47.264 0.169 7.67 2.7 11.03
10/29/2020 9:45:00 AM 8.5 47.3 0.156 7.79 2.57 11.16
10/29/2020 10:00:00 AM 8.56 47.408 0.23 7.8 82.46 11.19
10/29/2020 10:15:00 AM 8.6 47.48 0.219 7.78 2.63 11.23
10/29/2020 10:30:00 AM 8.61 47.498 0.23 7.8 5.76 11.31
10/29/2020 10:45:00 AM 8.68 47.624 0.229 7.79 5.39 11.43
10/29/2020 11:00:00 AM 8.73 47.714 0.18 7.88 7.83 11.58
10/29/2020 11:15:00 AM 8.77 47.786 0.229 7.89 18.68 11.58
10/29/2020 11:30:00 AM 8.83 47.894 0.229 7.92 249.09 11.63
10/29/2020 11:45:00 AM 8.83 47.894 0.228 7.89 4.44 11.57
10/29/2020 12:00:00 PM 8.84 47.912 0.227 7.98 7.73 11.68
10/29/2020 12:15:00 PM 8.94 48.092 0.226 8.05 3.97 11.79
10/29/2020 12:30:00 PM 8.96 48.128 0.227 7.96 8.54 11.64
10/29/2020 12:45:00 PM 9.01 48.218 0.226 8.04 5.34 11.76
10/29/2020 1:00:00 PM 9.04 48.272 0.218 8.05 6.08 11.81
10/29/2020 1:15:00 PM 9.07 48.326 0.224 8.12 6.21 11.96
10/29/2020 1:30:00 PM 9.14 48.452 0.224 8.11 5.34 11.89
10/29/2020 1:45:00 PM 9.11 48.398 0.206 8.11 5.23 11.85
10/29/2020 2:00:00 PM 9.13 48.434 0.223 8.03 5.33 11.62
10/29/2020 2:15:00 PM 9.11 48.398 0.221 8 5.15 11.56
10/29/2020 2:30:00 PM 9.09 48.362 0.22 8 5.46 11.46
10/29/2020 2:45:00 PM 9.1 48.38 0.218 7.9 5.66 11.34
10/29/2020 3:00:00 PM 9.11 48.398 0.213 7.94 5.79 11.36
10/29/2020 3:15:00 PM 9.14 48.452 0.219 7.91 5.13 11.38
10/29/2020 3:30:00 PM 9.11 48.398 0.219 7.88 4.95 11.28
10/29/2020 3:45:00 PM 9.12 48.416 0.212 7.85 5.5 11.23
10/29/2020 4:00:00 PM 9.11 48.398 0.215 7.85 5.62 11.26
10/29/2020 4:15:00 PM 9.13 48.434 0.215 7.86 904.8 11.19
10/29/2020 4:30:00 PM 9.11 48.398 0.215 7.79 11.64 11.08
10/29/2020 4:45:00 PM 9.1 48.38 0.215 7.78 11.48 10.94
10/29/2020 5:00:00 PM 9.1 48.38 0.216 7.7 6.19 10.81
10/29/2020 5:15:00 PM 9.07 48.326 0.216 7.65 6.06 10.73
10/29/2020 5:30:00 PM 9.05 48.29 0.217 7.65 12.68 10.69
10/29/2020 5:45:00 PM 9.04 48.272 0.212 7.64 12.88 10.74
10/29/2020 6:00:00 PM 9.02 48.236 0.217 7.6 13.56 10.66
10/29/2020 6:15:00 PM 9 48.2 0.217 7.54 15.96 10.58
10/29/2020 6:30:00 PM 8.94 48.092 0.216 7.57 17.8 10.57
10/29/2020 6:45:00 PM 8.93 48.074 0.21 7.63 205.98 10.53
10/29/2020 7:00:00 PM 8.89 48.002 0.214 7.63 124.29 10.53
10/29/2020 7:15:00 PM 8.87 47.966 0.215 7.64 905.38 10.52
10/29/2020 7:30:00 PM 8.85 47.93 0.217 7.62 23.43 10.54
10/29/2020 7:45:00 PM 8.79 47.822 0.207 7.62 19.78 10.58
10/29/2020 8:00:00 PM 8.77 47.786 0.215 7.63 46.96 10.58
10/29/2020 8:15:00 PM 8.73 47.714 0.216 7.63 38.69 10.59
10/29/2020 8:30:00 PM 8.69 47.642 0.214 7.6 813.85 10.61
10/29/2020 8:45:00 PM 8.64 47.552 0.181 7.61 845.86 10.63
10/29/2020 9:00:00 PM 8.58 47.444 0.178 7.61 22.91 10.67
10/29/2020 9:15:00 PM 8.53 47.354 0.212 7.61 5129.02 10.7
10/29/2020 9:30:00 PM 8.48 47.264 0.099 7.63 44.4 10.74
10/29/2020 9:45:00 PM 8.43 47.174 0.074 7.63 100.27 10.79
10/29/2020 10:00:00 PM 8.41 47.138 0.198 7.63 29.15 10.8
10/29/2020 10:15:00 PM 8.38 47.084 0.198 7.63 36.27 10.83
10/29/2020 10:30:00 PM 8.35 47.03 0.192 7.65 753.33 10.85
10/29/2020 10:45:00 PM 8.33 46.994 0.2 7.64 105.15 10.86
10/29/2020 11:00:00 PM 8.32 46.976 0.149 7.64 1178.05 10.87
10/29/2020 11:15:00 PM 8.32 46.976 0.068 7.65 302.5 10.87
10/29/2020 11:30:00 PM 8.3 46.94 0.161 7.67 88.98 10.88
10/29/2020 11:45:00 PM 8.29 46.922 0.204 7.65 151.56 10.87
10/30/2020 12:00:00 AM 8.27 46.886 0.204 7.63 4143.2 10.89
10/30/2020 12:15:00 AM 8.26 46.868 0.199 7.64 376.54 10.9
10/30/2020 12:30:00 AM 8.25 46.85 0.195 7.63 1479.31 10.9
10/30/2020 12:45:00 AM 8.23 46.814 0.202 7.63 144.6 10.92
10/30/2020 1:00:00 AM 8.21 46.778 0.187 7.63 9583.5 10.94
10/30/2020 1:15:00 AM 8.19 46.742 0.172 7.64 41.49 10.95
10/30/2020 1:30:00 AM 8.18 46.724 0.182 7.6 26.24 10.95
10/30/2020 1:45:00 AM 8.16 46.688 0.199 7.63 77.8 10.95
10/30/2020 2:00:00 AM 8.14 46.652 0.166 7.62 85.14 10.97
10/30/2020 2:15:00 AM 8.12 46.616 0.134 7.65 20.58 10.98
10/30/2020 2:30:00 AM 8.11 46.598 0.095 7.63 18.37 10.99
10/30/2020 2:45:00 AM 8.09 46.562 0.079 7.63 22.97 10.99
10/30/2020 3:00:00 AM 8.05 46.49 0.091 7.61 121.37 11
10/30/2020 3:15:00 AM 8.03 46.454 0.178 7.61 17268.41 11.01
10/30/2020 3:30:00 AM 8.01 46.418 0.151 7.6 17357.71 11.02
10/30/2020 3:45:00 AM 7.99 46.382 0.131 7.59 2062.96 11.03
10/30/2020 4:00:00 AM 7.96 46.328 0.168 7.59 238.83 11.04
10/30/2020 4:15:00 AM 7.94 46.292 0.159 7.6 115.86 11.06
10/30/2020 4:30:00 AM 7.91 46.238 0.142 7.6 117.74 11.06
10/30/2020 4:45:00 AM 7.89 46.202 0.182 7.58 17266.29 11.01
10/30/2020 5:00:00 AM 7.87 46.166 0.156 7.62 5172.43 11.07
10/30/2020 5:15:00 AM 7.84 46.112 0.168 7.6 368.3 11.08
10/30/2020 5:30:00 AM 7.83 46.094 0.184 7.61 275.02 11.09
10/30/2020 5:45:00 AM 7.81 46.058 0.184 7.59 247.02 11.1
10/30/2020 6:00:00 AM 7.8 46.04 0.185 7.61 133.93 11.11
10/30/2020 6:15:00 AM 7.78 46.004 0.184 7.59 16029.71 11.12
10/30/2020 6:30:00 AM 7.76 45.968 0.185 7.61 143.94 11.12
10/30/2020 6:45:00 AM 7.74 45.932 0.185 7.6 2699.32 11.13
10/30/2020 7:00:00 AM 7.72 45.896 0.184 7.61 258.53 11.15
10/30/2020 7:15:00 AM 7.71 45.878 0.14 7.6 205.83 11.15
10/30/2020 7:30:00 AM 7.7 45.86 0.184 7.6 475.3 11.15
10/30/2020 7:45:00 AM 7.68 45.824 0.183 7.6 330.2 11.17
10/30/2020 8:00:00 AM 7.66 45.788 0.183 7.6 412.49 11.18
10/30/2020 8:15:00 AM 7.64 45.752 0.182 7.6 293.99 11.2
10/30/2020 8:30:00 AM 7.62 45.716 0.183 7.61 952.66 11.23
10/30/2020 8:45:00 AM 7.61 45.698 0.183 7.61 310.48 11.25
10/30/2020 9:00:00 AM 7.59 45.662 0.182 7.61 226.78 11.27
10/30/2020 9:15:00 AM 7.57 45.626 0.182 7.62 227.98 11.29
10/30/2020 9:30:00 AM 7.54 45.572 0.182 7.62 190.2 11.32
10/30/2020 9:45:00 AM 7.52 45.536 0.181 7.62 385.45 11.35
10/30/2020 10:00:00 AM 7.52 45.536 0.182 7.64 283.4 11.4
10/30/2020 10:15:00 AM 7.52 45.536 0.181 7.65 323.28 11.44
10/30/2020 10:30:00 AM 7.52 45.536 0.182 7.66 1204.92 11.49
10/30/2020 10:45:00 AM 7.52 45.536 0.181 7.67 757.73 11.56
10/30/2020 11:00:00 AM 7.52 45.536 0.183 7.66 496.65 11.59
10/30/2020 11:15:00 AM 7.52 45.536 0.182 7.7 401.42 11.62
10/30/2020 11:30:00 AM 7.53 45.554 0.183 7.72 161.38 11.65
10/30/2020 11:45:00 AM 7.55 45.59 0.182 7.72 72.97 11.67
10/30/2020 12:00:00 PM 7.59 45.662 0.182 7.74 68.69 11.73
10/30/2020 12:15:00 PM 7.63 45.734 0.182 7.74 121.7 11.77
10/30/2020 12:30:00 PM 7.72 45.896 0.182 7.79 386.54 11.81
10/30/2020 12:45:00 PM 7.77 45.986 0.182 7.8 16.33 11.84
10/30/2020 1:00:00 PM 7.83 46.094 0.182 7.8 11379.96 11.84
10/30/2020 1:15:00 PM 7.96 46.328 0.182 7.84 14.65 11.86
10/30/2020 1:30:00 PM 8.01 46.418 0.179 7.85 5432.77 11.87
10/30/2020 1:45:00 PM 8.16 46.688 0.182 7.89 117.52 11.88
10/30/2020 2:00:00 PM 8.14 46.652 0.182 7.85 11.39 11.86
10/30/2020 2:15:00 PM 8.15 46.67 0.182 7.85 10.15 11.86
10/30/2020 2:30:00 PM 8.23 46.814 0.182 7.87 14.55 11.84
10/30/2020 2:45:00 PM 8.26 46.868 0.17 7.85 25.48 11.81
10/30/2020 3:00:00 PM 8.3 46.94 0.174 7.85 49.77 11.79
10/30/2020 3:15:00 PM 8.27 46.886 0.183 7.8 61.77 11.78
10/30/2020 3:30:00 PM 8.21 46.778 0.182 7.81 4209.06 11.76
10/30/2020 3:45:00 PM 8.13 46.634 0.183 7.78 20.58 11.75
10/30/2020 4:00:00 PM 8.06 46.508 0.178 7.77 17.38 11.74
10/30/2020 4:15:00 PM 7.99 46.382 0.134 7.74 23.66 11.73
10/30/2020 4:30:00 PM 7.9 46.22 0.183 7.73 11.55 11.7
10/30/2020 4:45:00 PM 7.8 46.04 0.181 7.73 1981.53 11.69
10/30/2020 5:00:00 PM 7.71 45.878 0.184 7.66 12.46 11.67
10/30/2020 5:15:00 PM 7.62 45.716 0.173 7.67 15.45 11.63
10/30/2020 5:30:00 PM 7.53 45.554 0.168 7.64 9.99 11.6
10/30/2020 5:45:00 PM 7.42 45.356 0.185 7.61 9.52 11.55
10/30/2020 6:00:00 PM 7.31 45.158 0.185 7.6 33.58 11.51
10/30/2020 6:15:00 PM 7.19 44.942 0.185 7.58 7.89 11.5
10/30/2020 6:30:00 PM 7.12 44.816 0.186 7.56 7.42 11.46
10/30/2020 6:45:00 PM 7.04 44.672 0.186 7.55 10.69 11.45
10/30/2020 7:00:00 PM 6.98 44.564 0.186 7.54 8.65 11.44
10/30/2020 7:15:00 PM 6.88 44.384 0.188 7.54 7.16 11.47
10/30/2020 7:30:00 PM 6.82 44.276 0.187 7.54 7.1 11.48
10/30/2020 7:45:00 PM 6.77 44.186 0.187 7.55 6.7 11.48
10/30/2020 8:00:00 PM 6.71 44.078 0.187 7.55 6.65 11.51
10/30/2020 8:15:00 PM 6.66 43.988 0.188 7.54 6.96 11.53
10/30/2020 8:30:00 PM 6.64 43.952 0.188 7.53 6.51 11.52
10/30/2020 8:45:00 PM 6.6 43.88 0.189 7.54 6.64 11.54
10/30/2020 9:00:00 PM 6.59 43.862 0.188 7.55 6.67 11.55
10/30/2020 9:15:00 PM 6.59 43.862 0.175 7.54 8.63 11.54
10/30/2020 9:30:00 PM 6.59 43.862 0.174 7.56 17.97 11.54
10/30/2020 9:45:00 PM 6.58 43.844 0.188 7.55 6.93 11.55
10/30/2020 10:00:00 PM 6.57 43.826 0.127 7.56 7.46 11.56
10/30/2020 10:15:00 PM 6.57 43.826 0.19 7.56 7.13 11.56
10/30/2020 10:30:00 PM 6.59 43.862 0.191 7.56 6.86 11.56
10/30/2020 10:45:00 PM 6.61 43.898 0.191 7.55 6.39 11.55
10/30/2020 11:00:00 PM 6.61 43.898 0.191 7.55 6.15 11.54
10/30/2020 11:15:00 PM 6.6 43.88 0.191 7.56 9.37 11.55
10/30/2020 11:30:00 PM 6.58 43.844 0.191 7.55 7.44 11.58
10/30/2020 11:45:00 PM 6.57 43.826 0.192 7.55 6.13 11.6
10/31/2020 12:00:00 AM 6.56 43.808 0.193 7.55 6.13 11.59
10/31/2020 12:15:00 AM 6.57 43.826 0.193 7.55 6.05 11.58
10/31/2020 12:30:00 AM 6.56 43.808 0.193 7.55 363.57 11.58
10/31/2020 12:45:00 AM 6.57 43.826 0.193 7.55 7.14 11.57
10/31/2020 1:00:00 AM 6.6 43.88 0.133 7.55 10.15 11.54
10/31/2020 1:15:00 AM 6.59 43.862 0.193 7.55 6.54 11.55
10/31/2020 1:30:00 AM 6.6 43.88 0.113 7.55 5.79 11.55
10/31/2020 1:45:00 AM 6.61 43.898 0.193 7.55 6.21 11.54
10/31/2020 2:00:00 AM 6.62 43.916 0.194 7.53 6.14 11.53
10/31/2020 2:15:00 AM 6.6 43.88 0.194 7.55 5.66 11.55
10/31/2020 2:30:00 AM 6.62 43.916 0.194 7.54 5.69 11.53
10/31/2020 2:45:00 AM 6.61 43.898 0.101 7.54 5.56 11.53
10/31/2020 3:00:00 AM 6.61 43.898 0.115 7.54 7.42 11.55
10/31/2020 3:15:00 AM 6.59 43.862 0.195 7.54 10.74 11.56
10/31/2020 3:30:00 AM 6.6 43.88 0.195 7.54 5.93 11.55
10/31/2020 3:45:00 AM 6.6 43.88 0.194 7.54 6.86 11.55
10/31/2020 4:00:00 AM 6.59 43.862 0.19 7.54 5.83 11.56
10/31/2020 4:15:00 AM 6.6 43.88 0.196 7.54 5.37 11.55
10/31/2020 4:30:00 AM 6.6 43.88 0.196 7.53 5.91 11.55
10/31/2020 4:45:00 AM 6.62 43.916 0.197 7.56 346.92 11.55
10/31/2020 5:00:00 AM 6.63 43.934 0.194 7.56 6.78 11.55
10/31/2020 5:15:00 AM 6.62 43.916 0.197 7.54 6.07 11.53
10/31/2020 5:30:00 AM 6.62 43.916 0.198 7.53 31.95 11.53
10/31/2020 5:45:00 AM 6.62 43.916 0.198 7.56 10.99 11.53
10/31/2020 6:00:00 AM 6.59 43.862 0.198 7.55 10.13 11.55
10/31/2020 6:15:00 AM 6.59 43.862 0.199 7.55 14.89 11.54
10/31/2020 6:30:00 AM 6.58 43.844 0.197 7.55 9.83 11.54
10/31/2020 6:45:00 AM 6.57 43.826 0.198 7.54 9.75 11.53
10/31/2020 7:00:00 AM 6.56 43.808 0.199 7.54 8.77 11.55
10/31/2020 7:15:00 AM 6.57 43.826 0.193 7.52 5892.52 11.54
10/31/2020 7:30:00 AM 6.57 43.826 0.2 7.54 1158.81 11.54
10/31/2020 7:45:00 AM 6.56 43.808 0.201 7.54 1699.74 11.56
10/31/2020 8:00:00 AM 6.57 43.826 0.199 7.57 325.73 11.6
10/31/2020 8:15:00 AM 6.6 43.88 0.201 7.54 3.73 11.61
10/31/2020 8:30:00 AM 6.57 43.826 0.201 7.56 184.36 11.7
10/31/2020 8:45:00 AM 6.59 43.862 0.201 7.59 42.85 11.8
10/31/2020 9:00:00 AM 6.63 43.934 0.202 7.62 11022.02 11.91
10/31/2020 9:15:00 AM 6.63 43.934 0.201 7.64 44.2 11.98
10/31/2020 9:30:00 AM 6.67 44.006 0.201 7.67 221.34 12.06
10/31/2020 9:45:00 AM 6.71 44.078 0.201 7.72 3.59 12.14
10/31/2020 10:00:00 AM 6.8 44.24 0.202 7.74 1553.02 12.18
10/31/2020 10:15:00 AM 6.85 44.33 0.189 7.77 3.05 12.25
10/31/2020 10:30:00 AM 6.92 44.456 0.201 7.83 50.85 12.31
10/31/2020 10:45:00 AM 7.14 44.852 0.202 7.88 950.23 12.38
10/31/2020 11:00:00 AM 7.23 45.014 0.202 7.85 7.53 12.3
10/31/2020 11:15:00 AM 7.15 44.87 0.202 7.85 2521.06 12.33
10/31/2020 11:30:00 AM 7.22 44.996 0.202 7.87 2.95 12.31
10/31/2020 11:45:00 AM 7.32 45.176 0.202 7.92 2.86 12.32
10/31/2020 12:00:00 PM 7.54 45.572 0.202 7.95 2.96 12.33
10/31/2020 12:15:00 PM 7.74 45.932 0.172 7.97 2.96 12.31
10/31/2020 12:30:00 PM 7.74 45.932 0.203 7.98 2.94 12.37
10/31/2020 12:45:00 PM 7.74 45.932 0.202 7.96 2.78 12.28
10/31/2020 1:00:00 PM 7.81 46.058 0.203 7.96 2.79 12.26
10/31/2020 1:15:00 PM 7.87 46.166 0.189 7.97 2.68 12.22
10/31/2020 1:30:00 PM 7.9 46.22 0.19 7.99 2.73 12.22
10/31/2020 1:45:00 PM 7.92 46.256 0.203 7.97 2.64 12.18
10/31/2020 2:00:00 PM 7.95 46.31 0.199 7.94 2.74 12.11
10/31/2020 2:15:00 PM 7.96 46.328 0.203 7.97 2.67 12.15
10/31/2020 2:30:00 PM 8.02 46.436 0.203 7.96 2.74 12.09
10/31/2020 2:45:00 PM 8.06 46.508 0.204 7.94 2.69 12.1
10/31/2020 3:00:00 PM 8.08 46.544 0.203 7.94 2.78 12.08
10/31/2020 3:15:00 PM 8.12 46.616 0.185 7.99 2.69 12.15
10/31/2020 3:30:00 PM 8.24 46.832 0.204 7.99 2.73 12.09
10/31/2020 3:45:00 PM 8.2 46.76 0.204 7.97 2.71 12.09
10/31/2020 4:00:00 PM 8.19 46.742 0.204 7.97 2.83 12.09
10/31/2020 4:15:00 PM 8.14 46.652 0.2 7.94 3.37 12.03
10/31/2020 4:30:00 PM 8.03 46.454 0.204 7.92 3.01 12.02
10/31/2020 4:45:00 PM 7.96 46.328 0.189 7.84 2.71 11.93
10/31/2020 5:00:00 PM 7.83 46.094 0.187 7.79 2.65 11.84
10/31/2020 5:15:00 PM 7.74 45.932 0.205 7.75 2.65 11.77
10/31/2020 5:30:00 PM 7.64 45.752 0.205 7.71 2.7 11.67
10/31/2020 5:45:00 PM 7.53 45.554 0.206 7.67 2.7 11.58
10/31/2020 6:00:00 PM 7.46 45.428 0.206 7.63 2.76 11.49
10/31/2020 6:15:00 PM 7.4 45.32 0.206 7.57 2.68 11.38
10/31/2020 6:30:00 PM 7.28 45.104 0.207 7.58 2.71 11.38
10/31/2020 6:45:00 PM 7.23 45.014 0.191 7.55 2.75 11.31
10/31/2020 7:00:00 PM 7.14 44.852 0.208 7.53 2.8 11.3
10/31/2020 7:15:00 PM 7.05 44.69 0.208 7.53 2.72 11.33
10/31/2020 7:30:00 PM 6.94 44.492 0.208 7.54 2.81 11.35
10/31/2020 7:45:00 PM 6.88 44.384 0.209 7.51 2.74 11.33
10/31/2020 8:00:00 PM 6.79 44.222 0.209 7.52 2.79 11.37
10/31/2020 8:15:00 PM 6.7 44.06 0.209 7.51 2.76 11.38
10/31/2020 8:30:00 PM 6.62 43.916 0.209 7.52 2.79 11.41
10/31/2020 8:45:00 PM 6.57 43.826 0.21 7.53 2.67 11.42
10/31/2020 9:00:00 PM 6.51 43.718 0.21 7.52 2.77 11.4
10/31/2020 9:15:00 PM 6.43 43.574 0.211 7.52 2.76 11.45
10/31/2020 9:30:00 PM 6.39 43.502 0.21 7.51 2.68 11.45
10/31/2020 9:45:00 PM 6.34 43.412 0.207 7.51 2.71 11.47
10/31/2020 10:00:00 PM 6.28 43.304 0.211 7.54 2.68 11.5
10/31/2020 10:15:00 PM 6.21 43.178 0.211 7.55 2.77 11.52
10/31/2020 10:30:00 PM 6.15 43.07 0.211 7.54 2.79 11.55
10/31/2020 10:45:00 PM 6.14 43.052 0.212 7.52 2.73 11.52
10/31/2020 11:00:00 PM 6.09 42.962 0.212 7.53 2.71 11.53
10/31/2020 11:15:00 PM 6.02 42.836 0.212 7.55 2.72 11.58
10/31/2020 11:30:00 PM 6 42.8 0.212 7.56 2.74 11.6
10/31/2020 11:45:00 PM 5.95 42.71 0.211 7.54 2.75 11.6
11/1/2020 12:00:00 AM 5.9 42.62 0.194 7.55 2.73 11.61
11/1/2020 12:15:00 AM 5.88 42.584 0.212 7.55 2.71 11.6
11/1/2020 12:30:00 AM 5.86 42.548 0.213 7.55 2.67 11.62
11/1/2020 12:45:00 AM 5.81 42.458 0.212 7.56 2.84 11.63
11/1/2020 1:00:00 AM 5.74 42.332 0.213 7.55 2.89 11.67
11/1/2020 1:15:00 AM 5.77 42.386 0.213 7.54 2.83 11.63
11/1/2020 1:30:00 AM 5.71 42.278 0.213 7.56 2.79 11.66
11/1/2020 1:45:00 AM 5.7 42.26 0.213 7.55 2.78 11.64
11/1/2020 2:00:00 AM 5.66 42.188 0.213 7.55 2.83 11.67
11/1/2020 2:15:00 AM 5.62 42.116 0.213 7.57 2.8 11.68
11/1/2020 2:30:00 AM 5.63 42.134 0.214 7.56 2.78 11.66
11/1/2020 2:45:00 AM 5.61 42.098 0.214 7.55 2.83 11.67
11/1/2020 3:00:00 AM 5.58 42.044 0.214 7.56 2.79 11.68
11/1/2020 3:15:00 AM 5.6 42.08 0.215 7.57 2.83 11.68
11/1/2020 3:30:00 AM 5.63 42.134 0.215 7.58 2.76 11.66
11/1/2020 3:45:00 AM 5.62 42.116 0.215 7.58 2.92 11.68
11/1/2020 4:00:00 AM 5.66 42.188 0.216 7.58 2.79 11.67
11/1/2020 4:15:00 AM 5.7 42.26 0.215 7.59 2.76 11.63
11/1/2020 4:30:00 AM 5.75 42.35 0.215 7.59 2.86 11.62
11/1/2020 4:45:00 AM 5.78 42.404 0.216 7.59 2.83 11.61
11/1/2020 5:00:00 AM 5.81 42.458 0.216 7.6 3.28 11.61
11/1/2020 5:15:00 AM 5.85 42.53 0.216 7.59 3.39 11.59
11/1/2020 5:30:00 AM 5.85 42.53 0.216 7.6 3.36 11.6
11/1/2020 5:45:00 AM 5.91 42.638 0.216 7.6 3.66 11.56
11/1/2020 6:00:00 AM 5.93 42.674 0.217 7.6 6.75 11.58
11/1/2020 6:15:00 AM 5.94 42.692 0.216 7.59 6.98 11.52
11/1/2020 6:30:00 AM 5.96 42.728 0.217 7.58 390.03 11.51
11/1/2020 6:45:00 AM 5.99 42.782 0.217 7.59 991.85 11.5
11/1/2020 7:00:00 AM 6.02 42.836 0.217 7.6 66.73 11.55
11/1/2020 7:15:00 AM 6.01 42.818 0.14 7.64 2.76 11.65
11/1/2020 7:30:00 AM 6.1 42.98 0.151 7.65 2.62 11.66
11/1/2020 7:45:00 AM 6.16 43.088 0.217 7.66 2.61 11.72
11/1/2020 8:00:00 AM 6.2 43.16 0.204 7.69 2.73 11.83
11/1/2020 8:15:00 AM 6.28 43.304 0.2 7.73 2.63 11.95
11/1/2020 8:30:00 AM 6.32 43.376 0.132 7.78 2.66 12.08
11/1/2020 8:45:00 AM 6.42 43.556 0.217 7.8 2.67 12.1
11/1/2020 9:00:00 AM 6.58 43.844 0.217 7.87 3.32 12.19
11/1/2020 9:15:00 AM 6.68 44.024 0.198 7.91 21.01 12.28
11/1/2020 9:30:00 AM 6.76 44.168 0.193 7.98 67.83 12.38
11/1/2020 9:45:00 AM 6.92 44.456 0.192 8.03 1605.02 12.43
11/1/2020 10:00:00 AM 7.03 44.654 0.197 8.03 23.07 12.39
11/1/2020 10:15:00 AM 7.07 44.726 0.216 8.01 3.65 12.3
11/1/2020 10:30:00 AM 7.21 44.978 0.215 8.07 3.15 12.37
11/1/2020 10:45:00 AM 7.31 45.158 0.216 8.09 3.1 12.31
11/1/2020 11:00:00 AM 7.32 45.176 0.216 8.05 6 12.24
11/1/2020 11:15:00 AM 7.33 45.194 0.217 7.97 3.3 12.03
11/1/2020 11:30:00 AM 7.32 45.176 0.217 7.9 5.53 11.88
11/1/2020 11:45:00 AM 7.34 45.212 0.217 7.87 5.42 11.79
11/1/2020 12:00:00 PM 7.34 45.212 0.217 7.85 5.73 11.71
11/1/2020 12:15:00 PM 7.4 45.32 0.217 7.84 3.32 11.71
11/1/2020 12:30:00 PM 7.44 45.392 0.216 7.86 3.34 11.74
11/1/2020 12:45:00 PM 7.47 45.446 0.216 7.87 9058.58 11.76
11/1/2020 1:00:00 PM 7.52 45.536 0.217 7.9 3.21 11.83
11/1/2020 1:15:00 PM 7.52 45.536 0.217 7.85 41.82 11.71
11/1/2020 1:30:00 PM 7.58 45.644 0.218 7.84 8.84 11.71
11/1/2020 1:45:00 PM 7.56 45.608 0.217 7.86 3.64 11.74
11/1/2020 2:00:00 PM 7.59 45.662 0.217 7.75 11.21 11.63
11/1/2020 2:15:00 PM 7.61 45.698 0.217 7.75 5.5 11.48
11/1/2020 2:30:00 PM 7.61 45.698 0.192 7.75 3.35 11.41
11/1/2020 2:45:00 PM 7.59 45.662 0.174 7.73 3.57 11.37
11/1/2020 3:00:00 PM 7.62 45.716 0.212 7.72 59.65 11.34
11/1/2020 3:15:00 PM 7.62 45.716 0.215 7.76 10.68 11.44
11/1/2020 3:30:00 PM 7.4 45.32 0.214 7.68 18.53 11.3
11/1/2020 3:45:00 PM 7.29 45.122 0.214 7.66 19.42 11.29
11/1/2020 4:00:00 PM 7.27 45.086 0.214 7.67 4.41 11.34
11/1/2020 4:15:00 PM 7.31 45.158 0.214 7.66 9.07 11.29
11/1/2020 4:30:00 PM 7.26 45.068 0.213 7.64 4.45 11.24
11/1/2020 4:45:00 PM 7.27 45.086 0.21 7.61 5.27 11.19
11/1/2020 5:00:00 PM 7.18 44.924 0.213 7.59 4.67 11.15
11/1/2020 5:15:00 PM 7.11 44.798 0.213 7.59 4.52 11.12
11/1/2020 5:30:00 PM 7.01 44.618 0.214 7.56 3.69 11.11
11/1/2020 5:45:00 PM 6.97 44.546 0.215 7.57 4.05 11.1
11/1/2020 6:00:00 PM 6.94 44.492 0.216 7.56 13.03 11.1
11/1/2020 6:15:00 PM 6.93 44.474 0.216 7.56 788.26 11.1
11/1/2020 6:30:00 PM 6.9 44.42 0.216 7.54 1217.14 11.1
11/1/2020 6:45:00 PM 6.84 44.312 0.216 7.55 21.08 11.12
11/1/2020 7:00:00 PM 6.81 44.258 0.217 7.53 21.37 11.12
11/1/2020 7:15:00 PM 6.72 44.096 0.217 7.55 29.11 11.15
11/1/2020 7:30:00 PM 6.65 43.97 0.217 7.56 29.82 11.17
11/1/2020 7:45:00 PM 6.64 43.952 0.2 7.55 31.43 11.17
11/1/2020 8:00:00 PM 6.55 43.79 0.217 7.56 34.64 11.21
11/1/2020 8:15:00 PM 6.51 43.718 0.217 7.54 19.03 11.18
11/1/2020 8:30:00 PM 6.47 43.646 0.218 7.55 15.27 11.22
11/1/2020 8:45:00 PM 6.42 43.556 0.207 7.54 14.93 11.24
11/1/2020 9:00:00 PM 6.32 43.376 0.217 7.54 14.94 11.27
11/1/2020 9:15:00 PM 6.25 43.25 0.217 7.54 13.61 11.27
11/1/2020 9:30:00 PM 6.16 43.088 0.215 7.54 13.85 11.3
11/1/2020 9:45:00 PM 6.1 42.98 0.218 7.53 251.36 11.32
11/1/2020 10:00:00 PM 6.07 42.926 0.218 7.57 14.47 11.34
11/1/2020 10:15:00 PM 6.05 42.89 0.219 7.54 13.58 11.33
11/1/2020 10:30:00 PM 6 42.8 0.219 7.56 13.37 11.37
11/1/2020 10:45:00 PM 5.98 42.764 0.219 7.57 13.85 11.38
11/1/2020 11:00:00 PM 5.9 42.62 0.219 7.56 14.59 11.41
11/1/2020 11:15:00 PM 5.86 42.548 0.219 7.56 14.45 11.41
11/1/2020 11:30:00 PM 5.81 42.458 0.219 7.56 15.98 11.44
11/1/2020 11:45:00 PM 5.77 42.386 0.218 7.57 79.1 11.45
11/2/2020 12:00:00 AM 5.74 42.332 0.218 7.58 14.59 11.47
11/2/2020 12:15:00 AM 5.71 42.278 0.218 7.58 7767.97 11.47
11/2/2020 12:30:00 AM 5.68 42.224 0.218 7.59 301.92 11.48
11/2/2020 12:45:00 AM 5.71 42.278 0.219 7.58 15.32 11.48
11/2/2020 1:00:00 AM 5.66 42.188 0.218 7.6 206.7 11.51
11/2/2020 1:15:00 AM 5.69 42.242 0.218 7.57 61.45 11.46
11/2/2020 1:30:00 AM 5.66 42.188 0.219 7.6 9.37 11.51
11/2/2020 1:45:00 AM 5.6 42.08 0.218 7.59 4.54 11.5
11/2/2020 2:00:00 AM 5.61 42.098 0.219 7.59 5.16 11.48
11/2/2020 2:15:00 AM 5.56 42.008 0.217 7.61 5.14 11.53
11/2/2020 2:30:00 AM 5.48 41.864 0.218 7.56 4.53 11.51
11/2/2020 2:45:00 AM 5.42 41.756 0.217 7.58 3.74 11.54
11/2/2020 3:00:00 AM 5.3 41.54 0.218 7.56 3.24 11.54
11/2/2020 3:15:00 AM 4.96 40.928 0.217 7.54 3.08 11.58
11/2/2020 3:30:00 AM 5.04 41.072 0.217 7.6 2.98 11.61
11/2/2020 3:45:00 AM 4.94 40.892 0.217 7.58 3.02 11.66
11/2/2020 4:00:00 AM 4.98 40.964 0.217 7.61 2.99 11.67
11/2/2020 4:15:00 AM 5.03 41.054 0.218 7.6 3.09 11.68
11/2/2020 4:30:00 AM 4.96 40.928 0.217 7.59 2.91 11.7
11/2/2020 4:45:00 AM 4.83 40.694 0.218 7.54 2.92 11.73
11/2/2020 5:00:00 AM 4.79 40.622 0.218 7.57 2.99 11.76
11/2/2020 5:15:00 AM 4.68 40.424 0.217 7.58 2.99 11.79
11/2/2020 5:30:00 AM 4.44 39.992 0.217 7.54 3.03 11.82
11/2/2020 5:45:00 AM 4.44 39.992 0.216 7.58 3.09 11.84
11/2/2020 6:00:00 AM 4.36 39.848 0.216 7.58 3.14 11.89
11/2/2020 6:15:00 AM 4.42 39.956 0.217 7.58 3.08 11.88
11/2/2020 6:30:00 AM 4.35 39.83 0.217 7.56 2.99 11.93
11/2/2020 6:45:00 AM 4.28 39.704 0.217 7.6 3.24 11.98
11/2/2020 7:00:00 AM 4.22 39.596 0.217 7.58 3.33 12.01
11/2/2020 7:15:00 AM 4.18 39.524 0.217 7.61 2.9 12.12
11/2/2020 7:30:00 AM 4.19 39.542 0.218 7.63 2.97 12.26
11/2/2020 7:45:00 AM 4.16 39.488 0.217 7.69 2.93 12.46
11/2/2020 8:00:00 AM 4.19 39.542 0.217 7.7 2.98 12.53
11/2/2020 8:15:00 AM 4.16 39.488 0.217 7.74 2.95 12.65
11/2/2020 8:30:00 AM 4.22 39.596 0.217 7.77 3.04 12.76
11/2/2020 8:45:00 AM 4.18 39.524 0.217 7.82 3.02 12.88
11/2/2020 9:00:00 AM 4.29 39.722 0.218 7.86 2.88 12.97
11/2/2020 9:15:00 AM 4.36 39.848 0.218 7.91 2.8 12.99
11/2/2020 9:30:00 AM 4.32 39.776 0.218 7.92 2.85 13.03
11/2/2020 9:45:00 AM 4.42 39.956 0.22 7.94 2.83 13.04
11/2/2020 10:00:00 AM 4.4 39.92 0.222 7.97 2.84 13.07
11/2/2020 10:15:00 AM 4.5 40.1 0.226 8.03 2.78 13.15
11/2/2020 10:30:00 AM 4.59 40.262 0.242 8.03 2.93 13.16
11/2/2020 10:45:00 AM 4.67 40.406 0.272 8.06 3.03 13.17
11/2/2020 11:00:00 AM 4.79 40.622 0.271 8.09 2.97 13.19
11/2/2020 11:15:00 AM 4.84 40.712 0.269 8.07 2.96 13.13
11/2/2020 11:30:00 AM 5.01 41.018 0.262 8.08 2.96 13.09
11/2/2020 11:45:00 AM 5.12 41.216 0.257 8.13 2.9 13.14
11/2/2020 12:00:00 PM 5.22 41.396 0.253 8.13 2.93 13.12
11/2/2020 12:15:00 PM 5.29 41.522 0.248 8.12 2.93 13.07
11/2/2020 12:30:00 PM 5.3 41.54 0.244 8.11 2.95 13.02
11/2/2020 12:45:00 PM 5.32 41.576 0.24 8.1 2.95 13.01
11/2/2020 1:00:00 PM 5.4 41.72 0.236 8.09 3 12.93
11/2/2020 1:15:00 PM 5.49 41.882 0.234 8.12 2.92 12.95
11/2/2020 1:30:00 PM 5.48 41.864 0.228 8.09 2.89 12.91
11/2/2020 1:45:00 PM 5.55 41.99 0.228 8.13 2.89 12.94
11/2/2020 2:00:00 PM 5.54 41.972 0.227 8.07 2.79 12.84
11/2/2020 2:15:00 PM 5.57 42.026 0.221 8.08 2.77 12.85
11/2/2020 2:30:00 PM 5.57 42.026 0.222 8.08 2.87 12.85
11/2/2020 2:45:00 PM 5.6 42.08 0.215 8.07 2.83 12.83
11/2/2020 3:00:00 PM 5.53 41.954 0.211 8.08 2.79 12.89
11/2/2020 3:15:00 PM 5.57 42.026 0.22 8.04 2.77 12.8
11/2/2020 3:30:00 PM 5.43 41.774 0.219 8.01 2.86 12.79
11/2/2020 3:45:00 PM 5.41 41.738 0.219 7.94 2.85 12.64
11/2/2020 4:00:00 PM 5.38 41.684 0.219 7.91 2.77 12.56
11/2/2020 4:15:00 PM 5.3 41.54 0.218 7.81 2.79 12.39
11/2/2020 4:30:00 PM 5.2 41.36 0.219 7.77 2.78 12.29
11/2/2020 4:45:00 PM 5.18 41.324 0.218 7.7 2.82 12.12
11/2/2020 5:00:00 PM 5.06 41.108 0.218 7.66 2.9 12.06
11/2/2020 5:15:00 PM 4.96 40.928 0.218 7.61 2.84 11.99
11/2/2020 5:30:00 PM 4.92 40.856 0.218 7.59 2.92 11.9
11/2/2020 5:45:00 PM 4.87 40.766 0.218 7.59 2.92 11.92
11/2/2020 6:00:00 PM 4.83 40.694 0.218 7.55 2.96 11.91
11/2/2020 6:15:00 PM 4.82 40.676 0.217 7.56 2.93 11.88
11/2/2020 6:30:00 PM 4.74 40.532 0.217 7.53 2.93 11.88
11/2/2020 6:45:00 PM 4.66 40.388 0.218 7.54 2.99 11.91
11/2/2020 7:00:00 PM 4.7 40.46 0.219 7.56 3.04 11.9
11/2/2020 7:15:00 PM 4.72 40.496 0.223 7.56 3.13 11.91
11/2/2020 7:30:00 PM 4.75 40.55 0.225 7.51 3.44 11.91
11/2/2020 7:45:00 PM 4.81 40.658 0.225 7.51 2.99 11.87
11/2/2020 8:00:00 PM 4.79 40.622 0.227 7.51 2.93 11.88
11/2/2020 8:15:00 PM 4.75 40.55 0.228 7.52 3.2 11.92
11/2/2020 8:30:00 PM 4.79 40.622 0.227 7.51 3.01 11.89
11/2/2020 8:45:00 PM 4.81 40.658 0.226 7.51 3.05 11.87
11/2/2020 9:00:00 PM 4.85 40.73 0.225 7.49 2.96 11.86
11/2/2020 9:15:00 PM 4.86 40.748 0.224 7.51 2.85 11.82
11/2/2020 9:30:00 PM 4.79 40.622 0.222 7.52 8.27 11.87
11/2/2020 9:45:00 PM 4.82 40.676 0.222 7.49 2.89 11.84
11/2/2020 10:00:00 PM 4.78 40.604 0.22 7.5 2.94 11.86
11/2/2020 10:15:00 PM 4.79 40.622 0.22 7.56 2.94 11.87
11/2/2020 10:30:00 PM 4.82 40.676 0.22 7.58 2.91 11.84
11/2/2020 10:45:00 PM 4.81 40.658 0.219 7.58 2.81 11.85
11/2/2020 11:00:00 PM 4.86 40.748 0.22 7.57 2.9 11.85
11/2/2020 11:15:00 PM 4.85 40.73 0.22 7.58 2.85 11.85
11/2/2020 11:30:00 PM 4.85 40.73 0.22 7.59 2.9 11.85
11/2/2020 11:45:00 PM 4.88 40.784 0.22 7.59 2.92 11.83
11/3/2020 12:00:00 AM 4.88 40.784 0.22 7.57 2.86 11.81
11/3/2020 12:15:00 AM 4.87 40.766 0.22 7.57 2.86 11.82
11/3/2020 12:30:00 AM 4.91 40.838 0.22 7.6 2.82 11.79
11/3/2020 12:45:00 AM 4.92 40.856 0.22 7.58 2.69 11.8
11/3/2020 1:00:00 AM 5 41 0.221 7.56 2.96 11.77
11/3/2020 1:15:00 AM 4.95 40.91 0.22 7.58 3.01 11.8
11/3/2020 1:30:00 AM 4.98 40.964 0.22 7.59 2.98 11.78
11/3/2020 1:45:00 AM 5 41 0.22 7.59 3.02 11.77
11/3/2020 2:00:00 AM 5.01 41.018 0.22 7.58 2.89 11.77
11/3/2020 2:15:00 AM 5.03 41.054 0.22 7.56 3.4 11.76
11/3/2020 2:30:00 AM 5.03 41.054 0.22 7.57 1149.82 11.75
11/3/2020 2:45:00 AM 5.1 41.18 0.22 7.54 333.76 11.71
11/3/2020 3:00:00 AM 5.14 41.252 0.214 7.51 6.97 11.72
11/3/2020 3:15:00 AM 5.14 41.252 0.22 7.52 3.5 11.7
11/3/2020 3:30:00 AM 5.18 41.324 0.216 7.53 3.53 11.72
11/3/2020 3:45:00 AM 5.15 41.27 0.08 7.53 10.48 11.74
11/3/2020 4:00:00 AM 5.15 41.27 0.16 7.54 3.47 11.73
11/3/2020 4:15:00 AM 5.18 41.324 0.159 7.54 3.19 11.72
11/3/2020 4:30:00 AM 5.21 41.378 0.22 7.55 3.57 11.69
11/3/2020 4:45:00 AM 5.2 41.36 0.221 7.54 3.36 11.73
11/3/2020 5:00:00 AM 5.22 41.396 0.174 7.53 8.18 11.68
11/3/2020 5:15:00 AM 5.31 41.558 0.221 7.51 3.47 11.63
11/3/2020 5:30:00 AM 5.27 41.486 0.221 7.54 4.03 11.64
11/3/2020 5:45:00 AM 5.25 41.45 0.221 7.54 5.84 11.69
11/3/2020 6:00:00 AM 5.25 41.45 0.22 7.53 3.69 11.69
11/3/2020 6:15:00 AM 5.32 41.576 0.222 7.53 3.85 11.69
11/3/2020 6:30:00 AM 5.31 41.558 0.221 7.53 10.55 11.67
11/3/2020 6:45:00 AM 5.31 41.558 0.221 7.53 4.18 11.69
11/3/2020 7:00:00 AM 5.29 41.522 0.221 7.54 3.93 11.73
11/3/2020 7:15:00 AM 5.3 41.54 0.221 7.54 4.67 11.74
11/3/2020 7:30:00 AM 5.28 41.504 0.22 7.55 3.8 11.8
11/3/2020 7:45:00 AM 5.29 41.522 0.22 7.61 3.65 11.96
11/3/2020 8:00:00 AM 5.38 41.684 0.221 7.63 4.22 12.1
11/3/2020 8:15:00 AM 5.4 41.72 0.221 7.68 3.86 12.28
11/3/2020 8:30:00 AM 5.4 41.72 0.221 7.76 3.51 12.51
11/3/2020 8:45:00 AM 5.39 41.702 0.22 7.82 3.93 12.61
11/3/2020 9:00:00 AM 5.41 41.738 0.219 7.87 4.04 12.72
11/3/2020 9:15:00 AM 5.53 41.954 0.216 7.89 3.77 12.75
11/3/2020 9:30:00 AM 5.64 42.152 0.219 7.93 3.74 12.76
11/3/2020 9:45:00 AM 5.82 42.476 0.219 8.02 4.86 12.89
11/3/2020 10:00:00 AM 5.97 42.746 0.218 8.08 3.74 12.93
11/3/2020 10:15:00 AM 6.12 43.016 0.218 8.05 4.02 12.84
11/3/2020 10:30:00 AM 6.17 43.106 0.218 8.11 4.15 12.95
11/3/2020 10:45:00 AM 6.36 43.448 0.219 8.16 4.09 12.96
11/3/2020 11:00:00 AM 6.38 43.484 0.217 8.15 4.22 12.89
11/3/2020 11:15:00 AM 6.47 43.646 0.217 8.15 4.26 12.87
11/3/2020 11:30:00 AM 6.48 43.664 0.217 8.15 4.49 12.82
11/3/2020 11:45:00 AM 6.52 43.736 0.218 8.12 4.09 12.79
11/3/2020 12:00:00 PM 6.6 43.88 0.217 8.19 4.23 12.84
11/3/2020 12:15:00 PM 6.63 43.934 0.217 8.18 4.91 12.83
11/3/2020 12:30:00 PM 6.64 43.952 0.216 8.18 4.54 12.84
11/3/2020 12:45:00 PM 6.7 44.06 0.216 8.2 4.4 12.85
11/3/2020 1:00:00 PM 6.76 44.168 0.216 8.23 4.63 12.83
11/3/2020 1:15:00 PM 6.76 44.168 0.216 8.23 4.83 12.85
11/3/2020 1:30:00 PM 6.79 44.222 0.216 8.22 4.86 12.83
11/3/2020 1:45:00 PM 6.82 44.276 0.215 8.25 4.07 12.83
11/3/2020 2:00:00 PM 6.82 44.276 0.216 8.18 4.45 12.68
11/3/2020 2:15:00 PM 6.82 44.276 0.216 8.18 3.9 12.7
11/3/2020 2:30:00 PM 6.83 44.294 0.215 8.19 4.61 12.71
11/3/2020 2:45:00 PM 6.81 44.258 0.215 8.16 4.11 12.67
11/3/2020 3:00:00 PM 6.82 44.276 0.215 8.13 3.88 12.61
11/3/2020 3:15:00 PM 6.77 44.186 0.216 8.07 4.11 12.49
11/3/2020 3:30:00 PM 6.72 44.096 0.216 8.01 4.38 12.39
11/3/2020 3:45:00 PM 6.68 44.024 0.215 7.98 4.39 12.37
11/3/2020 4:00:00 PM 6.63 43.934 0.216 7.94 3.76 12.34
11/3/2020 4:15:00 PM 6.58 43.844 0.216 7.9 4.43 12.3
11/3/2020 4:30:00 PM 6.47 43.646 0.079 7.86 3.65 12.15
11/3/2020 4:45:00 PM 6.45 43.61 0.151 7.75 4.23 12
11/3/2020 5:00:00 PM 6.4 43.52 0.216 7.69 4.83 11.9
11/3/2020 5:15:00 PM 6.34 43.412 0.216 7.67 20.53 11.79
11/3/2020 5:30:00 PM 6.29 43.322 0.217 7.6 5.19 11.71
11/3/2020 5:45:00 PM 6.22 43.196 0.217 7.58 3.57 11.69
11/3/2020 6:00:00 PM 6.16 43.088 0.216 7.54 4.76 11.63
11/3/2020 6:15:00 PM 6.09 42.962 0.217 7.58 3.23 11.64
11/3/2020 6:30:00 PM 6.02 42.836 0.217 7.57 2.64 11.62
11/3/2020 6:45:00 PM 5.94 42.692 0.217 7.5 3 11.66
11/3/2020 7:00:00 PM 5.88 42.584 0.217 7.5 3.11 11.68
11/3/2020 7:15:00 PM 5.8 42.44 0.217 7.49 3.07 11.7
11/3/2020 7:30:00 PM 5.73 42.314 0.217 7.49 3.34 11.72
11/3/2020 7:45:00 PM 5.67 42.206 0.217 7.5 3.25 11.74
11/3/2020 8:00:00 PM 5.62 42.116 0.217 7.48 3.14 11.76
11/3/2020 8:15:00 PM 5.55 41.99 0.217 7.49 3.11 11.78
11/3/2020 8:30:00 PM 5.46 41.828 0.217 7.49 3.17 11.83
11/3/2020 8:45:00 PM 5.39 41.702 0.216 7.49 3.04 11.83
11/3/2020 9:00:00 PM 5.31 41.558 0.216 7.49 3.23 11.87
11/3/2020 9:15:00 PM 5.28 41.504 0.216 7.49 2.96 11.9
11/3/2020 9:30:00 PM 5.22 41.396 0.216 7.5 3.16 11.91
11/3/2020 9:45:00 PM 5.19 41.342 0.213 7.47 3.29 11.92
11/3/2020 10:00:00 PM 5.14 41.252 0.216 7.47 3.77 11.95
11/3/2020 10:15:00 PM 5.11 41.198 0.216 7.47 3.69 11.96
11/3/2020 10:30:00 PM 5.06 41.108 0.21 7.48 3.83 11.99
11/3/2020 10:45:00 PM 4.99 40.982 0.216 7.5 3.47 12
11/3/2020 11:00:00 PM 4.96 40.928 0.215 7.49 3.62 12.03
11/3/2020 11:15:00 PM 4.99 40.982 0.211 7.5 4.24 12.01
11/3/2020 11:30:00 PM 4.96 40.928 0.216 7.49 3.4 12.02
11/3/2020 11:45:00 PM 4.89 40.802 0.216 7.51 8.94 12.08
11/4/2020 12:00:00 AM 4.89 40.802 0.216 7.5 8.23 12.07
11/4/2020 12:15:00 AM 4.82 40.676 0.216 7.5 10.45 12.08
11/4/2020 12:30:00 AM 4.86 40.748 0.216 7.49 12.85 12.09
11/4/2020 12:45:00 AM 4.81 40.658 0.216 7.51 11.16 12.09
11/4/2020 1:00:00 AM 4.79 40.622 0.216 7.5 96.27 12.08
11/4/2020 1:15:00 AM 4.78 40.604 0.216 7.5 14.25 12.11
11/4/2020 1:30:00 AM 4.76 40.568 0.216 7.5 13.8 12.12
11/4/2020 1:45:00 AM 4.75 40.55 0.216 7.5 11.8 12.13
11/4/2020 2:00:00 AM 4.73 40.514 0.216 7.49 9.94 12.11
11/4/2020 2:15:00 AM 4.71 40.478 0.215 7.49 13.79 12.12
11/4/2020 2:30:00 AM 4.72 40.496 0.215 7.49 13.32 12.11
11/4/2020 2:45:00 AM 4.65 40.37 0.215 7.52 10.16 12.15
11/4/2020 3:00:00 AM 4.66 40.388 0.215 7.51 4.54 12.15
11/4/2020 3:15:00 AM 4.63 40.334 0.215 7.52 4.89 12.13
11/4/2020 3:30:00 AM 4.59 40.262 0.215 7.5 2.64 12.17
11/4/2020 3:45:00 AM 4.55 40.19 0.215 7.52 2.66 12.18
11/4/2020 4:00:00 AM 4.53 40.154 0.214 7.51 2.7 12.17
11/4/2020 4:15:00 AM 4.54 40.172 0.215 7.51 2.68 12.19
11/4/2020 4:30:00 AM 4.53 40.154 0.215 7.52 2.69 12.18
11/4/2020 4:45:00 AM 4.46 40.028 0.214 7.51 3.22 12.21
11/4/2020 5:00:00 AM 4.45 40.01 0.214 7.54 6.55 12.24
11/4/2020 5:15:00 AM 4.49 40.082 0.214 7.55 10.29 12.18
11/4/2020 5:30:00 AM 4.42 39.956 0.214 7.53 6.35 12.23
11/4/2020 5:45:00 AM 4.45 40.01 0.214 7.5 3.38 12.2
11/4/2020 6:00:00 AM 4.43 39.974 0.214 7.52 3.89 12.23
11/4/2020 6:15:00 AM 4.45 40.01 0.214 7.52 3.9 12.19
11/4/2020 6:30:00 AM 4.4 39.92 0.214 7.53 3.82 12.27
11/4/2020 6:45:00 AM 4.41 39.938 0.214 7.52 3.19 12.25
11/4/2020 7:00:00 AM 4.46 40.028 0.215 7.53 2.95 12.34
11/4/2020 7:15:00 AM 4.37 39.866 0.213 7.54 3.12 12.42
11/4/2020 7:30:00 AM 4.41 39.938 0.214 7.55 2.99 12.5
11/4/2020 7:45:00 AM 4.41 39.938 0.213 7.57 3 12.56
11/4/2020 8:00:00 AM 4.41 39.938 0.213 7.62 3.05 12.71
11/4/2020 8:15:00 AM 4.48 40.064 0.213 7.66 2.93 12.8
11/4/2020 8:30:00 AM 4.58 40.244 0.213 7.67 2.72 12.84
11/4/2020 8:45:00 AM 4.69 40.442 0.213 7.73 2.94 12.91
11/4/2020 9:00:00 AM 4.74 40.532 0.212 7.77 2.91 12.98
11/4/2020 9:15:00 AM 4.93 40.874 0.213 7.79 2.74 12.99
11/4/2020 9:30:00 AM 5.04 41.072 0.213 7.86 2.72 13.07
11/4/2020 9:45:00 AM 5.24 41.432 0.212 7.89 2.61 13.05
11/4/2020 10:00:00 AM 5.39 41.702 0.211 7.93 2.85 13.06
11/4/2020 10:15:00 AM 5.55 41.99 0.211 7.95 2.84 13.08
11/4/2020 10:30:00 AM 5.86 42.548 0.212 7.95 2.75 13.01
11/4/2020 10:45:00 AM 5.99 42.782 0.211 8 2.66 13.05
11/4/2020 11:00:00 AM 6.21 43.178 0.211 8.01 2.61 13.02
11/4/2020 11:15:00 AM 6.51 43.718 0.212 8.03 2.55 12.9
11/4/2020 11:30:00 AM 6.67 44.006 0.211 8.05 2.65 12.92
11/4/2020 11:45:00 AM 6.83 44.294 0.21 8.12 2.63 12.94
11/4/2020 12:00:00 PM 7.07 44.726 0.21 8.12 2.57 12.87
11/4/2020 12:15:00 PM 7.27 45.086 0.209 8.14 2.65 12.82
11/4/2020 12:30:00 PM 7.53 45.554 0.21 8.11 2.58 12.71
11/4/2020 12:45:00 PM 7.67 45.806 0.21 8.14 2.52 12.68
11/4/2020 1:00:00 PM 7.85 46.13 0.21 8.13 2.61 12.61
11/4/2020 1:15:00 PM 7.96 46.328 0.21 8.13 2.64 12.62
11/4/2020 1:30:00 PM 8.12 46.616 0.21 8.21 2.47 12.55
11/4/2020 1:45:00 PM 8.2 46.76 0.209 8.19 2.51 12.53
11/4/2020 2:00:00 PM 8.28 46.904 0.209 8.18 2.59 12.48
11/4/2020 2:15:00 PM 8.34 47.012 0.209 8.17 2.56 12.42
11/4/2020 2:30:00 PM 8.4 47.12 0.21 8.13 2.54 12.36
11/4/2020 2:45:00 PM 8.41 47.138 0.21 8.1 2.34 12.31
11/4/2020 3:00:00 PM 8.38 47.084 0.209 8.08 2.43 12.3
11/4/2020 3:15:00 PM 8.37 47.066 0.21 8.03 3.12 12.18
11/4/2020 3:30:00 PM 8.31 46.958 0.21 8 6.03 12.11
11/4/2020 3:45:00 PM 8.26 46.868 0.21 7.94 4.39 11.99
11/4/2020 4:00:00 PM 8.19 46.742 0.21 7.84 2740.33 11.89
11/4/2020 4:15:00 PM 8.12 46.616 0.21 7.79 5294.65 11.79
11/4/2020 4:30:00 PM 8.03 46.454 0.21 7.74 15761.07 11.66
11/4/2020 4:45:00 PM 7.98 46.364 0.211 7.67 3.08 11.5
11/4/2020 5:00:00 PM 7.9 46.22 0.211 7.62 2.84 11.42
11/4/2020 5:15:00 PM 7.85 46.13 0.211 7.57 2.63 11.3
11/4/2020 5:30:00 PM 7.79 46.022 0.212 7.53 3.19 11.24
11/4/2020 5:45:00 PM 7.72 45.896 0.212 7.51 2.85 11.19
11/4/2020 6:00:00 PM 7.65 45.77 0.211 7.5 3.25 11.18
11/4/2020 6:15:00 PM 7.61 45.698 0.212 7.49 3.08 11.16
11/4/2020 6:30:00 PM 7.53 45.554 0.212 7.5 2.79 11.19
11/4/2020 6:45:00 PM 7.48 45.464 0.212 7.49 2.76 11.18
11/4/2020 7:00:00 PM 7.4 45.32 0.212 7.5 2.94 11.23
11/4/2020 7:15:00 PM 7.37 45.266 0.212 7.48 3.04 11.2
11/4/2020 7:30:00 PM 7.33 45.194 0.213 7.49 2.99 11.22
11/4/2020 7:45:00 PM 7.26 45.068 0.212 7.5 2.97 11.24
11/4/2020 8:00:00 PM 7.23 45.014 0.212 7.47 2.85 11.25
11/4/2020 8:15:00 PM 7.16 44.888 0.212 7.48 3 11.28
11/4/2020 8:30:00 PM 7.14 44.852 0.213 7.46 2.88 11.27
11/4/2020 8:45:00 PM 7.08 44.744 0.213 7.46 2.66 11.3
11/4/2020 9:00:00 PM 6.99 44.582 0.212 7.46 2.98 11.33
11/4/2020 9:15:00 PM 6.94 44.492 0.213 7.48 2.9 11.35
11/4/2020 9:30:00 PM 6.9 44.42 0.213 7.46 2.68 11.35
11/4/2020 9:45:00 PM 6.86 44.348 0.213 7.45 2.93 11.37
11/4/2020 10:00:00 PM 6.8 44.24 0.213 7.47 2.75 11.4
11/4/2020 10:15:00 PM 6.76 44.168 0.213 7.47 2.93 11.4
11/4/2020 10:30:00 PM 6.69 44.042 0.212 7.46 2.92 11.41
11/4/2020 10:45:00 PM 6.62 43.916 0.213 7.46 2.87 11.45
11/4/2020 11:00:00 PM 6.56 43.808 0.212 7.46 2.74 11.48
11/4/2020 11:15:00 PM 6.52 43.736 0.213 7.48 2.8 11.49
11/4/2020 11:30:00 PM 6.5 43.7 0.213 7.45 2.66 11.45
11/4/2020 11:45:00 PM 6.4 43.52 0.212 7.46 2.9 11.53
11/5/2020 12:00:00 AM 6.39 43.502 0.213 7.46 2.73 11.52
11/5/2020 12:15:00 AM 6.35 43.43 0.213 7.46 2.95 11.53
11/5/2020 12:30:00 AM 6.3 43.34 0.213 7.46 2.82 11.55
11/5/2020 12:45:00 AM 6.23 43.214 0.213 7.47 2.79 11.58
11/5/2020 1:00:00 AM 6.23 43.214 0.213 7.45 2.9 11.54
11/5/2020 1:15:00 AM 6.16 43.088 0.213 7.47 2.9 11.61
11/5/2020 1:30:00 AM 6.16 43.088 0.213 7.44 3.16 11.57
11/5/2020 1:45:00 AM 6.1 42.98 0.213 7.45 2.85 11.6
11/5/2020 2:00:00 AM 6.07 42.926 0.213 7.47 2.99 11.6
11/5/2020 2:15:00 AM 6.06 42.908 0.213 7.44 2.98 11.6
11/5/2020 2:30:00 AM 5.99 42.782 0.213 7.47 2.84 11.66
11/5/2020 2:45:00 AM 6.01 42.818 0.214 7.45 2.76 11.62
11/5/2020 3:00:00 AM 5.95 42.71 0.213 7.46 2.87 11.64
11/5/2020 3:15:00 AM 5.89 42.602 0.213 7.46 3.05 11.67
11/5/2020 3:30:00 AM 5.93 42.674 0.214 7.46 2.68 11.64
11/5/2020 3:45:00 AM 5.86 42.548 0.213 7.45 2.59 11.66
11/5/2020 4:00:00 AM 5.81 42.458 0.213 7.47 2.8 11.7
11/5/2020 4:15:00 AM 5.83 42.494 0.213 7.44 2.71 11.64
11/5/2020 4:30:00 AM 5.78 42.404 0.214 7.45 2.69 11.71
11/5/2020 4:45:00 AM 5.79 42.422 0.214 7.45 2.6 11.69
11/5/2020 5:00:00 AM 5.73 42.314 0.213 7.46 2.63 11.7
11/5/2020 5:15:00 AM 5.7 42.26 0.213 7.45 2.76 11.7
11/5/2020 5:30:00 AM 5.68 42.224 0.214 7.46 2.88 11.74
11/5/2020 5:45:00 AM 5.61 42.098 0.213 7.46 2.61 11.75
11/5/2020 6:00:00 AM 5.6 42.08 0.214 7.45 2.63 11.76
11/5/2020 6:15:00 AM 5.61 42.098 0.214 7.45 2.71 11.73
11/5/2020 6:30:00 AM 5.56 42.008 0.214 7.47 2.76 11.77
11/5/2020 6:45:00 AM 5.59 42.062 0.214 7.46 2.71 11.78
11/5/2020 7:00:00 AM 5.52 41.936 0.213 7.47 2.62 11.87
11/5/2020 7:15:00 AM 5.52 41.936 0.213 7.5 2.66 11.92
11/5/2020 7:30:00 AM 5.54 41.972 0.214 7.51 2.53 12.03
11/5/2020 7:45:00 AM 5.52 41.936 0.214 7.57 2.64 12.22
11/5/2020 8:00:00 AM 5.58 42.044 0.214 7.58 2.57 12.3
11/5/2020 8:15:00 AM 5.62 42.116 0.213 7.62 2.66 12.39
11/5/2020 8:30:00 AM 5.68 42.224 0.213 7.68 2.74 12.54
11/5/2020 8:45:00 AM 5.84 42.512 0.213 7.73 2.67 12.58
11/5/2020 9:00:00 AM 5.93 42.674 0.213 7.78 2.51 12.69
11/5/2020 9:15:00 AM 6.05 42.89 0.213 7.85 2.83 12.77
11/5/2020 9:30:00 AM 6.19 43.142 0.212 7.94 2.72 12.88
11/5/2020 9:45:00 AM 6.37 43.466 0.212 7.98 2.54 12.89
11/5/2020 10:00:00 AM 6.59 43.862 0.212 8.07 2.55 12.97
11/5/2020 10:15:00 AM 6.79 44.222 0.211 8.1 2.61 12.99
11/5/2020 10:30:00 AM 7.02 44.636 0.211 8.16 2.53 12.97
11/5/2020 10:45:00 AM 7.28 45.104 0.211 8.22 2.66 12.97
11/5/2020 11:00:00 AM 7.5 45.5 0.212 8.24 2.6 12.94
11/5/2020 11:15:00 AM 7.61 45.698 0.211 8.26 2.61 12.88
11/5/2020 11:30:00 AM 7.86 46.148 0.211 8.32 2.52 12.9
11/5/2020 11:45:00 AM 8.14 46.652 0.211 8.38 2.42 12.92
11/5/2020 12:00:00 PM 8.47 47.246 0.21 8.39 2.62 12.87
11/5/2020 12:15:00 PM 8.52 47.336 0.21 8.39 2.81 12.81
11/5/2020 12:30:00 PM 8.57 47.426 0.209 8.4 2.86 12.8
11/5/2020 12:45:00 PM 8.68 47.624 0.211 8.42 2.83 12.74
11/5/2020 1:00:00 PM 8.81 47.858 0.21 8.45 3.58 12.75
11/5/2020 1:15:00 PM 8.88 47.984 0.209 8.46 2.62 12.7
11/5/2020 1:30:00 PM 9.06 48.308 0.148 8.49 2.57 12.74
11/5/2020 1:45:00 PM 9.3 48.74 0.21 8.53 2.44 12.74
11/5/2020 2:00:00 PM 9.27 48.686 0.128 8.49 2.53 12.64
11/5/2020 2:15:00 PM 9.33 48.794 0.21 8.46 5.97 12.54
11/5/2020 2:30:00 PM 9.35 48.83 0.209 8.49 2.52 12.56
11/5/2020 2:45:00 PM 9.38 48.884 0.209 8.46 2.57 12.5
11/5/2020 3:00:00 PM 9.36 48.848 0.21 8.41 3.56 12.36
11/5/2020 3:15:00 PM 9.37 48.866 0.211 8.37 3.56 12.26
11/5/2020 3:30:00 PM 9.32 48.776 0.211 8.31 2.95 12.14
11/5/2020 3:45:00 PM 9.26 48.668 0.211 8.23 2.47 11.98
11/5/2020 4:00:00 PM 9.19 48.542 0.211 8.14 2.48 11.84
11/5/2020 4:15:00 PM 9.1 48.38 0.211 8.03 2.44 11.67
11/5/2020 4:30:00 PM 9.03 48.254 0.211 7.88 2.52 11.44
11/5/2020 4:45:00 PM 8.96 48.128 0.211 7.78 2.73 11.28
11/5/2020 5:00:00 PM 8.87 47.966 0.21 7.7 2.68 11.17
11/5/2020 5:15:00 PM 8.78 47.804 0.209 7.64 2.68 11.05
11/5/2020 5:30:00 PM 8.72 47.696 0.208 7.56 2.89 10.94
11/5/2020 5:45:00 PM 8.64 47.552 0.208 7.54 2.87 10.91
11/5/2020 6:00:00 PM 8.57 47.426 0.21 7.5 2.81 10.87
11/5/2020 6:15:00 PM 8.48 47.264 0.211 7.49 2.84 10.86
11/5/2020 6:30:00 PM 8.4 47.12 0.212 7.5 2.76 10.88
11/5/2020 6:45:00 PM 8.32 46.976 0.212 7.47 2.85 10.87
11/5/2020 7:00:00 PM 8.24 46.832 0.213 7.47 2.77 10.87
11/5/2020 7:15:00 PM 8.19 46.742 0.214 7.44 2.82 10.86
11/5/2020 7:30:00 PM 8.09 46.562 0.213 7.45 2.82 10.91
11/5/2020 7:45:00 PM 8.03 46.454 0.214 7.45 2.96 10.9
11/5/2020 8:00:00 PM 7.97 46.346 0.214 7.45 2.93 10.91
11/5/2020 8:15:00 PM 7.89 46.202 0.214 7.44 3.1 10.95
11/5/2020 8:30:00 PM 7.82 46.076 0.214 7.45 2.64 10.98
11/5/2020 8:45:00 PM 7.78 46.004 0.215 7.44 2.54 10.98
11/5/2020 9:00:00 PM 7.7 45.86 0.215 7.45 2.7 10.99
11/5/2020 9:15:00 PM 7.65 45.77 0.215 7.44 2.6 11
11/5/2020 9:30:00 PM 7.59 45.662 0.215 7.44 2.69 11.05
11/5/2020 9:45:00 PM 7.55 45.59 0.216 7.44 2.63 11.06
11/5/2020 10:00:00 PM 7.51 45.518 0.216 7.45 2.59 11.07
11/5/2020 10:15:00 PM 7.46 45.428 0.215 7.45 2.53 11.06
11/5/2020 10:30:00 PM 7.44 45.392 0.216 7.44 2.61 11.08
11/5/2020 10:45:00 PM 7.39 45.302 0.216 7.46 2.63 11.1
11/5/2020 11:00:00 PM 7.37 45.266 0.216 7.46 2.75 11.11
11/5/2020 11:15:00 PM 7.37 45.266 0.216 7.45 2.72 11.1
11/5/2020 11:30:00 PM 7.32 45.176 0.216 7.47 2.57 11.12
11/5/2020 11:45:00 PM 7.33 45.194 0.217 7.47 2.64 11.1
11/6/2020 12:00:00 AM 7.35 45.23 0.217 7.45 2.6 11.08
11/6/2020 12:15:00 AM 7.33 45.194 0.217 7.45 2.67 11.1
11/6/2020 12:30:00 AM 7.3 45.14 0.217 7.46 2.64 11.12
11/6/2020 12:45:00 AM 7.31 45.158 0.217 7.46 2.67 11.1
11/6/2020 1:00:00 AM 7.31 45.158 0.217 7.46 2.62 11.12
11/6/2020 1:15:00 AM 7.31 45.158 0.217 7.46 2.63 11.11
11/6/2020 1:30:00 AM 7.29 45.122 0.217 7.47 2.68 11.14
11/6/2020 1:45:00 AM 7.3 45.14 0.217 7.46 2.66 11.11
11/6/2020 2:00:00 AM 7.3 45.14 0.218 7.46 2.71 11.12
11/6/2020 2:15:00 AM 7.26 45.068 0.218 7.47 2.57 11.14
11/6/2020 2:30:00 AM 7.25 45.05 0.219 7.46 2.78 11.12
11/6/2020 2:45:00 AM 7.2 44.96 0.218 7.45 2.48 11.13
11/6/2020 3:00:00 AM 7.18 44.924 0.219 7.45 2.8 11.12
11/6/2020 3:15:00 AM 7.17 44.906 0.219 7.45 2.15 11.1
11/6/2020 3:30:00 AM 7.11 44.798 0.219 7.53 2.3 11.13
11/6/2020 3:45:00 AM 7.07 44.726 0.219 7.51 2.33 11.16
11/6/2020 4:00:00 AM 7.03 44.654 0.219 7.51 2.29 11.13
11/6/2020 4:15:00 AM 6.97 44.546 0.219 7.53 2.36 11.18
11/6/2020 4:30:00 AM 6.92 44.456 0.219 7.53 2.24 11.18
11/6/2020 4:45:00 AM 6.91 44.438 0.22 7.52 2.25 11.17
11/6/2020 5:00:00 AM 6.86 44.348 0.22 7.51 2.3 11.21
11/6/2020 5:15:00 AM 6.79 44.222 0.219 7.53 2.32 11.24
11/6/2020 5:30:00 AM 6.76 44.168 0.22 7.53 2.29 11.25
11/6/2020 5:45:00 AM 6.7 44.06 0.22 7.54 2.24 11.28
11/6/2020 6:00:00 AM 6.69 44.042 0.22 7.53 2.26 11.26
11/6/2020 6:15:00 AM 6.64 43.952 0.22 7.53 2.3 11.3
11/6/2020 6:30:00 AM 6.58 43.844 0.22 7.54 2.22 11.33
11/6/2020 6:45:00 AM 6.58 43.844 0.221 7.53 2.23 11.32
11/6/2020 7:00:00 AM 6.54 43.772 0.221 7.56 2.28 11.4
11/6/2020 7:15:00 AM 6.51 43.718 0.22 7.58 2.28 11.57
11/6/2020 7:30:00 AM 6.5 43.7 0.22 7.63 2.22 11.73
11/6/2020 7:45:00 AM 6.51 43.718 0.22 7.65 2.16 11.89
11/6/2020 8:00:00 AM 6.54 43.772 0.22 7.64 2.65 12.07
11/6/2020 8:15:00 AM 6.59 43.862 0.22 7.71 3.14 12.28
11/6/2020 8:30:00 AM 6.62 43.916 0.22 7.76 2.87 12.38
11/6/2020 8:45:00 AM 6.75 44.15 0.22 7.83 2.81 12.52
11/6/2020 9:00:00 AM 6.8 44.24 0.219 7.93 2.99 12.63
11/6/2020 9:15:00 AM 6.97 44.546 0.22 7.98 2.91 12.7
11/6/2020 9:30:00 AM 7.09 44.762 0.219 8.15 2.51 12.82
11/6/2020 9:45:00 AM 7.26 45.068 0.219 8.24 2.41 12.91
11/6/2020 10:00:00 AM 7.48 45.464 0.219 8.31 2.44 12.96
11/6/2020 10:15:00 AM 7.68 45.824 0.218 8.36 2.42 13
11/6/2020 10:30:00 AM 7.91 46.238 0.218 8.41 2.4 13.03
11/6/2020 10:45:00 AM 8.13 46.634 0.218 8.45 2.36 13.02
11/6/2020 11:00:00 AM 8.36 47.048 0.218 8.5 2.28 12.98
11/6/2020 11:15:00 AM 8.58 47.444 0.218 8.52 2.3 12.95
11/6/2020 11:30:00 AM 8.83 47.894 0.218 8.54 2.3 12.93
11/6/2020 11:45:00 AM 9.05 48.29 0.217 8.51 1.9 12.84
11/6/2020 12:00:00 PM 9.23 48.614 0.216 8.56 1.92 12.86
11/6/2020 12:15:00 PM 9.45 49.01 0.217 8.56 1.93 12.81
11/6/2020 12:30:00 PM 9.62 49.316 0.217 8.58 1.98 12.78
11/6/2020 12:45:00 PM 9.8 49.64 0.217 8.57 1.96 12.73
11/6/2020 1:00:00 PM 9.95 49.91 0.217 8.6 1.91 12.73
11/6/2020 1:15:00 PM 10.08 50.144 0.217 8.57 1.92 12.67
11/6/2020 1:30:00 PM 10.19 50.342 0.217 8.59 1.97 12.58
11/6/2020 1:45:00 PM 10.25 50.45 0.216 8.61 1.88 12.6
11/6/2020 2:00:00 PM 10.32 50.576 0.217 8.58 1.92 12.51
11/6/2020 2:15:00 PM 10.36 50.648 0.216 8.58 1.94 12.49
11/6/2020 2:30:00 PM 10.37 50.666 0.216 8.55 1.89 12.41
11/6/2020 2:45:00 PM 10.32 50.576 0.217 8.51 1.92 12.29
11/6/2020 3:00:00 PM 10.32 50.576 0.217 8.48 1.92 12.22
11/6/2020 3:15:00 PM 10.25 50.45 0.216 8.45 1.96 12.12
11/6/2020 3:30:00 PM 10.19 50.342 0.217 8.36 1.93 11.95
11/6/2020 3:45:00 PM 10.1 50.18 0.217 8.29 1.93 11.82
11/6/2020 4:00:00 PM 10.02 50.036 0.217 8.22 1.97 11.68
11/6/2020 4:15:00 PM 9.94 49.892 0.219 8.08 1.96 11.45
11/6/2020 4:30:00 PM 9.81 49.658 0.218 7.94 1.95 11.23
11/6/2020 4:45:00 PM 9.73 49.514 0.22 7.79 1.9 10.99
11/6/2020 5:00:00 PM 9.63 49.334 0.22 7.7 1.97 10.85
11/6/2020 5:15:00 PM 9.53 49.154 0.22 7.63 1.95 10.75
11/6/2020 5:30:00 PM 9.46 49.028 0.221 7.56 1.96 10.65
11/6/2020 5:45:00 PM 9.34 48.812 0.22 7.54 2.01 10.62
11/6/2020 6:00:00 PM 9.27 48.686 0.221 7.51 2.03 10.58
11/6/2020 6:15:00 PM 9.19 48.542 0.221 7.49 2.01 10.56
11/6/2020 6:30:00 PM 9.1 48.38 0.222 7.48 2.02 10.57
11/6/2020 6:45:00 PM 9.02 48.236 0.222 7.46 2.01 10.57
11/6/2020 7:00:00 PM 8.93 48.074 0.222 7.46 1.97 10.58
11/6/2020 7:15:00 PM 8.86 47.948 0.222 7.45 2.05 10.59
11/6/2020 7:30:00 PM 8.78 47.804 0.222 7.45 1.99 10.61
11/6/2020 7:45:00 PM 8.69 47.642 0.223 7.45 1.99 10.64
11/6/2020 8:00:00 PM 8.62 47.516 0.219 7.44 2.23 10.64
11/6/2020 8:15:00 PM 8.54 47.372 0.223 7.49 2.72 10.65
11/6/2020 8:30:00 PM 8.46 47.228 0.222 7.45 2.02 10.68
11/6/2020 8:45:00 PM 8.4 47.12 0.223 7.44 2.04 10.69
11/6/2020 9:00:00 PM 8.32 46.976 0.224 7.45 1.99 10.72
11/6/2020 9:15:00 PM 8.23 46.814 0.223 7.46 2.01 10.75
11/6/2020 9:30:00 PM 8.18 46.724 0.223 7.44 2.02 10.75
11/6/2020 9:45:00 PM 8.14 46.652 0.224 7.44 2 10.76
11/6/2020 10:00:00 PM 8.04 46.472 0.224 7.45 2 10.81
11/6/2020 10:15:00 PM 7.97 46.346 0.224 7.46 2.02 10.81
11/6/2020 10:30:00 PM 7.92 46.256 0.224 7.46 1.97 10.83
11/6/2020 10:45:00 PM 7.87 46.166 0.225 7.46 1.98 10.86
11/6/2020 11:00:00 PM 7.81 46.058 0.225 7.45 1.94 10.86
11/6/2020 11:15:00 PM 7.75 45.95 0.225 7.45 1.94 10.88
11/6/2020 11:30:00 PM 7.69 45.842 0.225 7.46 1.93 10.92
11/6/2020 11:45:00 PM 7.65 45.77 0.225 7.46 1.94 10.92
11/7/2020 12:00:00 AM 7.6 45.68 0.226 7.45 1.95 10.92
11/7/2020 12:15:00 AM 7.54 45.572 0.226 7.45 1.96 10.95
11/7/2020 12:30:00 AM 7.5 45.5 0.226 7.44 2.01 10.96
11/7/2020 12:45:00 AM 7.42 45.356 0.225 7.44 1.99 11
11/7/2020 1:00:00 AM 7.37 45.266 0.226 7.44 1.95 11.01
11/7/2020 1:15:00 AM 7.31 45.158 0.226 7.44 1.99 11.04
11/7/2020 1:30:00 AM 7.26 45.068 0.226 7.44 1.95 11.04
11/7/2020 1:45:00 AM 7.23 45.014 0.227 7.44 1.96 11.07
11/7/2020 2:00:00 AM 7.19 44.942 0.226 7.44 1.97 11.05
11/7/2020 2:15:00 AM 7.12 44.816 0.226 7.45 1.93 11.08
11/7/2020 2:30:00 AM 7.11 44.798 0.227 7.45 2 11.11
11/7/2020 2:45:00 AM 7.03 44.654 0.226 7.46 1.95 11.1
11/7/2020 3:00:00 AM 7.02 44.636 0.227 7.44 1.94 11.11
11/7/2020 3:15:00 AM 6.96 44.528 0.227 7.45 1.98 11.16
11/7/2020 3:30:00 AM 6.93 44.474 0.226 7.44 1.99 11.13
11/7/2020 3:45:00 AM 6.87 44.366 0.226 7.45 1.96 11.19
11/7/2020 4:00:00 AM 6.86 44.348 0.227 7.44 1.96 11.18
11/7/2020 4:15:00 AM 6.78 44.204 0.227 7.45 1.97 11.2
11/7/2020 4:30:00 AM 6.76 44.168 0.227 7.5 2 11.19
11/7/2020 4:45:00 AM 6.72 44.096 0.226 7.47 2 11.22
11/7/2020 5:00:00 AM 6.66 43.988 0.227 7.46 2.08 11.25
11/7/2020 5:15:00 AM 6.66 43.988 0.227 7.45 2 11.24
11/7/2020 5:30:00 AM 6.59 43.862 0.227 7.46 1.96 11.28
11/7/2020 5:45:00 AM 6.62 43.916 0.228 7.45 2.03 11.28
11/7/2020 6:00:00 AM 6.52 43.736 0.227 7.47 2 11.31
11/7/2020 6:15:00 AM 6.53 43.754 0.228 7.45 1.99 11.3
11/7/2020 6:30:00 AM 6.51 43.718 0.228 7.45 2.01 11.32
11/7/2020 6:45:00 AM 6.48 43.664 0.228 7.47 2 11.35
11/7/2020 7:00:00 AM 6.44 43.592 0.227 7.49 1.98 11.47
11/7/2020 7:15:00 AM 6.41 43.538 0.228 7.52 1.94 11.65
11/7/2020 7:30:00 AM 6.43 43.574 0.227 7.55 1.93 11.78
11/7/2020 7:45:00 AM 6.42 43.556 0.227 7.6 1.98 11.99
11/7/2020 8:00:00 AM 6.47 43.646 0.227 7.65 1.98 12.17
11/7/2020 8:15:00 AM 6.5 43.7 0.226 7.72 1.96 12.35
11/7/2020 8:30:00 AM 6.58 43.844 0.226 7.79 1.95 12.48
11/7/2020 8:45:00 AM 6.64 43.952 0.226 7.9 1.9 12.64
11/7/2020 9:00:00 AM 6.76 44.168 0.226 7.98 1.93 12.78
11/7/2020 9:15:00 AM 6.91 44.438 0.226 8.08 1.92 12.93
11/7/2020 9:30:00 AM 7.08 44.744 0.225 8.15 1.95 13.03
11/7/2020 9:45:00 AM 7.27 45.086 0.225 8.25 1.92 13.11
11/7/2020 10:00:00 AM 7.44 45.392 0.225 8.32 1.93 13.15
11/7/2020 10:15:00 AM 7.65 45.77 0.225 8.38 1.9 13.22
11/7/2020 10:30:00 AM 7.89 46.202 0.224 8.44 1.9 13.24
11/7/2020 10:45:00 AM 8.12 46.616 0.224 8.49 1.92 13.24
11/7/2020 11:00:00 AM 8.33 46.994 0.223 8.53 1.93 13.28
11/7/2020 11:15:00 AM 8.67 47.606 0.223 8.6 1.9 13.28
11/7/2020 11:30:00 AM 8.8 47.84 0.223 8.62 1.9 13.25
11/7/2020 11:45:00 AM 8.97 48.146 0.223 8.67 1.83 13.27
11/7/2020 12:00:00 PM 9.15 48.47 0.222 8.67 1.88 13.16
11/7/2020 12:15:00 PM 9.36 48.848 0.222 8.69 1.91 13.13
11/7/2020 12:30:00 PM 9.61 49.298 0.222 8.72 1.91 13.11
11/7/2020 12:45:00 PM 9.79 49.622 0.221 8.73 1.9 13.07
11/7/2020 1:00:00 PM 9.91 49.838 0.221 8.75 1.82 13.04
11/7/2020 1:15:00 PM 10.01 50.018 0.22 8.75 1.86 13.01
11/7/2020 1:30:00 PM 10.14 50.252 0.221 8.74 1.87 12.91
11/7/2020 1:45:00 PM 10.25 50.45 0.221 8.73 1.84 12.85
11/7/2020 2:00:00 PM 10.32 50.576 0.221 8.72 1.81 12.81
11/7/2020 2:15:00 PM 10.36 50.648 0.222 8.7 1.94 12.73
11/7/2020 2:30:00 PM 10.37 50.666 0.221 8.68 1.95 12.64
11/7/2020 2:45:00 PM 10.36 50.648 0.221 8.68 2 12.59
11/7/2020 3:00:00 PM 10.32 50.576 0.222 8.61 1.97 12.45
11/7/2020 3:15:00 PM 10.27 50.486 0.221 8.59 2.02 12.34
11/7/2020 3:30:00 PM 10.17 50.306 0.221 8.52 2.03 12.16
11/7/2020 3:45:00 PM 10.09 50.162 0.222 8.45 12.05 11.98
11/7/2020 4:00:00 PM 9.99 49.982 0.222 8.36 1.91 11.8
11/7/2020 4:15:00 PM 9.92 49.856 0.223 8.24 5350.35 11.6
11/7/2020 4:30:00 PM 9.81 49.658 0.224 8.11 4535.14 11.37
11/7/2020 4:45:00 PM 9.71 49.478 0.223 7.94 2.03 11.13
11/7/2020 5:00:00 PM 9.61 49.298 0.225 7.8 28.97 10.93
11/7/2020 5:15:00 PM 9.51 49.118 0.225 7.67 482.36 10.78
11/7/2020 5:30:00 PM 9.4 48.92 0.225 7.66 7431.17 10.72
11/7/2020 5:45:00 PM 9.31 48.758 0.225 7.57 2.14 10.66
11/7/2020 6:00:00 PM 9.2 48.56 0.225 7.56 2.12 10.64
11/7/2020 6:15:00 PM 9.08 48.344 0.229 7.56 2.19 10.63
11/7/2020 6:30:00 PM 8.97 48.146 0.228 7.53 2.13 10.63
11/7/2020 6:45:00 PM 8.89 48.002 0.227 7.51 2.13 10.63
11/7/2020 7:00:00 PM 8.83 47.894 0.227 7.48 2.12 10.61
11/7/2020 7:15:00 PM 8.76 47.768 0.226 7.49 2.12 10.63
11/7/2020 7:30:00 PM 8.7 47.66 0.226 7.47 2.14 10.63
11/7/2020 7:45:00 PM 8.62 47.516 0.226 7.46 2.2 10.67
11/7/2020 8:00:00 PM 8.53 47.354 0.225 7.48 2.12 10.68
11/7/2020 8:15:00 PM 8.5 47.3 0.226 7.46 2.11 10.68
11/7/2020 8:30:00 PM 8.44 47.192 0.226 7.44 2.13 10.67
11/7/2020 8:45:00 PM 8.32 46.976 0.226 7.46 2.18 10.74
11/7/2020 9:00:00 PM 8.25 46.85 0.226 7.46 2.07 10.76
11/7/2020 9:15:00 PM 8.21 46.778 0.227 7.45 1.97 10.76
11/7/2020 9:30:00 PM 8.11 46.598 0.227 7.46 1.95 10.78
11/7/2020 9:45:00 PM 8.07 46.526 0.227 7.44 1.93 10.78
11/7/2020 10:00:00 PM 7.99 46.382 0.227 7.45 1.94 10.82
11/7/2020 10:15:00 PM 7.91 46.238 0.227 7.45 1.96 10.85
11/7/2020 10:30:00 PM 7.84 46.112 0.227 7.45 1.99 10.84
11/7/2020 10:45:00 PM 7.76 45.968 0.228 7.46 1.98 10.89
11/7/2020 11:00:00 PM 7.74 45.932 0.228 7.44 1.99 10.85
11/7/2020 11:15:00 PM 7.66 45.788 0.228 7.45 2.01 10.91
11/7/2020 11:30:00 PM 7.58 45.644 0.229 7.46 2.01 10.93
11/7/2020 11:45:00 PM 7.52 45.536 0.229 7.46 2.08 10.96
11/8/2020 12:00:00 AM 7.45 45.41 0.229 7.46 1.97 10.98
11/8/2020 12:15:00 AM 7.4 45.32 0.229 7.46 2.01 11
11/8/2020 12:30:00 AM 7.34 45.212 0.229 7.45 1.97 11.01
11/8/2020 12:45:00 AM 7.26 45.068 0.229 7.46 2.03 11.03
11/8/2020 1:00:00 AM 7.25 45.05 0.23 7.44 1.99 11.04
11/8/2020 1:15:00 AM 7.19 44.942 0.23 7.45 1.98 11.07
11/8/2020 1:30:00 AM 7.14 44.852 0.23 7.45 2.05 11.06
11/8/2020 1:45:00 AM 7.07 44.726 0.23 7.45 1.99 11.12
11/8/2020 2:00:00 AM 7.03 44.654 0.23 7.46 2 11.09
11/8/2020 2:15:00 AM 6.99 44.582 0.23 7.43 2.06 11.12
11/8/2020 2:30:00 AM 6.91 44.438 0.23 7.46 2.03 11.15
11/8/2020 2:45:00 AM 6.88 44.384 0.231 7.45 2.02 11.19
11/8/2020 3:00:00 AM 6.83 44.294 0.231 7.45 1.99 11.18
11/8/2020 3:15:00 AM 6.79 44.222 0.23 7.45 1.98 11.18
11/8/2020 3:30:00 AM 6.77 44.186 0.231 7.45 1.99 11.22
11/8/2020 3:45:00 AM 6.72 44.096 0.231 7.46 2 11.21
11/8/2020 4:00:00 AM 6.67 44.006 0.231 7.45 2.01 11.21
11/8/2020 4:15:00 AM 6.64 43.952 0.231 7.45 1.97 11.2
11/8/2020 4:30:00 AM 6.64 43.952 0.231 7.44 1.97 11.21
11/8/2020 4:45:00 AM 6.52 43.736 0.231 7.45 1.98 11.26
11/8/2020 5:00:00 AM 6.53 43.754 0.232 7.44 2 11.25
11/8/2020 5:15:00 AM 6.45 43.61 0.232 7.45 2.01 11.31
11/8/2020 5:30:00 AM 6.44 43.592 0.232 7.45 1.99 11.29
11/8/2020 5:45:00 AM 6.37 43.466 0.232 7.45 2.02 11.32
11/8/2020 6:00:00 AM 6.37 43.466 0.233 7.46 2 11.31
11/8/2020 6:15:00 AM 6.33 43.394 0.233 7.46 2.06 11.35
11/8/2020 6:30:00 AM 6.28 43.304 0.233 7.45 2.12 11.39
11/8/2020 6:45:00 AM 6.22 43.196 0.233 7.48 2.03 11.4
11/8/2020 7:00:00 AM 6.21 43.178 0.233 7.48 2.05 11.53
11/8/2020 7:15:00 AM 6.17 43.106 0.233 7.52 1.98 11.69
11/8/2020 7:30:00 AM 6.22 43.196 0.235 7.55 1.97 11.87
11/8/2020 7:45:00 AM 6.18 43.124 0.233 7.61 2.04 12.08
11/8/2020 8:00:00 AM 6.21 43.178 0.233 7.67 2.02 12.29
11/8/2020 8:15:00 AM 6.25 43.25 0.233 7.74 1.96 12.45
11/8/2020 8:30:00 AM 6.3 43.34 0.232 7.82 2.03 12.62
11/8/2020 8:45:00 AM 6.41 43.538 0.232 7.91 1.99 12.82
11/8/2020 9:00:00 AM 6.54 43.772 0.232 8 1.98 12.97
11/8/2020 9:15:00 AM 6.65 43.97 0.231 8.13 1.96 13.13
11/8/2020 9:30:00 AM 6.81 44.258 0.231 8.22 1.97 13.23
11/8/2020 9:45:00 AM 7.06 44.708 0.231 8.29 4.84 13.26
11/8/2020 10:00:00 AM 7.22 44.996 0.231 8.4 81.48 13.41
11/8/2020 10:15:00 AM 7.45 45.41 0.23 8.47 281.23 13.43
11/8/2020 10:30:00 AM 7.73 45.914 0.23 8.49 1.94 13.37
11/8/2020 10:45:00 AM 7.96 46.328 0.23 8.56 1372.34 13.4
11/8/2020 11:00:00 AM 8.16 46.688 0.229 8.65 14.5 13.47
11/8/2020 11:15:00 AM 8.41 47.138 0.229 8.63 1.93 13.4
11/8/2020 11:30:00 AM 8.65 47.57 0.229 8.63 1.89 13.37
11/8/2020 11:45:00 AM 8.89 48.002 0.229 8.66 1.94 13.36
11/8/2020 12:00:00 PM 9.11 48.398 0.228 8.68 1.86 13.32
11/8/2020 12:15:00 PM 9.33 48.794 0.228 8.7 1.97 13.31
11/8/2020 12:30:00 PM 9.55 49.19 0.228 8.72 2.03 13.22
11/8/2020 12:45:00 PM 9.71 49.478 0.227 8.77 1.9 13.24
11/8/2020 1:00:00 PM 9.88 49.784 0.231 8.76 2.13 13.17
11/8/2020 1:15:00 PM 10.02 50.036 0.229 8.79 2.03 13.15
11/8/2020 1:30:00 PM 10.14 50.252 0.228 8.79 1.97 13.12
11/8/2020 1:45:00 PM 10.22 50.396 0.227 8.79 1.93 13.06
11/8/2020 2:00:00 PM 10.29 50.522 0.227 8.77 1.89 12.97
11/8/2020 2:15:00 PM 10.33 50.594 0.227 8.76 1.85 12.88
11/8/2020 2:30:00 PM 10.33 50.594 0.228 8.84 4.78 12.84
11/8/2020 2:45:00 PM 10.32 50.576 0.227 8.79 1.82 12.73
11/8/2020 3:00:00 PM 10.28 50.504 0.228 8.77 1.82 12.63
11/8/2020 3:15:00 PM 10.21 50.378 0.228 8.73 1.82 12.52
11/8/2020 3:30:00 PM 10.14 50.252 0.228 8.67 1.79 12.34
11/8/2020 3:45:00 PM 10.06 50.108 0.127 8.59 1.8 12.17
11/8/2020 4:00:00 PM 9.94 49.892 0.223 8.53 1.89 11.99
11/8/2020 4:15:00 PM 9.82 49.676 0.229 8.39 1.82 11.73
11/8/2020 4:30:00 PM 9.71 49.478 0.23 8.22 1.82 11.44
11/8/2020 4:45:00 PM 9.6 49.28 0.231 8.03 1.84 11.17
11/8/2020 5:00:00 PM 9.48 49.064 0.231 7.89 1.83 10.98
11/8/2020 5:15:00 PM 9.37 48.866 0.224 7.77 1.91 10.83
11/8/2020 5:30:00 PM 9.28 48.704 0.232 7.67 1.89 10.71
11/8/2020 5:45:00 PM 9.17 48.506 0.232 7.65 1.91 10.67
11/8/2020 6:00:00 PM 9.07 48.326 0.233 7.62 1.87 10.65
11/8/2020 6:15:00 PM 8.99 48.182 0.233 7.59 1.91 10.62
11/8/2020 6:30:00 PM 8.89 48.002 0.233 7.58 1.9 10.61
11/8/2020 6:45:00 PM 8.81 47.858 0.234 7.56 3.54 10.61
11/8/2020 7:00:00 PM 8.7 47.66 0.234 7.55 1.87 10.65
11/8/2020 7:15:00 PM 8.62 47.516 0.234 7.56 1.89 10.65
11/8/2020 7:30:00 PM 8.54 47.372 0.234 7.54 1.92 10.66
11/8/2020 7:45:00 PM 8.44 47.192 0.235 7.54 1.91 10.71
11/8/2020 8:00:00 PM 8.34 47.012 0.234 7.55 1.97 10.75
11/8/2020 8:15:00 PM 8.28 46.904 0.235 7.53 1.9 10.73
11/8/2020 8:30:00 PM 8.21 46.778 0.236 7.53 1.9 10.76
11/8/2020 8:45:00 PM 8.13 46.634 0.236 7.53 1.94 10.79
11/8/2020 9:00:00 PM 8.09 46.562 0.236 7.52 1.9 10.76
11/8/2020 9:15:00 PM 8 46.4 0.236 7.53 1.89 10.79
11/8/2020 9:30:00 PM 7.94 46.292 0.236 7.52 1.94 10.82
11/8/2020 9:45:00 PM 7.87 46.166 0.236 7.53 2 10.83
11/8/2020 10:00:00 PM 7.8 46.04 0.237 7.53 1.87 10.85
11/8/2020 10:15:00 PM 7.72 45.896 0.236 7.53 1.93 10.89
11/8/2020 10:30:00 PM 7.66 45.788 0.237 7.53 1.93 10.89
11/8/2020 10:45:00 PM 7.61 45.698 0.237 7.54 1.94 10.91
11/8/2020 11:00:00 PM 7.54 45.572 0.237 7.54 2.23 10.92
11/8/2020 11:15:00 PM 7.51 45.518 0.238 7.52 1.94 10.93
11/8/2020 11:30:00 PM 7.43 45.374 0.238 7.54 1.9 10.99
11/8/2020 11:45:00 PM 7.39 45.302 0.238 7.54 2.04 10.97
11/9/2020 12:00:00 AM 7.34 45.212 0.238 7.53 1.91 11
11/9/2020 12:15:00 AM 7.27 45.086 0.238 7.54 1.9 11.02
11/9/2020 12:30:00 AM 7.2 44.96 0.238 7.55 1.97 11.05
11/9/2020 12:45:00 AM 7.17 44.906 0.238 7.53 14.03 11.03
11/9/2020 1:00:00 AM 7.11 44.798 0.239 7.54 2.1 11.07
11/9/2020 1:15:00 AM 7.11 44.798 0.239 7.53 2.07 11.06
11/9/2020 1:30:00 AM 7.03 44.654 0.239 7.55 2.05 11.09
11/9/2020 1:45:00 AM 7.02 44.636 0.239 7.53 2.03 11.08
11/9/2020 2:00:00 AM 6.96 44.528 0.239 7.53 2.01 11.07
11/9/2020 2:15:00 AM 6.9 44.42 0.239 7.54 2.05 11.11
11/9/2020 2:30:00 AM 6.83 44.294 0.239 7.55 2.02 11.17
11/9/2020 2:45:00 AM 6.79 44.222 0.24 7.54 2.06 11.19
11/9/2020 3:00:00 AM 6.77 44.186 0.24 7.55 2.02 11.2
11/9/2020 3:15:00 AM 6.76 44.168 0.24 7.55 2.09 11.17
11/9/2020 3:30:00 AM 6.68 44.024 0.24 7.54 1.99 11.2
11/9/2020 3:45:00 AM 6.64 43.952 0.258 7.55 2.17 11.21
11/9/2020 4:00:00 AM 6.61 43.898 0.258 7.54 2.09 11.21
11/9/2020 4:15:00 AM 6.53 43.754 0.258 7.56 2.11 11.26
11/9/2020 4:30:00 AM 6.53 43.754 0.259 7.53 2.11 11.26
11/9/2020 4:45:00 AM 6.47 43.646 0.259 7.55 2.28 11.27
11/9/2020 5:00:00 AM 6.46 43.628 0.26 7.55 2.1 11.3
11/9/2020 5:15:00 AM 6.4 43.52 0.259 7.55 2.14 11.32
11/9/2020 5:30:00 AM 6.38 43.484 0.259 7.55 2.19 11.3
11/9/2020 5:45:00 AM 6.35 43.43 0.259 7.55 2.03 11.33
11/9/2020 6:00:00 AM 6.29 43.322 0.259 7.55 2.11 11.34
11/9/2020 6:15:00 AM 6.26 43.268 0.259 7.56 2.08 11.38
11/9/2020 6:30:00 AM 6.27 43.286 0.259 7.55 2.09 11.34
11/9/2020 6:45:00 AM 6.23 43.214 0.259 7.55 2.12 11.4
11/9/2020 7:00:00 AM 6.21 43.178 0.259 7.58 2.11 11.51
11/9/2020 7:15:00 AM 6.22 43.196 0.259 7.59 2.09 11.66
11/9/2020 7:30:00 AM 6.2 43.16 0.259 7.64 2.07 11.88
11/9/2020 7:45:00 AM 6.21 43.178 0.259 7.69 2.1 12.08
11/9/2020 8:00:00 AM 6.23 43.214 0.259 7.75 2.07 12.28
11/9/2020 8:15:00 AM 6.3 43.34 0.258 7.82 2 12.44
11/9/2020 8:30:00 AM 6.33 43.394 0.257 7.93 2.01 12.67
11/9/2020 8:45:00 AM 6.41 43.538 0.257 8.02 2 12.87
11/9/2020 9:00:00 AM 6.54 43.772 0.257 8.15 1.99 13.02
11/9/2020 9:15:00 AM 6.7 44.06 0.256 8.25 2 13.16
11/9/2020 9:30:00 AM 6.88 44.384 0.256 8.34 1.97 13.32
11/9/2020 9:45:00 AM 7.09 44.762 0.256 8.43 2.01 13.42
11/9/2020 10:00:00 AM 7.26 45.068 0.255 8.49 2.02 13.5
11/9/2020 10:15:00 AM 7.51 45.518 0.254 8.57 1.99 13.51
11/9/2020 10:30:00 AM 7.74 45.932 0.254 8.62 1.97 13.55
11/9/2020 10:45:00 AM 7.99 46.382 0.254 8.67 1.96 13.55
11/9/2020 11:00:00 AM 8.26 46.868 0.253 8.69 1.96 13.49
11/9/2020 11:15:00 AM 8.49 47.282 0.253 8.75 2.03 13.52
11/9/2020 11:30:00 AM 8.74 47.732 0.253 8.78 2 13.51
11/9/2020 11:45:00 AM 8.99 48.182 0.252 8.8 1.95 13.45
11/9/2020 12:00:00 PM 9.21 48.578 0.253 8.82 1.99 13.42
11/9/2020 12:15:00 PM 9.44 48.992 0.252 8.85 1.98 13.4
11/9/2020 12:30:00 PM 9.64 49.352 0.251 8.87 1.99 13.36
11/9/2020 12:45:00 PM 9.83 49.694 0.251 8.89 2 13.34
11/9/2020 1:00:00 PM 10 50 0.251 8.9 1.92 13.29
11/9/2020 1:15:00 PM 10.18 50.324 0.251 8.9 1.91 13.19
11/9/2020 1:30:00 PM 10.29 50.522 0.25 8.92 1.93 13.2
11/9/2020 1:45:00 PM 10.4 50.72 0.25 8.91 1.96 13.13
11/9/2020 2:00:00 PM 10.47 50.846 0.25 8.92 1.93 13.1
11/9/2020 2:15:00 PM 10.52 50.936 0.25 8.92 1.97 13.05
11/9/2020 2:30:00 PM 10.55 50.99 0.25 8.88 1.96 12.92
11/9/2020 2:45:00 PM 10.54 50.972 0.25 8.86 1.93 12.8
11/9/2020 3:00:00 PM 10.5 50.9 0.25 8.82 1.95 12.68
11/9/2020 3:15:00 PM 10.44 50.792 0.251 8.77 2.05 12.51
11/9/2020 3:30:00 PM 10.37 50.666 0.251 8.73 1.96 12.34
11/9/2020 3:45:00 PM 10.27 50.486 0.251 8.67 2.05 12.2
11/9/2020 4:00:00 PM 10.16 50.288 0.253 8.58 2.06 11.93
11/9/2020 4:15:00 PM 10.05 50.09 0.253 8.44 2.74 11.64
11/9/2020 4:30:00 PM 9.92 49.856 0.254 8.3 1.98 11.38
11/9/2020 4:45:00 PM 9.79 49.622 0.254 8.1 2 11.1
11/9/2020 5:00:00 PM 9.68 49.424 0.255 7.94 4.19 10.88
11/9/2020 5:15:00 PM 9.55 49.19 0.256 7.81 2.1 10.76
11/9/2020 5:30:00 PM 9.45 49.01 0.256 7.72 2.8 10.66
11/9/2020 5:45:00 PM 9.35 48.83 0.256 7.65 11.32 10.58
11/9/2020 6:00:00 PM 9.24 48.632 0.257 7.62 4.24 10.55
11/9/2020 6:15:00 PM 9.15 48.47 0.256 7.6 6.55 10.52
11/9/2020 6:30:00 PM 9.05 48.29 0.256 7.59 40.5 10.53
11/9/2020 6:45:00 PM 8.95 48.11 0.257 7.56 1629.26 10.53
11/9/2020 7:00:00 PM 8.88 47.984 0.257 7.53 890.56 10.51
11/9/2020 7:15:00 PM 8.78 47.804 0.257 7.53 1.88 10.55
11/9/2020 7:30:00 PM 8.69 47.642 0.258 7.53 8756.48 10.57
11/9/2020 7:45:00 PM 8.6 47.48 0.258 7.54 1.8 10.59
11/9/2020 8:00:00 PM 8.52 47.336 0.258 7.54 1.86 10.61
11/9/2020 8:15:00 PM 8.44 47.192 0.258 7.53 1.83 10.63
11/9/2020 8:30:00 PM 8.35 47.03 0.257 7.54 1.88 10.67
11/9/2020 8:45:00 PM 8.29 46.922 0.258 7.54 1.86 10.66
11/9/2020 9:00:00 PM 8.21 46.778 0.258 7.55 1.86 10.7
11/9/2020 9:15:00 PM 8.14 46.652 0.258 7.54 1.89 10.72
11/9/2020 9:30:00 PM 8.09 46.562 0.258 7.53 1.9 10.72
11/9/2020 9:45:00 PM 8.04 46.472 0.259 7.54 1.94 10.74
11/9/2020 10:00:00 PM 7.98 46.364 0.259 7.54 1.87 10.76
11/9/2020 10:15:00 PM 7.92 46.256 0.259 7.54 1.88 10.78
11/9/2020 10:30:00 PM 7.86 46.148 0.259 7.53 1.89 10.78
11/9/2020 10:45:00 PM 7.81 46.058 0.259 7.54 1.91 10.82
11/9/2020 11:00:00 PM 7.76 45.968 0.259 7.53 1.91 10.81
11/9/2020 11:15:00 PM 7.71 45.878 0.259 7.54 1.92 10.82
11/9/2020 11:30:00 PM 7.67 45.806 0.259 7.54 1.91 10.83
11/9/2020 11:45:00 PM 7.62 45.716 0.26 7.55 1.88 10.87
11/10/2020 12:00:00 AM 7.57 45.626 0.259 7.54 1.89 10.88
11/10/2020 12:15:00 AM 7.52 45.536 0.259 7.55 2.27 10.89
11/10/2020 12:30:00 AM 7.49 45.482 0.259 7.55 38.85 10.89
11/10/2020 12:45:00 AM 7.46 45.428 0.26 7.55 3667.64 10.92
11/10/2020 1:00:00 AM 7.44 45.392 0.26 7.55 12.25 10.91
11/10/2020 1:15:00 AM 7.41 45.338 0.26 7.55 17.4 10.92
11/10/2020 1:30:00 AM 7.35 45.23 0.26 7.55 2.16 10.94
11/10/2020 1:45:00 AM 7.34 45.212 0.261 7.55 2.1 10.95
11/10/2020 2:00:00 AM 7.31 45.158 0.26 7.55 2.05 10.95
11/10/2020 2:15:00 AM 7.29 45.122 0.26 7.55 2.05 10.94
11/10/2020 2:30:00 AM 7.24 45.032 0.26 7.55 2.03 10.98
11/10/2020 2:45:00 AM 7.21 44.978 0.26 7.56 2.05 10.99
11/10/2020 3:00:00 AM 7.23 45.014 0.261 7.55 2.01 10.97
11/10/2020 3:15:00 AM 7.2 44.96 0.261 7.54 2.03 10.96
11/10/2020 3:30:00 AM 7.18 44.924 0.262 7.54 2.01 10.97
11/10/2020 3:45:00 AM 7.13 44.834 0.261 7.55 2.06 10.99
11/10/2020 4:00:00 AM 7.1 44.78 0.261 7.56 2.07 11.02
11/10/2020 4:15:00 AM 7.08 44.744 0.261 7.54 2.02 11.01
11/10/2020 4:30:00 AM 7.07 44.726 0.261 7.54 2.04 10.99
11/10/2020 4:45:00 AM 7.01 44.618 0.261 7.57 2.02 11.03
11/10/2020 5:00:00 AM 6.99 44.582 0.261 7.54 2.04 11.05
11/10/2020 5:15:00 AM 6.99 44.582 0.261 7.56 2.34 11.04
11/10/2020 5:30:00 AM 6.99 44.582 0.261 7.55 2.14 11.04
11/10/2020 5:45:00 AM 6.98 44.564 0.261 7.56 2.06 11.06
11/10/2020 6:00:00 AM 6.98 44.564 0.261 7.57 2.03 11.05
11/10/2020 6:15:00 AM 6.96 44.528 0.262 7.57 2.11 11.06
11/10/2020 6:30:00 AM 6.95 44.51 0.262 7.57 2.05 11.07
11/10/2020 6:45:00 AM 6.96 44.528 0.262 7.57 2.13 11.08
11/10/2020 7:00:00 AM 6.98 44.564 0.262 7.56 2.11 11.14
11/10/2020 7:15:00 AM 6.93 44.474 0.261 7.62 3.54 11.38
11/10/2020 7:30:00 AM 6.96 44.528 0.262 7.66 2.18 11.6
11/10/2020 7:45:00 AM 6.95 44.51 0.261 7.73 6.89 11.84
11/10/2020 8:00:00 AM 7.03 44.654 0.261 7.81 3.02 12
11/10/2020 8:15:00 AM 7.04 44.672 0.26 7.89 2.67 12.26
11/10/2020 8:30:00 AM 7.12 44.816 0.26 7.98 2.54 12.45
11/10/2020 8:45:00 AM 7.25 45.05 0.26 8.08 2.05 12.63
11/10/2020 9:00:00 AM 7.34 45.212 0.259 8.22 2.09 12.87
11/10/2020 9:15:00 AM 7.51 45.518 0.258 8.32 2.03 13
11/10/2020 9:30:00 AM 7.7 45.86 0.257 8.43 2.04 13.12
11/10/2020 9:45:00 AM 7.89 46.202 0.257 8.5 2.06 13.25
11/10/2020 10:00:00 AM 8.13 46.634 0.257 8.56 2.04 13.27
11/10/2020 10:15:00 AM 8.33 46.994 0.256 8.64 2.07 13.33
11/10/2020 10:30:00 AM 8.57 47.426 0.256 8.7 2.06 13.42
11/10/2020 10:45:00 AM 8.84 47.912 0.255 8.73 2.09 13.37
11/10/2020 11:00:00 AM 9.09 48.362 0.255 8.78 2.07 13.42
11/10/2020 11:15:00 AM 9.33 48.794 0.254 8.83 2.05 13.42
11/10/2020 11:30:00 AM 9.63 49.334 0.253 8.85 2.01 13.35
11/10/2020 11:45:00 AM 9.93 49.874 0.254 8.87 2.01 13.3
11/10/2020 12:00:00 PM 10.17 50.306 0.252 8.92 2.06 13.34
11/10/2020 12:15:00 PM 10.34 50.612 0.253 8.95 2.04 13.34
11/10/2020 12:30:00 PM 10.57 51.026 0.252 8.96 2.03 13.24
11/10/2020 12:45:00 PM 10.79 51.422 0.252 8.98 2.04 13.22
11/10/2020 1:00:00 PM 11.01 51.818 0.252 8.99 2.02 13.13
11/10/2020 1:15:00 PM 11.15 52.07 0.251 9 2.03 13.08
11/10/2020 1:30:00 PM 11.29 52.322 0.252 9 2.01 13.04
11/10/2020 1:45:00 PM 11.4 52.52 0.251 9.01 2.02 12.99
11/10/2020 2:00:00 PM 11.5 52.7 0.251 8.97 2.03 12.88
11/10/2020 2:15:00 PM 11.55 52.79 0.251 8.96 2.26 12.82
11/10/2020 2:30:00 PM 11.57 52.826 0.251 8.96 2.02 12.72
11/10/2020 2:45:00 PM 11.55 52.79 0.252 8.87 2.21 12.56
11/10/2020 3:00:00 PM 11.52 52.736 0.251 8.88 2.47 12.52
11/10/2020 3:15:00 PM 11.49 52.682 0.251 8.83 2.05 12.32
11/10/2020 3:30:00 PM 11.4 52.52 0.252 8.74 3.3 12.12
11/10/2020 3:45:00 PM 11.3 52.34 0.252 8.69 1.98 11.94
11/10/2020 4:00:00 PM 11.18 52.124 0.253 8.59 1.99 11.65
11/10/2020 4:15:00 PM 11.09 51.962 0.255 8.48 2.03 11.33
11/10/2020 4:30:00 PM 10.98 51.764 0.255 8.34 2 11.06
11/10/2020 4:45:00 PM 10.88 51.584 0.256 8.15 1.95 10.75
11/10/2020 5:00:00 PM 10.76 51.368 0.257 7.97 2.11 10.51
11/10/2020 5:15:00 PM 10.66 51.188 0.258 7.84 1.9 10.33
11/10/2020 5:30:00 PM 10.57 51.026 0.258 7.72 2.17 10.24
11/10/2020 5:45:00 PM 10.47 50.846 0.259 7.66 2.2 10.17
11/10/2020 6:00:00 PM 10.36 50.648 0.259 7.61 2.16 10.15
11/10/2020 6:15:00 PM 10.26 50.468 0.259 7.58 2.2 10.12
11/10/2020 6:30:00 PM 10.18 50.324 0.26 7.57 1.96 10.12
11/10/2020 6:45:00 PM 10.1 50.18 0.259 7.56 1.95 10.12
11/10/2020 7:00:00 PM 10.01 50.018 0.26 7.53 1.81 10.12
11/10/2020 7:15:00 PM 9.93 49.874 0.26 7.52 1.89 10.14
11/10/2020 7:30:00 PM 9.85 49.73 0.26 7.51 2.12 10.14
11/10/2020 7:45:00 PM 9.77 49.586 0.261 7.5 2.17 10.16
11/10/2020 8:00:00 PM 9.69 49.442 0.26 7.5 2.2 10.2
11/10/2020 8:15:00 PM 9.63 49.334 0.26 7.5 2.2 10.2
11/10/2020 8:30:00 PM 9.57 49.226 0.261 7.5 2.19 10.21
11/10/2020 8:45:00 PM 9.52 49.136 0.261 7.5 2.18 10.22
11/10/2020 9:00:00 PM 9.46 49.028 0.261 7.5 2.22 10.26
11/10/2020 9:15:00 PM 9.44 48.992 0.261 7.5 2.17 10.23
11/10/2020 9:30:00 PM 9.37 48.866 0.261 7.51 2.19 10.28
11/10/2020 9:45:00 PM 9.35 48.83 0.261 7.51 2.25 10.26
11/10/2020 10:00:00 PM 9.34 48.812 0.262 7.49 2.22 10.22
11/10/2020 10:15:00 PM 9.31 48.758 0.262 7.5 2.24 10.28
11/10/2020 10:30:00 PM 9.32 48.776 0.262 7.5 2.21 10.22
11/10/2020 10:45:00 PM 9.29 48.722 0.262 7.51 2.21 10.26
11/10/2020 11:00:00 PM 9.29 48.722 0.262 7.49 2.29 10.26
11/10/2020 11:15:00 PM 9.29 48.722 0.262 7.5 2.28 10.23
11/10/2020 11:30:00 PM 9.23 48.614 0.262 7.49 2.28 10.26
11/10/2020 11:45:00 PM 9.2 48.56 0.262 7.5 2.28 10.27
11/11/2020 12:00:00 AM 9.19 48.542 0.262 7.5 2.33 10.3
11/11/2020 12:15:00 AM 9.17 48.506 0.262 7.5 2.28 10.28
11/11/2020 12:30:00 AM 9.17 48.506 0.263 7.5 2.16 10.29
11/11/2020 12:45:00 AM 9.13 48.434 0.262 7.5 2.09 10.29
11/11/2020 1:00:00 AM 9.12 48.416 0.263 7.5 2.14 10.3
11/11/2020 1:15:00 AM 9.16 48.488 0.263 7.51 2.07 10.29
11/11/2020 1:30:00 AM 9.14 48.452 0.263 7.5 2.1 10.26
11/11/2020 1:45:00 AM 9.1 48.38 0.263 7.59 1.9 10.29
11/11/2020 2:00:00 AM 9.09 48.362 0.264 7.58 5.59 10.29
11/11/2020 2:15:00 AM 9.11 48.398 0.264 7.59 5.45 10.28
11/11/2020 2:30:00 AM 9.08 48.344 0.264 7.58 3.9 10.29
11/11/2020 2:45:00 AM 9.08 48.344 0.264 7.58 2.18 10.28
11/11/2020 3:00:00 AM 9.08 48.344 0.264 7.58 1.96 10.29
11/11/2020 3:15:00 AM 9.07 48.326 0.264 7.57 1.99 10.27
11/11/2020 3:30:00 AM 9.02 48.236 0.264 7.58 2.14 10.31
11/11/2020 3:45:00 AM 8.99 48.182 0.264 7.57 2.07 10.3
11/11/2020 4:00:00 AM 9 48.2 0.264 7.58 1.99 10.29
11/11/2020 4:15:00 AM 9 48.2 0.264 7.57 1.84 10.31
11/11/2020 4:30:00 AM 8.99 48.182 0.264 7.57 1.94 10.32
11/11/2020 4:45:00 AM 8.94 48.092 0.264 7.57 1.97 10.34
11/11/2020 5:00:00 AM 8.93 48.074 0.264 7.57 1.91 10.33
11/11/2020 5:15:00 AM 8.96 48.128 0.265 7.57 2.34 10.31
11/11/2020 5:30:00 AM 8.93 48.074 0.264 7.58 2.42 10.33
11/11/2020 5:45:00 AM 8.89 48.002 0.264 7.58 2.02 10.34
11/11/2020 6:00:00 AM 8.9 48.02 0.264 7.57 1.9 10.32
11/11/2020 6:15:00 AM 8.91 48.038 0.265 7.58 1.87 10.33
11/11/2020 6:30:00 AM 8.95 48.11 0.265 7.59 1.92 10.34
11/11/2020 6:45:00 AM 9.02 48.236 0.265 7.6 2.07 10.34
11/11/2020 7:00:00 AM 9.07 48.326 0.264 7.64 2.1 10.5
11/11/2020 7:15:00 AM 9.12 48.416 0.265 7.66 1.9 10.58
11/11/2020 7:30:00 AM 9.15 48.47 0.264 7.68 2.1 10.69
11/11/2020 7:45:00 AM 9.24 48.632 0.264 7.75 1.97 10.99
11/11/2020 8:00:00 AM 9.26 48.668 0.264 7.77 1.86 11.03
11/11/2020 8:15:00 AM 9.33 48.794 0.263 7.75 1.91 10.85
11/11/2020 8:30:00 AM 9.37 48.866 0.261 7.75 1.86 10.84
11/11/2020 8:45:00 AM 9.46 49.028 0.26 7.76 1.95 10.82
11/11/2020 9:00:00 AM 9.6 49.28 0.258 7.75 2.15 10.72
11/11/2020 9:15:00 AM 9.69 49.442 0.256 7.76 1.98 10.77
11/11/2020 9:30:00 AM 9.74 49.532 0.255 7.78 2.08 10.81
11/11/2020 9:45:00 AM 9.83 49.694 0.255 7.8 2.26 10.87
11/11/2020 10:00:00 AM 9.97 49.946 0.27 7.82 3.58 10.91
11/11/2020 10:15:00 AM 10.08 50.144 0.274 7.85 5.12 11
11/11/2020 10:30:00 AM 10.25 50.45 0.26 7.85 5.6 10.9
11/11/2020 10:45:00 AM 10.48 50.864 0.25 7.87 5.24 10.92
11/11/2020 11:00:00 AM 10.59 51.062 0.245 7.88 4.86 10.95
11/11/2020 11:15:00 AM 10.74 51.332 0.24 7.89 4.79 10.9
11/11/2020 11:30:00 AM 10.89 51.602 0.235 7.78 7.92 10.75
11/11/2020 11:45:00 AM 11.15 52.07 0.226 7.87 9.13 10.68
11/11/2020 12:00:00 PM 11.32 52.376 0.222 7.87 8.48 10.65
11/11/2020 12:15:00 PM 11.42 52.556 0.223 7.88 8.1 10.71
11/11/2020 12:30:00 PM 11.41 52.538 0.223 7.86 7.61 10.74
11/11/2020 12:45:00 PM 11.43 52.574 0.224 7.83 7.04 10.67
11/11/2020 1:00:00 PM 11.46 52.628 0.223 7.81 6.65 10.61
11/11/2020 1:15:00 PM 11.46 52.628 0.224 7.75 6.62 10.49
11/11/2020 1:30:00 PM 11.38 52.484 0.227 7.74 8.37 10.52
11/11/2020 1:45:00 PM 11.35 52.43 0.222 7.76 15.96 10.53
11/11/2020 2:00:00 PM 11.37 52.466 0.216 7.74 51.1 10.44
11/11/2020 2:15:00 PM 11.3 52.34 0.215 7.68 113.49 10.4
11/11/2020 2:30:00 PM 11.28 52.304 0.203 7.65 111.52 10.42
11/11/2020 2:45:00 PM 11.2 52.16 0.199 7.6 135.09 10.44
11/11/2020 3:00:00 PM 11.1 51.98 0.193 7.58 177.42 10.47
11/11/2020 3:15:00 PM 11.08 51.944 0.188 7.56 165.41 10.43
11/11/2020 3:30:00 PM 11.13 52.034 0.183 7.56 180.05 10.45
11/11/2020 3:45:00 PM 11.17 52.106 0.176 7.54 179.06 10.46
11/11/2020 4:00:00 PM 11.24 52.232 0.169 7.51 162.78 10.44
11/11/2020 4:15:00 PM 11.3 52.34 0.164 7.49 151.33 10.42
11/11/2020 4:30:00 PM 11.36 52.448 0.159 7.47 151.49 10.4
11/11/2020 4:45:00 PM 11.37 52.466 0.148 7.42 187.03 10.38
11/11/2020 5:00:00 PM 11.34 52.412 0.15 7.35 172.99 10.36
11/11/2020 5:15:00 PM 11.29 52.322 0.147 7.32 158.9 10.36
11/11/2020 5:30:00 PM 11.27 52.286 0.142 7.29 150 10.35
11/11/2020 5:45:00 PM 11.3 52.34 0.134 7.28 145.47 10.33
11/11/2020 6:00:00 PM 11.32 52.376 0.129 7.28 107.18 10.32
11/11/2020 6:15:00 PM 11.31 52.358 0.127 7.26 112.47 10.33
11/11/2020 6:30:00 PM 11.28 52.304 0.127 7.24 85.64 10.34
11/11/2020 6:45:00 PM 11.24 52.232 0.127 7.23 90.83 10.35
11/11/2020 7:00:00 PM 11.21 52.178 0.128 7.22 63.39 10.36
11/11/2020 7:15:00 PM 11.19 52.142 0.129 7.22 54.6 10.37
11/11/2020 7:30:00 PM 11.18 52.124 0.13 7.2 54.54 10.37
11/11/2020 7:45:00 PM 11.18 52.124 0.131 7.22 52.84 10.38
11/11/2020 8:00:00 PM 11.18 52.124 0.132 7.23 45.45 10.39
11/11/2020 8:15:00 PM 11.17 52.106 0.133 7.25 40.8 10.39
11/11/2020 8:30:00 PM 11.15 52.07 0.134 7.24 38.37 10.4
11/11/2020 8:45:00 PM 11.14 52.052 0.134 7.25 36.44 10.4
11/11/2020 9:00:00 PM 11.12 52.016 0.135 7.27 32.39 10.41
11/11/2020 9:15:00 PM 11.1 51.98 0.136 7.27 36.73 10.42
11/11/2020 9:30:00 PM 11.08 51.944 0.137 7.26 33.78 10.42
11/11/2020 9:45:00 PM 11.06 51.908 0.138 7.28 28.17 10.43
11/11/2020 10:00:00 PM 11.04 51.872 0.138 7.26 27.35 10.43
11/11/2020 10:15:00 PM 11.01 51.818 0.139 7.28 25.23 10.45
11/11/2020 10:30:00 PM 10.99 51.782 0.139 7.26 24.19 10.45
11/11/2020 10:45:00 PM 10.96 51.728 0.14 7.27 23.44 10.46
11/11/2020 11:00:00 PM 10.92 51.656 0.14 7.27 20.85 10.47
11/11/2020 11:15:00 PM 10.87 51.566 0.14 7.27 20.46 10.48
11/11/2020 11:30:00 PM 10.82 51.476 0.141 7.28 18.13 10.49
11/11/2020 11:45:00 PM 10.76 51.368 0.141 7.29 18.3 10.51
11/12/2020 12:00:00 AM 10.71 51.278 0.141 7.28 17.58 10.52
11/12/2020 12:15:00 AM 10.65 51.17 0.142 7.3 17.37 10.53
11/12/2020 12:30:00 AM 10.6 51.08 0.142 7.31 16.48 10.55
11/12/2020 12:45:00 AM 10.55 50.99 0.142 7.29 15.1 10.56
11/12/2020 1:00:00 AM 10.5 50.9 0.143 7.3 15.33 10.58
11/12/2020 1:15:00 AM 10.44 50.792 0.143 7.31 14.37 10.59
11/12/2020 1:30:00 AM 10.39 50.702 0.143 7.31 15.75 10.61
11/12/2020 1:45:00 AM 10.35 50.63 0.144 7.29 14.46 10.62
11/12/2020 2:00:00 AM 10.31 50.558 0.144 7.3 12.97 10.63
11/12/2020 2:15:00 AM 10.25 50.45 0.144 7.31 12.82 10.64
11/12/2020 2:30:00 AM 10.19 50.342 0.145 7.31 12.38 10.66
11/12/2020 2:45:00 AM 10.15 50.27 0.145 7.32 11.76 10.67
11/12/2020 3:00:00 AM 10.1 50.18 0.145 7.32 11.55 10.69
11/12/2020 3:15:00 AM 10.05 50.09 0.146 7.32 11.1 10.7
11/12/2020 3:30:00 AM 9.99 49.982 0.146 7.33 11.22 10.72
11/12/2020 3:45:00 AM 9.92 49.856 0.146 7.32 10.52 10.74
11/12/2020 4:00:00 AM 9.87 49.766 0.147 7.33 10.28 10.75
11/12/2020 4:15:00 AM 9.82 49.676 0.147 7.33 10.04 10.76
11/12/2020 4:30:00 AM 9.76 49.568 0.147 7.34 9.76 10.78
11/12/2020 4:45:00 AM 9.71 49.478 0.148 7.33 9.99 10.8
11/12/2020 5:00:00 AM 9.66 49.388 0.148 7.34 9.69 10.8
11/12/2020 5:15:00 AM 9.62 49.316 0.149 7.35 9.17 10.82
11/12/2020 5:30:00 AM 9.57 49.226 0.149 7.35 8.83 10.83
11/12/2020 5:45:00 AM 9.53 49.154 0.149 7.35 8.59 10.85
11/12/2020 6:00:00 AM 9.48 49.064 0.15 7.35 8.44 10.87
11/12/2020 6:15:00 AM 9.44 48.992 0.15 7.35 8.37 10.88
11/12/2020 6:30:00 AM 9.4 48.92 0.151 7.35 7.98 10.89
11/12/2020 6:45:00 AM 9.35 48.83 0.151 7.35 7.75 10.9
11/12/2020 7:00:00 AM 9.3 48.74 0.151 7.35 7.59 10.92
11/12/2020 7:15:00 AM 9.25 48.65 0.152 7.36 7.49 10.93
11/12/2020 7:30:00 AM 9.2 48.56 0.152 7.36 7.2 10.95
11/12/2020 7:45:00 AM 9.14 48.452 0.152 7.37 6.78 10.98
11/12/2020 8:00:00 AM 9.1 48.38 0.153 7.37 6.74 11
11/12/2020 8:15:00 AM 9.08 48.344 0.153 7.37 6.71 11.03
11/12/2020 8:30:00 AM 9.04 48.272 0.153 7.39 6.74 11.07
11/12/2020 8:45:00 AM 9.02 48.236 0.153 7.39 6.66 11.09
11/12/2020 9:00:00 AM 9 48.2 0.154 7.4 6.52 11.13
11/12/2020 9:15:00 AM 8.97 48.146 0.154 7.41 6.37 11.15
11/12/2020 9:30:00 AM 8.96 48.128 0.154 7.42 6.36 11.18
11/12/2020 9:45:00 AM 8.94 48.092 0.155 7.43 6.26 11.2
11/12/2020 10:00:00 AM 8.92 48.056 0.155 7.44 6.02 11.24
11/12/2020 10:15:00 AM 8.93 48.074 0.155 7.43 6 11.26
11/12/2020 10:30:00 AM 8.93 48.074 0.155 7.46 5.68 11.28
11/12/2020 10:45:00 AM 8.92 48.056 0.155 7.46 5.67 11.3
11/12/2020 11:00:00 AM 8.91 48.038 0.156 7.46 5.65 11.3
11/12/2020 11:15:00 AM 8.91 48.038 0.156 7.46 5.45 11.3
11/12/2020 11:30:00 AM 8.91 48.038 0.156 7.46 5.26 11.3
11/12/2020 11:45:00 AM 8.91 48.038 0.157 7.48 5.34 11.31
11/12/2020 12:00:00 PM 8.91 48.038 0.157 7.48 5.19 11.32
11/12/2020 12:15:00 PM 8.94 48.092 0.157 7.49 5.13 11.34
11/12/2020 12:30:00 PM 8.98 48.164 0.158 7.52 5.31 11.37
11/12/2020 12:45:00 PM 9.02 48.236 0.158 7.53 4.85 11.38
11/12/2020 1:00:00 PM 9.05 48.29 0.158 7.53 4.75 11.39
11/12/2020 1:15:00 PM 9.1 48.38 0.158 7.55 4.69 11.4
11/12/2020 1:30:00 PM 9.12 48.416 0.159 7.54 6.43 11.4
11/12/2020 1:45:00 PM 9.14 48.452 0.159 7.55 4.49 11.39
11/12/2020 2:00:00 PM 9.15 48.47 0.159 7.55 4.41 11.38
11/12/2020 2:15:00 PM 9.15 48.47 0.159 7.54 4.37 11.37
11/12/2020 2:30:00 PM 9.12 48.416 0.16 7.52 4.18 11.35
11/12/2020 2:45:00 PM 9.1 48.38 0.16 7.51 4.26 11.34
11/12/2020 3:00:00 PM 9.08 48.344 0.16 7.55 4.39 11.33
11/12/2020 3:15:00 PM 9.06 48.308 0.161 7.54 4.28 11.34
11/12/2020 3:30:00 PM 9.01 48.218 0.161 7.52 4.4 11.34
11/12/2020 3:45:00 PM 8.96 48.128 0.161 7.52 4.29 11.32
11/12/2020 4:00:00 PM 8.89 48.002 0.162 7.49 4.33 11.29
11/12/2020 4:15:00 PM 8.84 47.912 0.162 7.48 4.24 11.26
11/12/2020 4:30:00 PM 8.77 47.786 0.162 7.45 4.25 11.23
11/12/2020 4:45:00 PM 8.69 47.642 0.162 7.44 4.89 11.2
11/12/2020 5:00:00 PM 8.61 47.498 0.163 7.38 4.76 11.18
11/12/2020 5:15:00 PM 8.53 47.354 0.163 7.37 4.85 11.17
11/12/2020 5:30:00 PM 8.45 47.21 0.163 7.38 4.65 11.17
11/12/2020 5:45:00 PM 8.36 47.048 0.163 7.37 4.67 11.18
11/12/2020 6:00:00 PM 8.27 46.886 0.164 7.36 4.76 11.19
11/12/2020 6:15:00 PM 8.18 46.724 0.164 7.36 4.75 11.21
11/12/2020 6:30:00 PM 8.11 46.598 0.164 7.36 4.73 11.23
11/12/2020 6:45:00 PM 8.02 46.436 0.165 7.36 4.86 11.25
11/12/2020 7:00:00 PM 7.94 46.292 0.165 7.35 5.1 11.26
11/12/2020 7:15:00 PM 7.86 46.148 0.165 7.33 5.44 11.29
11/12/2020 7:30:00 PM 7.77 45.986 0.165 7.36 5.22 11.31
11/12/2020 7:45:00 PM 7.69 45.842 0.166 7.36 5.08 11.34
11/12/2020 8:00:00 PM 7.61 45.698 0.166 7.36 5.26 11.37
11/12/2020 8:15:00 PM 7.53 45.554 0.166 7.35 5.06 11.39
11/12/2020 8:30:00 PM 7.45 45.41 0.167 7.34 4.94 11.41
11/12/2020 8:45:00 PM 7.38 45.284 0.167 7.35 5.67 11.43
11/12/2020 9:00:00 PM 7.31 45.158 0.167 7.34 5.17 11.46
11/12/2020 9:15:00 PM 7.23 45.014 0.167 7.34 5.29 11.47
11/12/2020 9:30:00 PM 7.16 44.888 0.168 7.33 5.17 11.49
11/12/2020 9:45:00 PM 7.09 44.762 0.168 7.35 5.25 11.52
11/12/2020 10:00:00 PM 7.03 44.654 0.168 7.34 5.28 11.54
11/12/2020 10:15:00 PM 6.96 44.528 0.168 7.31 4.27 11.56
11/12/2020 10:30:00 PM 6.89 44.402 0.168 7.31 4.53 11.58
11/12/2020 10:45:00 PM 6.83 44.294 0.168 7.28 4.91 11.6
11/12/2020 11:00:00 PM 6.76 44.168 0.167 7.32 4.41 11.62
11/12/2020 11:15:00 PM 6.7 44.06 0.167 7.3 4.79 11.65
11/12/2020 11:30:00 PM 6.63 43.934 0.167 7.3 4.99 11.66
11/12/2020 11:45:00 PM 6.57 43.826 0.166 7.3 5.14 11.69
11/13/2020 12:00:00 AM 6.51 43.718 0.166 7.3 4.93 11.71
11/13/2020 12:15:00 AM 6.45 43.61 0.166 7.28 4.52 11.72
11/13/2020 12:30:00 AM 6.39 43.502 0.165 7.31 2108.17 11.74
11/13/2020 12:45:00 AM 6.33 43.394 0.165 7.32 4.7 11.76
11/13/2020 1:00:00 AM 6.27 43.286 0.165 7.3 5.7 11.78
11/13/2020 1:15:00 AM 6.22 43.196 0.165 7.29 8.45 11.8
11/13/2020 1:30:00 AM 6.16 43.088 0.165 7.28 8.81 11.82
11/13/2020 1:45:00 AM 6.11 42.998 0.165 7.27 9.39 11.83
11/13/2020 2:00:00 AM 6.05 42.89 0.165 7.29 7.34 11.85
11/13/2020 2:15:00 AM 6 42.8 0.165 7.29 8.01 11.87
11/13/2020 2:30:00 AM 5.94 42.692 0.165 7.31 6.58 11.89
11/13/2020 2:45:00 AM 5.89 42.602 0.165 7.29 6.8 11.9
11/13/2020 3:00:00 AM 5.82 42.476 0.165 7.3 6.05 11.93
11/13/2020 3:15:00 AM 5.78 42.404 0.165 7.3 5.94 11.94
11/13/2020 3:30:00 AM 5.73 42.314 0.166 7.29 5.95 11.96
11/13/2020 3:45:00 AM 5.68 42.224 0.166 7.27 7.67 11.97
11/13/2020 4:00:00 AM 5.62 42.116 0.166 7.3 5.99 11.98
11/13/2020 4:15:00 AM 5.58 42.044 0.166 7.3 6.17 12
11/13/2020 4:30:00 AM 5.53 41.954 0.166 7.3 5.27 12.01
11/13/2020 4:45:00 AM 5.49 41.882 0.166 7.3 5.64 12.03
11/13/2020 5:00:00 AM 5.44 41.792 0.166 7.29 5.93 12.04
11/13/2020 5:15:00 AM 5.45 41.81 0.167 7.3 5.76 12.04
11/13/2020 5:30:00 AM 5.45 41.81 0.167 7.32 4.19 12.05
11/13/2020 5:45:00 AM 5.45 41.81 0.167 7.31 5.22 12.06
11/13/2020 6:00:00 AM 5.45 41.81 0.167 7.31 5.14 12.05
11/13/2020 6:15:00 AM 5.47 41.846 0.167 7.31 5.06 12.05
11/13/2020 6:30:00 AM 5.48 41.864 0.167 7.31 5.72 12.05
11/13/2020 6:45:00 AM 5.5 41.9 0.168 7.33 4.16 12.05
11/13/2020 7:00:00 AM 5.52 41.936 0.167 7.33 5.16 12.04
11/13/2020 7:15:00 AM 5.56 42.008 0.168 7.33 5.19 12.04
11/13/2020 7:30:00 AM 5.59 42.062 0.168 7.37 3.94 12.05
11/13/2020 7:45:00 AM 5.65 42.17 0.168 7.38 5.88 12.08
11/13/2020 8:00:00 AM 5.71 42.278 0.168 7.39 4.97 12.12
11/13/2020 8:15:00 AM 5.79 42.422 0.168 7.46 3.76 12.17
11/13/2020 8:30:00 AM 5.84 42.512 0.168 7.44 5.55 12.18
11/13/2020 8:45:00 AM 5.88 42.584 0.168 7.45 6.38 12.18
11/13/2020 9:00:00 AM 5.92 42.656 0.168 7.46 6.75 12.18
11/13/2020 9:15:00 AM 6.1 42.98 0.168